<?xml version="1.0" encoding="UTF-8" standalone="no" ?>
<gpx xmlns="http://www.topografix.com/GPX/1/1" xmlns:xsi="http://www.w3.org/2001/XMLSchema-instance" xsi:schemaLocation="http://www.topografix.com/GPX/1/1 http://www.topografix.com/GPX/1/1/gpx.xsd" version="1.1" creator="VisuGPX - https://www.visugpx.com">
  <metadata>
    <name>Sophia Valbonne cagne</name>
    <desc><![CDATA[Ballade vtt cool  . Pas trop de dénivelé. Possibilité de s arrêter à Valbonne à mi parcours]]></desc>
  </metadata>
  <trk>
    <name><![CDATA[cagne valbone depuis sophia]]></name>
    <desc><![CDATA[<h1>OruxMaps</h1><br /><hr align="center" width="480" style="height: 2px; width: 517px"/><h2>Nom: cagne valbone depuis sophia</h2><br /><p>Temps de départ: 10/09/2016 14:48</p><p>Temps d'arrivée: 10/09/2016 17:41</p><p>Distance: 30,8km (02:53)</p><p>Temps déplacement: 01:55</p><p>Vitesse moyenne: 10,7km/h</p><p>Vitesse moyenne: 16km/h</p><p>Vitess Max.: 42,1km/h</p><p>Altitude minimale: 29m</p><p>Altitude maximale: 232m</p><p>Vitesse d'élévation: 818,8m/h</p><p>Vitesse de descente: -808,6m/h</p><p>Gain Altitude: 1020m</p><p>Perte Altitude: -1030m</p><p>Temps d'élévation: 01:14</p><p>Temps de descente: 01:16</p><hr align="center" width="480" style="height: 2px; width: 517px"/>]]></desc>
    <trkseg>
      <trkpt lat="43.61676" lon="7.06568">
        <ele>133.07</ele>
        <time>2016-10-09T12:48:39Z</time>
      </trkpt>
      <trkpt lat="43.61677" lon="7.06593">
        <ele>127.23</ele>
        <time>2016-10-09T12:49:18Z</time>
      </trkpt>
      <trkpt lat="43.61676" lon="7.0662">
        <ele>125.68</ele>
        <time>2016-10-09T12:49:24Z</time>
      </trkpt>
      <trkpt lat="43.61684" lon="7.06645">
        <ele>122.96</ele>
        <time>2016-10-09T12:49:28Z</time>
      </trkpt>
      <trkpt lat="43.61665" lon="7.06653">
        <ele>124.62</ele>
        <time>2016-10-09T12:49:37Z</time>
      </trkpt>
      <trkpt lat="43.6166" lon="7.06623">
        <ele>122.23</ele>
        <time>2016-10-09T12:49:40Z</time>
      </trkpt>
      <trkpt lat="43.61648" lon="7.06601">
        <ele>120.87</ele>
        <time>2016-10-09T12:49:44Z</time>
      </trkpt>
      <trkpt lat="43.61641" lon="7.06574">
        <ele>120.66</ele>
        <time>2016-10-09T12:49:48Z</time>
      </trkpt>
      <trkpt lat="43.61645" lon="7.06548">
        <ele>114.82</ele>
        <time>2016-10-09T12:49:55Z</time>
      </trkpt>
      <trkpt lat="43.61646" lon="7.06518">
        <ele>112.55</ele>
        <time>2016-10-09T12:50:02Z</time>
      </trkpt>
      <trkpt lat="43.61648" lon="7.06488">
        <ele>115.04</ele>
        <time>2016-10-09T12:50:08Z</time>
      </trkpt>
      <trkpt lat="43.61651" lon="7.06458">
        <ele>114.92</ele>
        <time>2016-10-09T12:50:12Z</time>
      </trkpt>
      <trkpt lat="43.61655" lon="7.06432">
        <ele>115.77</ele>
        <time>2016-10-09T12:50:15Z</time>
      </trkpt>
      <trkpt lat="43.61652" lon="7.06404">
        <ele>120.88</ele>
        <time>2016-10-09T12:50:18Z</time>
      </trkpt>
      <trkpt lat="43.61651" lon="7.06376">
        <ele>120.91</ele>
        <time>2016-10-09T12:50:22Z</time>
      </trkpt>
      <trkpt lat="43.61655" lon="7.06348">
        <ele>119.46</ele>
        <time>2016-10-09T12:50:31Z</time>
      </trkpt>
      <trkpt lat="43.61658" lon="7.06321">
        <ele>121.34</ele>
        <time>2016-10-09T12:50:37Z</time>
      </trkpt>
      <trkpt lat="43.61662" lon="7.06295">
        <ele>120.69</ele>
        <time>2016-10-09T12:50:41Z</time>
      </trkpt>
      <trkpt lat="43.61667" lon="7.06269">
        <ele>116.94</ele>
        <time>2016-10-09T12:50:46Z</time>
      </trkpt>
      <trkpt lat="43.61672" lon="7.06242">
        <ele>115.47</ele>
        <time>2016-10-09T12:50:50Z</time>
      </trkpt>
      <trkpt lat="43.6167" lon="7.06214">
        <ele>116.96</ele>
        <time>2016-10-09T12:50:53Z</time>
      </trkpt>
      <trkpt lat="43.61676" lon="7.06186">
        <ele>116.29</ele>
        <time>2016-10-09T12:50:57Z</time>
      </trkpt>
      <trkpt lat="43.61682" lon="7.06156">
        <ele>118.02</ele>
        <time>2016-10-09T12:51:02Z</time>
      </trkpt>
      <trkpt lat="43.61688" lon="7.06131">
        <ele>118.16</ele>
        <time>2016-10-09T12:51:05Z</time>
      </trkpt>
      <trkpt lat="43.61693" lon="7.06102">
        <ele>118.42</ele>
        <time>2016-10-09T12:51:08Z</time>
      </trkpt>
      <trkpt lat="43.61696" lon="7.0607">
        <ele>118.69</ele>
        <time>2016-10-09T12:51:12Z</time>
      </trkpt>
      <trkpt lat="43.61687" lon="7.06036">
        <ele>119.62</ele>
        <time>2016-10-09T12:51:15Z</time>
      </trkpt>
      <trkpt lat="43.61694" lon="7.06007">
        <ele>119.61</ele>
        <time>2016-10-09T12:51:18Z</time>
      </trkpt>
      <trkpt lat="43.61709" lon="7.05985">
        <ele>118.75</ele>
        <time>2016-10-09T12:51:23Z</time>
      </trkpt>
      <trkpt lat="43.61727" lon="7.05963">
        <ele>119.15</ele>
        <time>2016-10-09T12:51:27Z</time>
      </trkpt>
      <trkpt lat="43.61743" lon="7.0595">
        <ele>119.8</ele>
        <time>2016-10-09T12:51:30Z</time>
      </trkpt>
      <trkpt lat="43.61753" lon="7.05923">
        <ele>123.4</ele>
        <time>2016-10-09T12:51:34Z</time>
      </trkpt>
      <trkpt lat="43.61764" lon="7.059">
        <ele>122</ele>
        <time>2016-10-09T12:51:38Z</time>
      </trkpt>
      <trkpt lat="43.61777" lon="7.05869">
        <ele>121.98</ele>
        <time>2016-10-09T12:51:42Z</time>
      </trkpt>
      <trkpt lat="43.61796" lon="7.05855">
        <ele>122.54</ele>
        <time>2016-10-09T12:51:47Z</time>
      </trkpt>
      <trkpt lat="43.61812" lon="7.05841">
        <ele>122.72</ele>
        <time>2016-10-09T12:51:50Z</time>
      </trkpt>
      <trkpt lat="43.61829" lon="7.05816">
        <ele>122.71</ele>
        <time>2016-10-09T12:51:56Z</time>
      </trkpt>
      <trkpt lat="43.61846" lon="7.05804">
        <ele>122.56</ele>
        <time>2016-10-09T12:51:58Z</time>
      </trkpt>
      <trkpt lat="43.61838" lon="7.05777">
        <ele>122.27</ele>
        <time>2016-10-09T12:52:00Z</time>
      </trkpt>
      <trkpt lat="43.61845" lon="7.05752">
        <ele>122.2</ele>
        <time>2016-10-09T12:52:02Z</time>
      </trkpt>
      <trkpt lat="43.61855" lon="7.05726">
        <ele>121.43</ele>
        <time>2016-10-09T12:52:05Z</time>
      </trkpt>
      <trkpt lat="43.61863" lon="7.05696">
        <ele>119.96</ele>
        <time>2016-10-09T12:52:08Z</time>
      </trkpt>
      <trkpt lat="43.61879" lon="7.05671">
        <ele>122.4</ele>
        <time>2016-10-09T12:52:11Z</time>
      </trkpt>
      <trkpt lat="43.61894" lon="7.0565">
        <ele>121.73</ele>
        <time>2016-10-09T12:52:13Z</time>
      </trkpt>
      <trkpt lat="43.61911" lon="7.05639">
        <ele>121.31</ele>
        <time>2016-10-09T12:52:15Z</time>
      </trkpt>
      <trkpt lat="43.61922" lon="7.0561">
        <ele>121.19</ele>
        <time>2016-10-09T12:52:18Z</time>
      </trkpt>
      <trkpt lat="43.61945" lon="7.05607">
        <ele>122.18</ele>
        <time>2016-10-09T12:52:21Z</time>
      </trkpt>
      <trkpt lat="43.61952" lon="7.05583">
        <ele>125.68</ele>
        <time>2016-10-09T12:52:23Z</time>
      </trkpt>
      <trkpt lat="43.61966" lon="7.05563">
        <ele>125.11</ele>
        <time>2016-10-09T12:52:26Z</time>
      </trkpt>
      <trkpt lat="43.61989" lon="7.05568">
        <ele>126.41</ele>
        <time>2016-10-09T12:52:28Z</time>
      </trkpt>
      <trkpt lat="43.62007" lon="7.05571">
        <ele>128.48</ele>
        <time>2016-10-09T12:52:30Z</time>
      </trkpt>
      <trkpt lat="43.62025" lon="7.05583">
        <ele>124.82</ele>
        <time>2016-10-09T12:52:34Z</time>
      </trkpt>
      <trkpt lat="43.62048" lon="7.0558">
        <ele>122.53</ele>
        <time>2016-10-09T12:52:38Z</time>
      </trkpt>
      <trkpt lat="43.62048" lon="7.05547">
        <ele>119</ele>
        <time>2016-10-09T12:52:43Z</time>
      </trkpt>
      <trkpt lat="43.62037" lon="7.05526">
        <ele>113</ele>
        <time>2016-10-09T12:52:56Z</time>
      </trkpt>
      <trkpt lat="43.62046" lon="7.05503">
        <ele>117.32</ele>
        <time>2016-10-09T12:54:05Z</time>
      </trkpt>
      <trkpt lat="43.62057" lon="7.05478">
        <ele>107.4</ele>
        <time>2016-10-09T12:54:17Z</time>
      </trkpt>
      <trkpt lat="43.6206" lon="7.0545">
        <ele>109.94</ele>
        <time>2016-10-09T12:54:28Z</time>
      </trkpt>
      <trkpt lat="43.62073" lon="7.05433">
        <ele>110.53</ele>
        <time>2016-10-09T12:55:13Z</time>
      </trkpt>
      <trkpt lat="43.62095" lon="7.05434">
        <ele>104.64</ele>
        <time>2016-10-09T12:55:21Z</time>
      </trkpt>
      <trkpt lat="43.62113" lon="7.05442">
        <ele>107.14</ele>
        <time>2016-10-09T12:55:25Z</time>
      </trkpt>
      <trkpt lat="43.62123" lon="7.05465">
        <ele>107.61</ele>
        <time>2016-10-09T12:55:30Z</time>
      </trkpt>
      <trkpt lat="43.62129" lon="7.05492">
        <ele>107.07</ele>
        <time>2016-10-09T12:55:36Z</time>
      </trkpt>
      <trkpt lat="43.62144" lon="7.05514">
        <ele>107.49</ele>
        <time>2016-10-09T12:55:42Z</time>
      </trkpt>
      <trkpt lat="43.62157" lon="7.05531">
        <ele>102.28</ele>
        <time>2016-10-09T12:55:47Z</time>
      </trkpt>
      <trkpt lat="43.62173" lon="7.0555">
        <ele>97.72</ele>
        <time>2016-10-09T12:55:55Z</time>
      </trkpt>
      <trkpt lat="43.62188" lon="7.05566">
        <ele>102.36</ele>
        <time>2016-10-09T12:56:01Z</time>
      </trkpt>
      <trkpt lat="43.62206" lon="7.05564">
        <ele>103.68</ele>
        <time>2016-10-09T12:56:09Z</time>
      </trkpt>
      <trkpt lat="43.6222" lon="7.05546">
        <ele>101.79</ele>
        <time>2016-10-09T12:56:14Z</time>
      </trkpt>
      <trkpt lat="43.62235" lon="7.05561">
        <ele>104.17</ele>
        <time>2016-10-09T12:56:54Z</time>
      </trkpt>
      <trkpt lat="43.62247" lon="7.0558">
        <ele>104.74</ele>
        <time>2016-10-09T12:56:59Z</time>
      </trkpt>
      <trkpt lat="43.62266" lon="7.05576">
        <ele>99.38</ele>
        <time>2016-10-09T12:57:04Z</time>
      </trkpt>
      <trkpt lat="43.62284" lon="7.05556">
        <ele>102.25</ele>
        <time>2016-10-09T12:57:08Z</time>
      </trkpt>
      <trkpt lat="43.62302" lon="7.0554">
        <ele>107.68</ele>
        <time>2016-10-09T12:57:12Z</time>
      </trkpt>
      <trkpt lat="43.62321" lon="7.05528">
        <ele>108.6</ele>
        <time>2016-10-09T12:57:17Z</time>
      </trkpt>
      <trkpt lat="43.62341" lon="7.05524">
        <ele>112.71</ele>
        <time>2016-10-09T12:57:23Z</time>
      </trkpt>
      <trkpt lat="43.62356" lon="7.05508">
        <ele>113.08</ele>
        <time>2016-10-09T12:57:27Z</time>
      </trkpt>
      <trkpt lat="43.62379" lon="7.05511">
        <ele>110.27</ele>
        <time>2016-10-09T12:57:32Z</time>
      </trkpt>
      <trkpt lat="43.62392" lon="7.05534">
        <ele>112.24</ele>
        <time>2016-10-09T12:57:37Z</time>
      </trkpt>
      <trkpt lat="43.6241" lon="7.05548">
        <ele>112.06</ele>
        <time>2016-10-09T12:57:40Z</time>
      </trkpt>
      <trkpt lat="43.62425" lon="7.05562">
        <ele>111.91</ele>
        <time>2016-10-09T12:57:43Z</time>
      </trkpt>
      <trkpt lat="43.62446" lon="7.05578">
        <ele>115.85</ele>
        <time>2016-10-09T12:57:47Z</time>
      </trkpt>
      <trkpt lat="43.62435" lon="7.056">
        <ele>119.1</ele>
        <time>2016-10-09T12:57:52Z</time>
      </trkpt>
      <trkpt lat="43.62426" lon="7.05628">
        <ele>120.36</ele>
        <time>2016-10-09T12:57:56Z</time>
      </trkpt>
      <trkpt lat="43.6249" lon="7.05669">
        <ele>139.77</ele>
        <time>2016-10-09T12:58:28Z</time>
      </trkpt>
      <trkpt lat="43.62471" lon="7.05671">
        <ele>139.99</ele>
        <time>2016-10-09T12:59:17Z</time>
      </trkpt>
      <trkpt lat="43.62473" lon="7.05699">
        <ele>136.1</ele>
        <time>2016-10-09T12:59:21Z</time>
      </trkpt>
      <trkpt lat="43.62479" lon="7.05726">
        <ele>136.42</ele>
        <time>2016-10-09T12:59:24Z</time>
      </trkpt>
      <trkpt lat="43.62481" lon="7.05759">
        <ele>137.96</ele>
        <time>2016-10-09T12:59:27Z</time>
      </trkpt>
      <trkpt lat="43.62466" lon="7.05784">
        <ele>137.15</ele>
        <time>2016-10-09T12:59:30Z</time>
      </trkpt>
      <trkpt lat="43.62456" lon="7.05808">
        <ele>136.92</ele>
        <time>2016-10-09T12:59:33Z</time>
      </trkpt>
      <trkpt lat="43.62454" lon="7.05838">
        <ele>139.77</ele>
        <time>2016-10-09T12:59:36Z</time>
      </trkpt>
      <trkpt lat="43.62435" lon="7.05857">
        <ele>140.25</ele>
        <time>2016-10-09T12:59:39Z</time>
      </trkpt>
      <trkpt lat="43.62418" lon="7.05867">
        <ele>142.69</ele>
        <time>2016-10-09T12:59:42Z</time>
      </trkpt>
      <trkpt lat="43.62413" lon="7.05892">
        <ele>143.49</ele>
        <time>2016-10-09T12:59:45Z</time>
      </trkpt>
      <trkpt lat="43.62409" lon="7.0592">
        <ele>146.47</ele>
        <time>2016-10-09T12:59:48Z</time>
      </trkpt>
      <trkpt lat="43.62407" lon="7.05948">
        <ele>146.59</ele>
        <time>2016-10-09T12:59:51Z</time>
      </trkpt>
      <trkpt lat="43.62407" lon="7.05973">
        <ele>149.88</ele>
        <time>2016-10-09T12:59:56Z</time>
      </trkpt>
      <trkpt lat="43.62411" lon="7.05948">
        <ele>151.89</ele>
        <time>2016-10-09T13:00:17Z</time>
      </trkpt>
      <trkpt lat="43.62428" lon="7.05936">
        <ele>150.78</ele>
        <time>2016-10-09T13:00:23Z</time>
      </trkpt>
      <trkpt lat="43.62451" lon="7.0593">
        <ele>147.85</ele>
        <time>2016-10-09T13:00:28Z</time>
      </trkpt>
      <trkpt lat="43.62469" lon="7.05931">
        <ele>144</ele>
        <time>2016-10-09T13:00:35Z</time>
      </trkpt>
      <trkpt lat="43.62489" lon="7.05937">
        <ele>143.39</ele>
        <time>2016-10-09T13:00:42Z</time>
      </trkpt>
      <trkpt lat="43.62512" lon="7.05931">
        <ele>142.68</ele>
        <time>2016-10-09T13:00:47Z</time>
      </trkpt>
      <trkpt lat="43.6253" lon="7.05917">
        <ele>139.71</ele>
        <time>2016-10-09T13:00:51Z</time>
      </trkpt>
      <trkpt lat="43.62549" lon="7.05901">
        <ele>138.04</ele>
        <time>2016-10-09T13:00:56Z</time>
      </trkpt>
      <trkpt lat="43.62568" lon="7.05894">
        <ele>141.35</ele>
        <time>2016-10-09T13:01:00Z</time>
      </trkpt>
      <trkpt lat="43.62588" lon="7.05885">
        <ele>139.65</ele>
        <time>2016-10-09T13:01:05Z</time>
      </trkpt>
      <trkpt lat="43.62606" lon="7.05871">
        <ele>137.72</ele>
        <time>2016-10-09T13:01:10Z</time>
      </trkpt>
      <trkpt lat="43.62622" lon="7.05853">
        <ele>135.79</ele>
        <time>2016-10-09T13:01:15Z</time>
      </trkpt>
      <trkpt lat="43.62637" lon="7.05838">
        <ele>136</ele>
        <time>2016-10-09T13:01:18Z</time>
      </trkpt>
      <trkpt lat="43.62654" lon="7.05826">
        <ele>137.03</ele>
        <time>2016-10-09T13:01:21Z</time>
      </trkpt>
      <trkpt lat="43.62669" lon="7.05806">
        <ele>137.14</ele>
        <time>2016-10-09T13:01:24Z</time>
      </trkpt>
      <trkpt lat="43.62691" lon="7.05815">
        <ele>136.05</ele>
        <time>2016-10-09T13:01:29Z</time>
      </trkpt>
      <trkpt lat="43.62712" lon="7.05814">
        <ele>133.79</ele>
        <time>2016-10-09T13:01:33Z</time>
      </trkpt>
      <trkpt lat="43.62716" lon="7.05788">
        <ele>134.22</ele>
        <time>2016-10-09T13:01:55Z</time>
      </trkpt>
      <trkpt lat="43.62719" lon="7.05762">
        <ele>141.12</ele>
        <time>2016-10-09T13:01:59Z</time>
      </trkpt>
      <trkpt lat="43.62815" lon="7.06106">
        <ele>146.04</ele>
        <time>2016-10-09T13:03:55Z</time>
      </trkpt>
      <trkpt lat="43.62813" lon="7.06103">
        <ele>159.18</ele>
        <time>2016-10-09T13:04:09Z</time>
      </trkpt>
      <trkpt lat="43.62798" lon="7.06119">
        <ele>151.75</ele>
        <time>2016-10-09T13:04:46Z</time>
      </trkpt>
      <trkpt lat="43.62778" lon="7.06133">
        <ele>153.01</ele>
        <time>2016-10-09T13:04:51Z</time>
      </trkpt>
      <trkpt lat="43.62761" lon="7.06123">
        <ele>152.14</ele>
        <time>2016-10-09T13:04:56Z</time>
      </trkpt>
      <trkpt lat="43.62756" lon="7.06091">
        <ele>152.02</ele>
        <time>2016-10-09T13:05:01Z</time>
      </trkpt>
      <trkpt lat="43.62747" lon="7.06068">
        <ele>149.66</ele>
        <time>2016-10-09T13:05:04Z</time>
      </trkpt>
      <trkpt lat="43.62731" lon="7.0605">
        <ele>145.24</ele>
        <time>2016-10-09T13:05:07Z</time>
      </trkpt>
      <trkpt lat="43.62714" lon="7.0604">
        <ele>143.43</ele>
        <time>2016-10-09T13:05:10Z</time>
      </trkpt>
      <trkpt lat="43.62705" lon="7.06062">
        <ele>143.43</ele>
        <time>2016-10-09T13:05:15Z</time>
      </trkpt>
      <trkpt lat="43.62696" lon="7.06088">
        <ele>144.44</ele>
        <time>2016-10-09T13:05:19Z</time>
      </trkpt>
      <trkpt lat="43.62679" lon="7.06113">
        <ele>145.63</ele>
        <time>2016-10-09T13:05:23Z</time>
      </trkpt>
      <trkpt lat="43.62666" lon="7.0614">
        <ele>146.61</ele>
        <time>2016-10-09T13:05:26Z</time>
      </trkpt>
      <trkpt lat="43.62657" lon="7.06165">
        <ele>146.23</ele>
        <time>2016-10-09T13:05:29Z</time>
      </trkpt>
      <trkpt lat="43.62651" lon="7.0619">
        <ele>143.68</ele>
        <time>2016-10-09T13:05:32Z</time>
      </trkpt>
      <trkpt lat="43.62647" lon="7.06219">
        <ele>141.99</ele>
        <time>2016-10-09T13:05:35Z</time>
      </trkpt>
      <trkpt lat="43.62644" lon="7.06255">
        <ele>142.15</ele>
        <time>2016-10-09T13:05:38Z</time>
      </trkpt>
      <trkpt lat="43.6265" lon="7.06279">
        <ele>139.67</ele>
        <time>2016-10-09T13:05:40Z</time>
      </trkpt>
      <trkpt lat="43.62664" lon="7.06309">
        <ele>137.74</ele>
        <time>2016-10-09T13:05:43Z</time>
      </trkpt>
      <trkpt lat="43.62684" lon="7.06335">
        <ele>136.5</ele>
        <time>2016-10-09T13:05:46Z</time>
      </trkpt>
      <trkpt lat="43.627" lon="7.06347">
        <ele>135.76</ele>
        <time>2016-10-09T13:05:48Z</time>
      </trkpt>
      <trkpt lat="43.62709" lon="7.06372">
        <ele>135.5</ele>
        <time>2016-10-09T13:05:51Z</time>
      </trkpt>
      <trkpt lat="43.6272" lon="7.06397">
        <ele>134.97</ele>
        <time>2016-10-09T13:05:54Z</time>
      </trkpt>
      <trkpt lat="43.62733" lon="7.06423">
        <ele>137.02</ele>
        <time>2016-10-09T13:05:57Z</time>
      </trkpt>
      <trkpt lat="43.62753" lon="7.0644">
        <ele>134.66</ele>
        <time>2016-10-09T13:06:00Z</time>
      </trkpt>
      <trkpt lat="43.62777" lon="7.06441">
        <ele>128.99</ele>
        <time>2016-10-09T13:06:03Z</time>
      </trkpt>
      <trkpt lat="43.62801" lon="7.06435">
        <ele>125.65</ele>
        <time>2016-10-09T13:06:06Z</time>
      </trkpt>
      <trkpt lat="43.62824" lon="7.06411">
        <ele>121.99</ele>
        <time>2016-10-09T13:06:09Z</time>
      </trkpt>
      <trkpt lat="43.62839" lon="7.06395">
        <ele>115.13</ele>
        <time>2016-10-09T13:06:11Z</time>
      </trkpt>
      <trkpt lat="43.6286" lon="7.06375">
        <ele>105.67</ele>
        <time>2016-10-09T13:06:14Z</time>
      </trkpt>
      <trkpt lat="43.62878" lon="7.06359">
        <ele>100.05</ele>
        <time>2016-10-09T13:06:16Z</time>
      </trkpt>
      <trkpt lat="43.62898" lon="7.06349">
        <ele>95.89</ele>
        <time>2016-10-09T13:06:18Z</time>
      </trkpt>
      <trkpt lat="43.6292" lon="7.06333">
        <ele>90.86</ele>
        <time>2016-10-09T13:06:20Z</time>
      </trkpt>
      <trkpt lat="43.62942" lon="7.06307">
        <ele>86.01</ele>
        <time>2016-10-09T13:06:23Z</time>
      </trkpt>
      <trkpt lat="43.62961" lon="7.06295">
        <ele>81.53</ele>
        <time>2016-10-09T13:06:26Z</time>
      </trkpt>
      <trkpt lat="43.62979" lon="7.06284">
        <ele>78.93</ele>
        <time>2016-10-09T13:07:10Z</time>
      </trkpt>
      <trkpt lat="43.6299" lon="7.06261">
        <ele>77.92</ele>
        <time>2016-10-09T13:07:18Z</time>
      </trkpt>
      <trkpt lat="43.63002" lon="7.0624">
        <ele>76.6</ele>
        <time>2016-10-09T13:07:28Z</time>
      </trkpt>
      <trkpt lat="43.63012" lon="7.06214">
        <ele>73.72</ele>
        <time>2016-10-09T13:07:41Z</time>
      </trkpt>
      <trkpt lat="43.63026" lon="7.06196">
        <ele>73.56</ele>
        <time>2016-10-09T13:07:51Z</time>
      </trkpt>
      <trkpt lat="43.63055" lon="7.06125">
        <ele>66.93</ele>
        <time>2016-10-09T13:09:33Z</time>
      </trkpt>
      <trkpt lat="43.63044" lon="7.06091">
        <ele>73.43</ele>
        <time>2016-10-09T13:14:12Z</time>
      </trkpt>
      <trkpt lat="43.63037" lon="7.06066">
        <ele>53.24</ele>
        <time>2016-10-09T13:14:14Z</time>
      </trkpt>
      <trkpt lat="43.63037" lon="7.06038">
        <ele>30.65</ele>
        <time>2016-10-09T13:14:19Z</time>
      </trkpt>
      <trkpt lat="43.63039" lon="7.0601">
        <ele>30.61</ele>
        <time>2016-10-09T13:14:23Z</time>
      </trkpt>
      <trkpt lat="43.63036" lon="7.0598">
        <ele>29.7</ele>
        <time>2016-10-09T13:14:27Z</time>
      </trkpt>
      <trkpt lat="43.6304" lon="7.05951">
        <ele>32.13</ele>
        <time>2016-10-09T13:14:34Z</time>
      </trkpt>
      <trkpt lat="43.63044" lon="7.05921">
        <ele>39.66</ele>
        <time>2016-10-09T13:14:41Z</time>
      </trkpt>
      <trkpt lat="43.63052" lon="7.05898">
        <ele>47.75</ele>
        <time>2016-10-09T13:14:47Z</time>
      </trkpt>
      <trkpt lat="43.63064" lon="7.05874">
        <ele>53.4</ele>
        <time>2016-10-09T13:14:53Z</time>
      </trkpt>
      <trkpt lat="43.63082" lon="7.05856">
        <ele>58.37</ele>
        <time>2016-10-09T13:14:58Z</time>
      </trkpt>
      <trkpt lat="43.63097" lon="7.05836">
        <ele>60.34</ele>
        <time>2016-10-09T13:15:03Z</time>
      </trkpt>
      <trkpt lat="43.63108" lon="7.05813">
        <ele>69.44</ele>
        <time>2016-10-09T13:15:14Z</time>
      </trkpt>
      <trkpt lat="43.63122" lon="7.05794">
        <ele>77.8</ele>
        <time>2016-10-09T13:15:21Z</time>
      </trkpt>
      <trkpt lat="43.63138" lon="7.05775">
        <ele>87.61</ele>
        <time>2016-10-09T13:16:01Z</time>
      </trkpt>
      <trkpt lat="43.63154" lon="7.05756">
        <ele>85.65</ele>
        <time>2016-10-09T13:16:08Z</time>
      </trkpt>
      <trkpt lat="43.63168" lon="7.05739">
        <ele>89.53</ele>
        <time>2016-10-09T13:16:22Z</time>
      </trkpt>
      <trkpt lat="43.63172" lon="7.05713">
        <ele>92.53</ele>
        <time>2016-10-09T13:16:47Z</time>
      </trkpt>
      <trkpt lat="43.63166" lon="7.05689">
        <ele>90.44</ele>
        <time>2016-10-09T13:16:56Z</time>
      </trkpt>
      <trkpt lat="43.63161" lon="7.05663">
        <ele>85.44</ele>
        <time>2016-10-09T13:17:03Z</time>
      </trkpt>
      <trkpt lat="43.63157" lon="7.05634">
        <ele>72.72</ele>
        <time>2016-10-09T13:17:08Z</time>
      </trkpt>
      <trkpt lat="43.6316" lon="7.05603">
        <ele>70.87</ele>
        <time>2016-10-09T13:17:11Z</time>
      </trkpt>
      <trkpt lat="43.63155" lon="7.05577">
        <ele>70.85</ele>
        <time>2016-10-09T13:17:13Z</time>
      </trkpt>
      <trkpt lat="43.63159" lon="7.05549">
        <ele>71.39</ele>
        <time>2016-10-09T13:17:16Z</time>
      </trkpt>
      <trkpt lat="43.63168" lon="7.05526">
        <ele>71.26</ele>
        <time>2016-10-09T13:17:23Z</time>
      </trkpt>
      <trkpt lat="43.63176" lon="7.05503">
        <ele>73.26</ele>
        <time>2016-10-09T13:17:30Z</time>
      </trkpt>
      <trkpt lat="43.63188" lon="7.05482">
        <ele>72.12</ele>
        <time>2016-10-09T13:17:35Z</time>
      </trkpt>
      <trkpt lat="43.63196" lon="7.05459">
        <ele>71.88</ele>
        <time>2016-10-09T13:17:45Z</time>
      </trkpt>
      <trkpt lat="43.63201" lon="7.05433">
        <ele>68.24</ele>
        <time>2016-10-09T13:17:52Z</time>
      </trkpt>
      <trkpt lat="43.63209" lon="7.05406">
        <ele>71.92</ele>
        <time>2016-10-09T13:18:42Z</time>
      </trkpt>
      <trkpt lat="43.6322" lon="7.05381">
        <ele>71.77</ele>
        <time>2016-10-09T13:18:45Z</time>
      </trkpt>
      <trkpt lat="43.63229" lon="7.05354">
        <ele>87.71</ele>
        <time>2016-10-09T13:18:49Z</time>
      </trkpt>
      <trkpt lat="43.63236" lon="7.0533">
        <ele>93.27</ele>
        <time>2016-10-09T13:18:59Z</time>
      </trkpt>
      <trkpt lat="43.63232" lon="7.05305">
        <ele>99.92</ele>
        <time>2016-10-09T13:20:16Z</time>
      </trkpt>
      <trkpt lat="43.63219" lon="7.05287">
        <ele>106.02</ele>
        <time>2016-10-09T13:20:32Z</time>
      </trkpt>
      <trkpt lat="43.63204" lon="7.05269">
        <ele>110.14</ele>
        <time>2016-10-09T13:20:57Z</time>
      </trkpt>
      <trkpt lat="43.63202" lon="7.05243">
        <ele>101.74</ele>
        <time>2016-10-09T13:21:07Z</time>
      </trkpt>
      <trkpt lat="43.63207" lon="7.05218">
        <ele>99.59</ele>
        <time>2016-10-09T13:21:11Z</time>
      </trkpt>
      <trkpt lat="43.63203" lon="7.05186">
        <ele>99.19</ele>
        <time>2016-10-09T13:21:16Z</time>
      </trkpt>
      <trkpt lat="43.63205" lon="7.05159">
        <ele>102.05</ele>
        <time>2016-10-09T13:21:20Z</time>
      </trkpt>
      <trkpt lat="43.63209" lon="7.05133">
        <ele>104.28</ele>
        <time>2016-10-09T13:21:26Z</time>
      </trkpt>
      <trkpt lat="43.63214" lon="7.05106">
        <ele>106.37</ele>
        <time>2016-10-09T13:21:30Z</time>
      </trkpt>
      <trkpt lat="43.63215" lon="7.05078">
        <ele>110.16</ele>
        <time>2016-10-09T13:21:38Z</time>
      </trkpt>
      <trkpt lat="43.63205" lon="7.05057">
        <ele>117.81</ele>
        <time>2016-10-09T13:21:46Z</time>
      </trkpt>
      <trkpt lat="43.63195" lon="7.05028">
        <ele>121.12</ele>
        <time>2016-10-09T13:22:25Z</time>
      </trkpt>
      <trkpt lat="43.63197" lon="7.04998">
        <ele>120.22</ele>
        <time>2016-10-09T13:22:32Z</time>
      </trkpt>
      <trkpt lat="43.63198" lon="7.04973">
        <ele>121.71</ele>
        <time>2016-10-09T13:22:37Z</time>
      </trkpt>
      <trkpt lat="43.63199" lon="7.04948">
        <ele>127.3</ele>
        <time>2016-10-09T13:23:59Z</time>
      </trkpt>
      <trkpt lat="43.63199" lon="7.04922">
        <ele>126.52</ele>
        <time>2016-10-09T13:24:05Z</time>
      </trkpt>
      <trkpt lat="43.63195" lon="7.04896">
        <ele>125.68</ele>
        <time>2016-10-09T13:24:12Z</time>
      </trkpt>
      <trkpt lat="43.63197" lon="7.04868">
        <ele>128.1</ele>
        <time>2016-10-09T13:24:19Z</time>
      </trkpt>
      <trkpt lat="43.63202" lon="7.04843">
        <ele>124.63</ele>
        <time>2016-10-09T13:24:25Z</time>
      </trkpt>
      <trkpt lat="43.63206" lon="7.04817">
        <ele>119.69</ele>
        <time>2016-10-09T13:24:33Z</time>
      </trkpt>
      <trkpt lat="43.63218" lon="7.04798">
        <ele>119.85</ele>
        <time>2016-10-09T13:24:40Z</time>
      </trkpt>
      <trkpt lat="43.63235" lon="7.04807">
        <ele>121.17</ele>
        <time>2016-10-09T13:24:59Z</time>
      </trkpt>
      <trkpt lat="43.63244" lon="7.04784">
        <ele>128.57</ele>
        <time>2016-10-09T13:26:15Z</time>
      </trkpt>
      <trkpt lat="43.63233" lon="7.04763">
        <ele>127.85</ele>
        <time>2016-10-09T13:26:21Z</time>
      </trkpt>
      <trkpt lat="43.63222" lon="7.04742">
        <ele>128.51</ele>
        <time>2016-10-09T13:26:26Z</time>
      </trkpt>
      <trkpt lat="43.63209" lon="7.04723">
        <ele>129.66</ele>
        <time>2016-10-09T13:26:31Z</time>
      </trkpt>
      <trkpt lat="43.63194" lon="7.04708">
        <ele>132.33</ele>
        <time>2016-10-09T13:26:35Z</time>
      </trkpt>
      <trkpt lat="43.63179" lon="7.04692">
        <ele>133.5</ele>
        <time>2016-10-09T13:26:39Z</time>
      </trkpt>
      <trkpt lat="43.63161" lon="7.04676">
        <ele>135.51</ele>
        <time>2016-10-09T13:26:43Z</time>
      </trkpt>
      <trkpt lat="43.63147" lon="7.04654">
        <ele>134.82</ele>
        <time>2016-10-09T13:26:47Z</time>
      </trkpt>
      <trkpt lat="43.63131" lon="7.04634">
        <ele>133.28</ele>
        <time>2016-10-09T13:26:51Z</time>
      </trkpt>
      <trkpt lat="43.63115" lon="7.04611">
        <ele>131.81</ele>
        <time>2016-10-09T13:26:55Z</time>
      </trkpt>
      <trkpt lat="43.63097" lon="7.04598">
        <ele>132.65</ele>
        <time>2016-10-09T13:26:59Z</time>
      </trkpt>
      <trkpt lat="43.6308" lon="7.04581">
        <ele>133.89</ele>
        <time>2016-10-09T13:27:03Z</time>
      </trkpt>
      <trkpt lat="43.63063" lon="7.04566">
        <ele>134.66</ele>
        <time>2016-10-09T13:27:07Z</time>
      </trkpt>
      <trkpt lat="43.63047" lon="7.04553">
        <ele>139.74</ele>
        <time>2016-10-09T13:27:10Z</time>
      </trkpt>
      <trkpt lat="43.63029" lon="7.04544">
        <ele>144.4</ele>
        <time>2016-10-09T13:27:14Z</time>
      </trkpt>
      <trkpt lat="43.63008" lon="7.04532">
        <ele>145.84</ele>
        <time>2016-10-09T13:27:19Z</time>
      </trkpt>
      <trkpt lat="43.62988" lon="7.04518">
        <ele>148.09</ele>
        <time>2016-10-09T13:27:23Z</time>
      </trkpt>
      <trkpt lat="43.62969" lon="7.04506">
        <ele>150.42</ele>
        <time>2016-10-09T13:27:27Z</time>
      </trkpt>
      <trkpt lat="43.62952" lon="7.04497">
        <ele>150.63</ele>
        <time>2016-10-09T13:27:31Z</time>
      </trkpt>
      <trkpt lat="43.62932" lon="7.04488">
        <ele>152.6</ele>
        <time>2016-10-09T13:27:36Z</time>
      </trkpt>
      <trkpt lat="43.62916" lon="7.04469">
        <ele>157.33</ele>
        <time>2016-10-09T13:27:40Z</time>
      </trkpt>
      <trkpt lat="43.62904" lon="7.04445">
        <ele>162.12</ele>
        <time>2016-10-09T13:27:44Z</time>
      </trkpt>
      <trkpt lat="43.62902" lon="7.04414">
        <ele>165.39</ele>
        <time>2016-10-09T13:27:49Z</time>
      </trkpt>
      <trkpt lat="43.62909" lon="7.04387">
        <ele>165.59</ele>
        <time>2016-10-09T13:27:54Z</time>
      </trkpt>
      <trkpt lat="43.62918" lon="7.04365">
        <ele>166.58</ele>
        <time>2016-10-09T13:28:35Z</time>
      </trkpt>
      <trkpt lat="43.62916" lon="7.04339">
        <ele>180.41</ele>
        <time>2016-10-09T13:29:13Z</time>
      </trkpt>
      <trkpt lat="43.62925" lon="7.04315">
        <ele>180.32</ele>
        <time>2016-10-09T13:29:17Z</time>
      </trkpt>
      <trkpt lat="43.62932" lon="7.0429">
        <ele>180.18</ele>
        <time>2016-10-09T13:29:21Z</time>
      </trkpt>
      <trkpt lat="43.62935" lon="7.04261">
        <ele>181.68</ele>
        <time>2016-10-09T13:29:25Z</time>
      </trkpt>
      <trkpt lat="43.6294" lon="7.04233">
        <ele>181.33</ele>
        <time>2016-10-09T13:29:29Z</time>
      </trkpt>
      <trkpt lat="43.62943" lon="7.04204">
        <ele>182</ele>
        <time>2016-10-09T13:29:33Z</time>
      </trkpt>
      <trkpt lat="43.62945" lon="7.04176">
        <ele>182.16</ele>
        <time>2016-10-09T13:29:37Z</time>
      </trkpt>
      <trkpt lat="43.62952" lon="7.04151">
        <ele>177.61</ele>
        <time>2016-10-09T13:29:42Z</time>
      </trkpt>
      <trkpt lat="43.62955" lon="7.04122">
        <ele>175.44</ele>
        <time>2016-10-09T13:29:47Z</time>
      </trkpt>
      <trkpt lat="43.62949" lon="7.04098">
        <ele>174.83</ele>
        <time>2016-10-09T13:29:50Z</time>
      </trkpt>
      <trkpt lat="43.62942" lon="7.0407">
        <ele>179.07</ele>
        <time>2016-10-09T13:29:55Z</time>
      </trkpt>
      <trkpt lat="43.62943" lon="7.04045">
        <ele>178.8</ele>
        <time>2016-10-09T13:30:00Z</time>
      </trkpt>
      <trkpt lat="43.62941" lon="7.0402">
        <ele>176.24</ele>
        <time>2016-10-09T13:30:08Z</time>
      </trkpt>
      <trkpt lat="43.62942" lon="7.03994">
        <ele>173.83</ele>
        <time>2016-10-09T13:30:14Z</time>
      </trkpt>
      <trkpt lat="43.6293" lon="7.03972">
        <ele>177.34</ele>
        <time>2016-10-09T13:30:20Z</time>
      </trkpt>
      <trkpt lat="43.62921" lon="7.03948">
        <ele>180.76</ele>
        <time>2016-10-09T13:30:28Z</time>
      </trkpt>
      <trkpt lat="43.62922" lon="7.03921">
        <ele>183.24</ele>
        <time>2016-10-09T13:30:37Z</time>
      </trkpt>
      <trkpt lat="43.62921" lon="7.03892">
        <ele>186.09</ele>
        <time>2016-10-09T13:30:44Z</time>
      </trkpt>
      <trkpt lat="43.62921" lon="7.03867">
        <ele>185.67</ele>
        <time>2016-10-09T13:30:48Z</time>
      </trkpt>
      <trkpt lat="43.62919" lon="7.03839">
        <ele>189.35</ele>
        <time>2016-10-09T13:30:53Z</time>
      </trkpt>
      <trkpt lat="43.62929" lon="7.03815">
        <ele>190.76</ele>
        <time>2016-10-09T13:30:59Z</time>
      </trkpt>
      <trkpt lat="43.6294" lon="7.03795">
        <ele>189.81</ele>
        <time>2016-10-09T13:31:05Z</time>
      </trkpt>
      <trkpt lat="43.62942" lon="7.03767">
        <ele>191.03</ele>
        <time>2016-10-09T13:31:11Z</time>
      </trkpt>
      <trkpt lat="43.62934" lon="7.03743">
        <ele>187.93</ele>
        <time>2016-10-09T13:31:20Z</time>
      </trkpt>
      <trkpt lat="43.62927" lon="7.03719">
        <ele>190.31</ele>
        <time>2016-10-09T13:31:30Z</time>
      </trkpt>
      <trkpt lat="43.62919" lon="7.03694">
        <ele>191.12</ele>
        <time>2016-10-09T13:32:40Z</time>
      </trkpt>
      <trkpt lat="43.62904" lon="7.03676">
        <ele>184.06</ele>
        <time>2016-10-09T13:32:49Z</time>
      </trkpt>
      <trkpt lat="43.62891" lon="7.03656">
        <ele>180.72</ele>
        <time>2016-10-09T13:32:55Z</time>
      </trkpt>
      <trkpt lat="43.62851" lon="7.03535">
        <ele>190.13</ele>
        <time>2016-10-09T13:33:34Z</time>
      </trkpt>
      <trkpt lat="43.62859" lon="7.03508">
        <ele>196.61</ele>
        <time>2016-10-09T13:34:05Z</time>
      </trkpt>
      <trkpt lat="43.62872" lon="7.03487">
        <ele>194.84</ele>
        <time>2016-10-09T13:34:11Z</time>
      </trkpt>
      <trkpt lat="43.62886" lon="7.03464">
        <ele>196.38</ele>
        <time>2016-10-09T13:34:18Z</time>
      </trkpt>
      <trkpt lat="43.62899" lon="7.03442">
        <ele>193.53</ele>
        <time>2016-10-09T13:34:23Z</time>
      </trkpt>
      <trkpt lat="43.62912" lon="7.03417">
        <ele>192.7</ele>
        <time>2016-10-09T13:34:27Z</time>
      </trkpt>
      <trkpt lat="43.6292" lon="7.03393">
        <ele>192.12</ele>
        <time>2016-10-09T13:34:30Z</time>
      </trkpt>
      <trkpt lat="43.62923" lon="7.03366">
        <ele>190.79</ele>
        <time>2016-10-09T13:34:33Z</time>
      </trkpt>
      <trkpt lat="43.62926" lon="7.03338">
        <ele>189.5</ele>
        <time>2016-10-09T13:34:36Z</time>
      </trkpt>
      <trkpt lat="43.62918" lon="7.03309">
        <ele>186.97</ele>
        <time>2016-10-09T13:34:39Z</time>
      </trkpt>
      <trkpt lat="43.62906" lon="7.03283">
        <ele>183.77</ele>
        <time>2016-10-09T13:34:42Z</time>
      </trkpt>
      <trkpt lat="43.62895" lon="7.03262">
        <ele>181.83</ele>
        <time>2016-10-09T13:34:44Z</time>
      </trkpt>
      <trkpt lat="43.62882" lon="7.03243">
        <ele>181.34</ele>
        <time>2016-10-09T13:34:46Z</time>
      </trkpt>
      <trkpt lat="43.62875" lon="7.03214">
        <ele>179.45</ele>
        <time>2016-10-09T13:34:49Z</time>
      </trkpt>
      <trkpt lat="43.62884" lon="7.03187">
        <ele>177.08</ele>
        <time>2016-10-09T13:34:52Z</time>
      </trkpt>
      <trkpt lat="43.62891" lon="7.03161">
        <ele>177.15</ele>
        <time>2016-10-09T13:34:54Z</time>
      </trkpt>
      <trkpt lat="43.62899" lon="7.03137">
        <ele>176.42</ele>
        <time>2016-10-09T13:34:57Z</time>
      </trkpt>
      <trkpt lat="43.62899" lon="7.03104">
        <ele>172.09</ele>
        <time>2016-10-09T13:35:02Z</time>
      </trkpt>
      <trkpt lat="43.62896" lon="7.03073">
        <ele>173.54</ele>
        <time>2016-10-09T13:35:05Z</time>
      </trkpt>
      <trkpt lat="43.62899" lon="7.03039">
        <ele>174.47</ele>
        <time>2016-10-09T13:35:08Z</time>
      </trkpt>
      <trkpt lat="43.62906" lon="7.03005">
        <ele>173.34</ele>
        <time>2016-10-09T13:35:11Z</time>
      </trkpt>
      <trkpt lat="43.62912" lon="7.02981">
        <ele>172.72</ele>
        <time>2016-10-09T13:35:13Z</time>
      </trkpt>
      <trkpt lat="43.62918" lon="7.02956">
        <ele>172.81</ele>
        <time>2016-10-09T13:35:15Z</time>
      </trkpt>
      <trkpt lat="43.62919" lon="7.02931">
        <ele>172.58</ele>
        <time>2016-10-09T13:35:17Z</time>
      </trkpt>
      <trkpt lat="43.62919" lon="7.02903">
        <ele>170.03</ele>
        <time>2016-10-09T13:35:19Z</time>
      </trkpt>
      <trkpt lat="43.6292" lon="7.02874">
        <ele>169.64</ele>
        <time>2016-10-09T13:35:21Z</time>
      </trkpt>
      <trkpt lat="43.62907" lon="7.02842">
        <ele>168.79</ele>
        <time>2016-10-09T13:35:23Z</time>
      </trkpt>
      <trkpt lat="43.629" lon="7.02812">
        <ele>166</ele>
        <time>2016-10-09T13:35:26Z</time>
      </trkpt>
      <trkpt lat="43.62912" lon="7.02791">
        <ele>156.89</ele>
        <time>2016-10-09T13:35:31Z</time>
      </trkpt>
      <trkpt lat="43.62934" lon="7.02789">
        <ele>154.93</ele>
        <time>2016-10-09T13:36:09Z</time>
      </trkpt>
      <trkpt lat="43.62953" lon="7.02779">
        <ele>155.85</ele>
        <time>2016-10-09T13:36:13Z</time>
      </trkpt>
      <trkpt lat="43.62969" lon="7.0276">
        <ele>154.41</ele>
        <time>2016-10-09T13:36:17Z</time>
      </trkpt>
      <trkpt lat="43.62983" lon="7.0274">
        <ele>155.57</ele>
        <time>2016-10-09T13:36:21Z</time>
      </trkpt>
      <trkpt lat="43.62997" lon="7.02723">
        <ele>159.2</ele>
        <time>2016-10-09T13:36:25Z</time>
      </trkpt>
      <trkpt lat="43.6301" lon="7.02699">
        <ele>162.4</ele>
        <time>2016-10-09T13:36:30Z</time>
      </trkpt>
      <trkpt lat="43.6302" lon="7.02675">
        <ele>163.06</ele>
        <time>2016-10-09T13:36:34Z</time>
      </trkpt>
      <trkpt lat="43.63029" lon="7.0265">
        <ele>164.61</ele>
        <time>2016-10-09T13:36:38Z</time>
      </trkpt>
      <trkpt lat="43.63038" lon="7.02624">
        <ele>166.95</ele>
        <time>2016-10-09T13:36:42Z</time>
      </trkpt>
      <trkpt lat="43.63046" lon="7.026">
        <ele>168.1</ele>
        <time>2016-10-09T13:36:46Z</time>
      </trkpt>
      <trkpt lat="43.63062" lon="7.02585">
        <ele>169.1</ele>
        <time>2016-10-09T13:36:52Z</time>
      </trkpt>
      <trkpt lat="43.63075" lon="7.02563">
        <ele>167.48</ele>
        <time>2016-10-09T13:36:56Z</time>
      </trkpt>
      <trkpt lat="43.63093" lon="7.02543">
        <ele>167.7</ele>
        <time>2016-10-09T13:37:00Z</time>
      </trkpt>
      <trkpt lat="43.63114" lon="7.02543">
        <ele>165.94</ele>
        <time>2016-10-09T13:37:05Z</time>
      </trkpt>
      <trkpt lat="43.63133" lon="7.02543">
        <ele>166.54</ele>
        <time>2016-10-09T13:37:09Z</time>
      </trkpt>
      <trkpt lat="43.63139" lon="7.0271">
        <ele>160.68</ele>
        <time>2016-10-09T13:38:31Z</time>
      </trkpt>
      <trkpt lat="43.63125" lon="7.02731">
        <ele>158.58</ele>
        <time>2016-10-09T13:38:35Z</time>
      </trkpt>
      <trkpt lat="43.63113" lon="7.02763">
        <ele>157.76</ele>
        <time>2016-10-09T13:38:39Z</time>
      </trkpt>
      <trkpt lat="43.63101" lon="7.02793">
        <ele>162.6</ele>
        <time>2016-10-09T13:38:44Z</time>
      </trkpt>
      <trkpt lat="43.63093" lon="7.02818">
        <ele>169.95</ele>
        <time>2016-10-09T13:38:51Z</time>
      </trkpt>
      <trkpt lat="43.63089" lon="7.02846">
        <ele>170.91</ele>
        <time>2016-10-09T13:38:55Z</time>
      </trkpt>
      <trkpt lat="43.63084" lon="7.02874">
        <ele>175.28</ele>
        <time>2016-10-09T13:38:59Z</time>
      </trkpt>
      <trkpt lat="43.63086" lon="7.02904">
        <ele>179.18</ele>
        <time>2016-10-09T13:39:03Z</time>
      </trkpt>
      <trkpt lat="43.63091" lon="7.02932">
        <ele>180.99</ele>
        <time>2016-10-09T13:39:07Z</time>
      </trkpt>
      <trkpt lat="43.63098" lon="7.02958">
        <ele>182.66</ele>
        <time>2016-10-09T13:39:11Z</time>
      </trkpt>
      <trkpt lat="43.63103" lon="7.02982">
        <ele>185.52</ele>
        <time>2016-10-09T13:39:15Z</time>
      </trkpt>
      <trkpt lat="43.6311" lon="7.03009">
        <ele>185.13</ele>
        <time>2016-10-09T13:39:19Z</time>
      </trkpt>
      <trkpt lat="43.63116" lon="7.03036">
        <ele>187.36</ele>
        <time>2016-10-09T13:39:23Z</time>
      </trkpt>
      <trkpt lat="43.63123" lon="7.03064">
        <ele>190.96</ele>
        <time>2016-10-09T13:39:28Z</time>
      </trkpt>
      <trkpt lat="43.63125" lon="7.03094">
        <ele>188.85</ele>
        <time>2016-10-09T13:39:32Z</time>
      </trkpt>
      <trkpt lat="43.63131" lon="7.03122">
        <ele>191.54</ele>
        <time>2016-10-09T13:39:37Z</time>
      </trkpt>
      <trkpt lat="43.63132" lon="7.03152">
        <ele>191.45</ele>
        <time>2016-10-09T13:39:41Z</time>
      </trkpt>
      <trkpt lat="43.6314" lon="7.03177">
        <ele>190.34</ele>
        <time>2016-10-09T13:39:44Z</time>
      </trkpt>
      <trkpt lat="43.63148" lon="7.032">
        <ele>190.95</ele>
        <time>2016-10-09T13:39:47Z</time>
      </trkpt>
      <trkpt lat="43.63158" lon="7.0323">
        <ele>192.02</ele>
        <time>2016-10-09T13:39:50Z</time>
      </trkpt>
      <trkpt lat="43.63165" lon="7.03254">
        <ele>192.91</ele>
        <time>2016-10-09T13:39:53Z</time>
      </trkpt>
      <trkpt lat="43.63171" lon="7.03281">
        <ele>193.39</ele>
        <time>2016-10-09T13:39:56Z</time>
      </trkpt>
      <trkpt lat="43.63177" lon="7.03313">
        <ele>193.88</ele>
        <time>2016-10-09T13:40:00Z</time>
      </trkpt>
      <trkpt lat="43.63184" lon="7.03341">
        <ele>194.47</ele>
        <time>2016-10-09T13:40:04Z</time>
      </trkpt>
      <trkpt lat="43.63194" lon="7.03368">
        <ele>194.69</ele>
        <time>2016-10-09T13:40:08Z</time>
      </trkpt>
      <trkpt lat="43.63207" lon="7.03387">
        <ele>194.65</ele>
        <time>2016-10-09T13:40:12Z</time>
      </trkpt>
      <trkpt lat="43.63223" lon="7.03401">
        <ele>194.21</ele>
        <time>2016-10-09T13:40:16Z</time>
      </trkpt>
      <trkpt lat="43.63242" lon="7.03403">
        <ele>195.43</ele>
        <time>2016-10-09T13:40:19Z</time>
      </trkpt>
      <trkpt lat="43.63259" lon="7.03396">
        <ele>195.21</ele>
        <time>2016-10-09T13:40:22Z</time>
      </trkpt>
      <trkpt lat="43.63277" lon="7.03386">
        <ele>195.43</ele>
        <time>2016-10-09T13:40:25Z</time>
      </trkpt>
      <trkpt lat="43.63295" lon="7.03381">
        <ele>195.21</ele>
        <time>2016-10-09T13:40:28Z</time>
      </trkpt>
      <trkpt lat="43.63313" lon="7.03375">
        <ele>195.3</ele>
        <time>2016-10-09T13:40:31Z</time>
      </trkpt>
      <trkpt lat="43.63334" lon="7.03368">
        <ele>195</ele>
        <time>2016-10-09T13:40:35Z</time>
      </trkpt>
      <trkpt lat="43.63354" lon="7.03361">
        <ele>193.66</ele>
        <time>2016-10-09T13:40:39Z</time>
      </trkpt>
      <trkpt lat="43.63374" lon="7.03355">
        <ele>194.74</ele>
        <time>2016-10-09T13:40:42Z</time>
      </trkpt>
      <trkpt lat="43.63388" lon="7.03338">
        <ele>193.37</ele>
        <time>2016-10-09T13:40:45Z</time>
      </trkpt>
      <trkpt lat="43.63406" lon="7.03327">
        <ele>194.88</ele>
        <time>2016-10-09T13:40:49Z</time>
      </trkpt>
      <trkpt lat="43.63425" lon="7.03311">
        <ele>194.28</ele>
        <time>2016-10-09T13:40:53Z</time>
      </trkpt>
      <trkpt lat="43.63446" lon="7.03296">
        <ele>194.06</ele>
        <time>2016-10-09T13:40:56Z</time>
      </trkpt>
      <trkpt lat="43.63462" lon="7.03285">
        <ele>195.66</ele>
        <time>2016-10-09T13:40:59Z</time>
      </trkpt>
      <trkpt lat="43.63477" lon="7.03268">
        <ele>194.49</ele>
        <time>2016-10-09T13:41:02Z</time>
      </trkpt>
      <trkpt lat="43.6349" lon="7.03246">
        <ele>193.46</ele>
        <time>2016-10-09T13:41:05Z</time>
      </trkpt>
      <trkpt lat="43.63502" lon="7.03224">
        <ele>191.84</ele>
        <time>2016-10-09T13:41:08Z</time>
      </trkpt>
      <trkpt lat="43.63512" lon="7.03196">
        <ele>190.84</ele>
        <time>2016-10-09T13:41:12Z</time>
      </trkpt>
      <trkpt lat="43.63514" lon="7.03171">
        <ele>188.78</ele>
        <time>2016-10-09T13:41:16Z</time>
      </trkpt>
      <trkpt lat="43.63519" lon="7.03144">
        <ele>191.21</ele>
        <time>2016-10-09T13:41:20Z</time>
      </trkpt>
      <trkpt lat="43.63522" lon="7.03114">
        <ele>191.43</ele>
        <time>2016-10-09T13:41:23Z</time>
      </trkpt>
      <trkpt lat="43.63522" lon="7.03085">
        <ele>193.96</ele>
        <time>2016-10-09T13:41:26Z</time>
      </trkpt>
      <trkpt lat="43.63524" lon="7.03059">
        <ele>194.77</ele>
        <time>2016-10-09T13:41:29Z</time>
      </trkpt>
      <trkpt lat="43.63523" lon="7.03028">
        <ele>182.96</ele>
        <time>2016-10-09T13:41:33Z</time>
      </trkpt>
      <trkpt lat="43.63519" lon="7.03">
        <ele>176.73</ele>
        <time>2016-10-09T13:41:37Z</time>
      </trkpt>
      <trkpt lat="43.63519" lon="7.02971">
        <ele>177.15</ele>
        <time>2016-10-09T13:41:41Z</time>
      </trkpt>
      <trkpt lat="43.63519" lon="7.02941">
        <ele>178.05</ele>
        <time>2016-10-09T13:41:45Z</time>
      </trkpt>
      <trkpt lat="43.63516" lon="7.02916">
        <ele>176.23</ele>
        <time>2016-10-09T13:41:49Z</time>
      </trkpt>
      <trkpt lat="43.63517" lon="7.02891">
        <ele>176.81</ele>
        <time>2016-10-09T13:41:52Z</time>
      </trkpt>
      <trkpt lat="43.63511" lon="7.0286">
        <ele>178.03</ele>
        <time>2016-10-09T13:41:56Z</time>
      </trkpt>
      <trkpt lat="43.63501" lon="7.02836">
        <ele>174.48</ele>
        <time>2016-10-09T13:42:00Z</time>
      </trkpt>
      <trkpt lat="43.63494" lon="7.02807">
        <ele>178.76</ele>
        <time>2016-10-09T13:42:04Z</time>
      </trkpt>
      <trkpt lat="43.63512" lon="7.02788">
        <ele>181.09</ele>
        <time>2016-10-09T13:42:08Z</time>
      </trkpt>
      <trkpt lat="43.63531" lon="7.02779">
        <ele>181.8</ele>
        <time>2016-10-09T13:42:12Z</time>
      </trkpt>
      <trkpt lat="43.63548" lon="7.02761">
        <ele>184.28</ele>
        <time>2016-10-09T13:42:16Z</time>
      </trkpt>
      <trkpt lat="43.63564" lon="7.0274">
        <ele>184.18</ele>
        <time>2016-10-09T13:42:20Z</time>
      </trkpt>
      <trkpt lat="43.63582" lon="7.02722">
        <ele>184.55</ele>
        <time>2016-10-09T13:42:23Z</time>
      </trkpt>
      <trkpt lat="43.63591" lon="7.02696">
        <ele>184.06</ele>
        <time>2016-10-09T13:42:28Z</time>
      </trkpt>
      <trkpt lat="43.63602" lon="7.02674">
        <ele>183.99</ele>
        <time>2016-10-09T13:44:44Z</time>
      </trkpt>
      <trkpt lat="43.63612" lon="7.02651">
        <ele>184.72</ele>
        <time>2016-10-09T13:44:50Z</time>
      </trkpt>
      <trkpt lat="43.6363" lon="7.02648">
        <ele>182.87</ele>
        <time>2016-10-09T13:44:57Z</time>
      </trkpt>
      <trkpt lat="43.63639" lon="7.02675">
        <ele>181.51</ele>
        <time>2016-10-09T13:45:05Z</time>
      </trkpt>
      <trkpt lat="43.63651" lon="7.02695">
        <ele>179.16</ele>
        <time>2016-10-09T13:45:12Z</time>
      </trkpt>
      <trkpt lat="43.63671" lon="7.02694">
        <ele>177.68</ele>
        <time>2016-10-09T13:45:18Z</time>
      </trkpt>
      <trkpt lat="43.63691" lon="7.02678">
        <ele>175.25</ele>
        <time>2016-10-09T13:45:24Z</time>
      </trkpt>
      <trkpt lat="43.63709" lon="7.02667">
        <ele>176.12</ele>
        <time>2016-10-09T13:45:28Z</time>
      </trkpt>
      <trkpt lat="43.63728" lon="7.02658">
        <ele>176.17</ele>
        <time>2016-10-09T13:45:32Z</time>
      </trkpt>
      <trkpt lat="43.63751" lon="7.02655">
        <ele>174.89</ele>
        <time>2016-10-09T13:45:37Z</time>
      </trkpt>
      <trkpt lat="43.6377" lon="7.02645">
        <ele>166.7</ele>
        <time>2016-10-09T13:45:43Z</time>
      </trkpt>
      <trkpt lat="43.63791" lon="7.02637">
        <ele>166.21</ele>
        <time>2016-10-09T13:45:47Z</time>
      </trkpt>
      <trkpt lat="43.63811" lon="7.02631">
        <ele>166.87</ele>
        <time>2016-10-09T13:45:51Z</time>
      </trkpt>
      <trkpt lat="43.6381" lon="7.02657">
        <ele>155.37</ele>
        <time>2016-10-09T13:46:04Z</time>
      </trkpt>
      <trkpt lat="43.63798" lon="7.02682">
        <ele>150.46</ele>
        <time>2016-10-09T13:46:09Z</time>
      </trkpt>
      <trkpt lat="43.63793" lon="7.02708">
        <ele>150.65</ele>
        <time>2016-10-09T13:46:15Z</time>
      </trkpt>
      <trkpt lat="43.6381" lon="7.02718">
        <ele>146.22</ele>
        <time>2016-10-09T13:46:24Z</time>
      </trkpt>
      <trkpt lat="43.63823" lon="7.02696">
        <ele>149.85</ele>
        <time>2016-10-09T13:46:32Z</time>
      </trkpt>
      <trkpt lat="43.63835" lon="7.02672">
        <ele>150.13</ele>
        <time>2016-10-09T13:46:37Z</time>
      </trkpt>
      <trkpt lat="43.63855" lon="7.02663">
        <ele>147.24</ele>
        <time>2016-10-09T13:46:42Z</time>
      </trkpt>
      <trkpt lat="43.63868" lon="7.02685">
        <ele>148.96</ele>
        <time>2016-10-09T13:46:48Z</time>
      </trkpt>
      <trkpt lat="43.63865" lon="7.02712">
        <ele>147.55</ele>
        <time>2016-10-09T13:47:34Z</time>
      </trkpt>
      <trkpt lat="43.6388" lon="7.02693">
        <ele>154.34</ele>
        <time>2016-10-09T13:47:50Z</time>
      </trkpt>
      <trkpt lat="43.63894" lon="7.02676">
        <ele>155.4</ele>
        <time>2016-10-09T13:47:56Z</time>
      </trkpt>
      <trkpt lat="43.6391" lon="7.02662">
        <ele>156.11</ele>
        <time>2016-10-09T13:48:03Z</time>
      </trkpt>
      <trkpt lat="43.63928" lon="7.02646">
        <ele>155.43</ele>
        <time>2016-10-09T13:48:10Z</time>
      </trkpt>
      <trkpt lat="43.63945" lon="7.02634">
        <ele>159.94</ele>
        <time>2016-10-09T13:48:17Z</time>
      </trkpt>
      <trkpt lat="43.63963" lon="7.0263">
        <ele>158.26</ele>
        <time>2016-10-09T13:48:24Z</time>
      </trkpt>
      <trkpt lat="43.63976" lon="7.0261">
        <ele>159.44</ele>
        <time>2016-10-09T13:48:32Z</time>
      </trkpt>
      <trkpt lat="43.63994" lon="7.02596">
        <ele>159.26</ele>
        <time>2016-10-09T13:48:39Z</time>
      </trkpt>
      <trkpt lat="43.64012" lon="7.02588">
        <ele>159.99</ele>
        <time>2016-10-09T13:48:44Z</time>
      </trkpt>
      <trkpt lat="43.64033" lon="7.0258">
        <ele>162.92</ele>
        <time>2016-10-09T13:48:50Z</time>
      </trkpt>
      <trkpt lat="43.64052" lon="7.02578">
        <ele>168.29</ele>
        <time>2016-10-09T13:48:54Z</time>
      </trkpt>
      <trkpt lat="43.64076" lon="7.02577">
        <ele>175.08</ele>
        <time>2016-10-09T13:49:00Z</time>
      </trkpt>
      <trkpt lat="43.64098" lon="7.02576">
        <ele>181.94</ele>
        <time>2016-10-09T13:49:06Z</time>
      </trkpt>
      <trkpt lat="43.64118" lon="7.02576">
        <ele>184.58</ele>
        <time>2016-10-09T13:49:13Z</time>
      </trkpt>
      <trkpt lat="43.64138" lon="7.02574">
        <ele>190.31</ele>
        <time>2016-10-09T13:49:18Z</time>
      </trkpt>
      <trkpt lat="43.64157" lon="7.02572">
        <ele>190.96</ele>
        <time>2016-10-09T13:49:24Z</time>
      </trkpt>
      <trkpt lat="43.64169" lon="7.02553">
        <ele>187.28</ele>
        <time>2016-10-09T13:49:31Z</time>
      </trkpt>
      <trkpt lat="43.6418" lon="7.0253">
        <ele>191.65</ele>
        <time>2016-10-09T13:49:37Z</time>
      </trkpt>
      <trkpt lat="43.64198" lon="7.02522">
        <ele>191.18</ele>
        <time>2016-10-09T13:49:45Z</time>
      </trkpt>
      <trkpt lat="43.6422" lon="7.02531">
        <ele>191.18</ele>
        <time>2016-10-09T13:49:51Z</time>
      </trkpt>
      <trkpt lat="43.64238" lon="7.02536">
        <ele>191.18</ele>
        <time>2016-10-09T13:49:55Z</time>
      </trkpt>
      <trkpt lat="43.64256" lon="7.02542">
        <ele>191.68</ele>
        <time>2016-10-09T13:50:07Z</time>
      </trkpt>
      <trkpt lat="43.64272" lon="7.02524">
        <ele>193.05</ele>
        <time>2016-10-09T13:50:18Z</time>
      </trkpt>
      <trkpt lat="43.64283" lon="7.02499">
        <ele>193.17</ele>
        <time>2016-10-09T13:50:23Z</time>
      </trkpt>
      <trkpt lat="43.64291" lon="7.02475">
        <ele>193.18</ele>
        <time>2016-10-09T13:50:27Z</time>
      </trkpt>
      <trkpt lat="43.64299" lon="7.02445">
        <ele>193.55</ele>
        <time>2016-10-09T13:50:31Z</time>
      </trkpt>
      <trkpt lat="43.64309" lon="7.02418">
        <ele>193.2</ele>
        <time>2016-10-09T13:50:35Z</time>
      </trkpt>
      <trkpt lat="43.64317" lon="7.02387">
        <ele>193.43</ele>
        <time>2016-10-09T13:50:39Z</time>
      </trkpt>
      <trkpt lat="43.64324" lon="7.0236">
        <ele>194.58</ele>
        <time>2016-10-09T13:50:42Z</time>
      </trkpt>
      <trkpt lat="43.64328" lon="7.02336">
        <ele>195.1</ele>
        <time>2016-10-09T13:50:45Z</time>
      </trkpt>
      <trkpt lat="43.64331" lon="7.0231">
        <ele>195.42</ele>
        <time>2016-10-09T13:50:48Z</time>
      </trkpt>
      <trkpt lat="43.64337" lon="7.02283">
        <ele>195.96</ele>
        <time>2016-10-09T13:50:51Z</time>
      </trkpt>
      <trkpt lat="43.64343" lon="7.02252">
        <ele>195.65</ele>
        <time>2016-10-09T13:50:54Z</time>
      </trkpt>
      <trkpt lat="43.64353" lon="7.02224">
        <ele>194.74</ele>
        <time>2016-10-09T13:50:57Z</time>
      </trkpt>
      <trkpt lat="43.64362" lon="7.02193">
        <ele>195.12</ele>
        <time>2016-10-09T13:51:00Z</time>
      </trkpt>
      <trkpt lat="43.64371" lon="7.02163">
        <ele>194.67</ele>
        <time>2016-10-09T13:51:03Z</time>
      </trkpt>
      <trkpt lat="43.64378" lon="7.02134">
        <ele>194.99</ele>
        <time>2016-10-09T13:51:06Z</time>
      </trkpt>
      <trkpt lat="43.64388" lon="7.02108">
        <ele>196.9</ele>
        <time>2016-10-09T13:51:09Z</time>
      </trkpt>
      <trkpt lat="43.64398" lon="7.02081">
        <ele>199.64</ele>
        <time>2016-10-09T13:51:12Z</time>
      </trkpt>
      <trkpt lat="43.64415" lon="7.02059">
        <ele>201.83</ele>
        <time>2016-10-09T13:51:16Z</time>
      </trkpt>
      <trkpt lat="43.64434" lon="7.02044">
        <ele>203.51</ele>
        <time>2016-10-09T13:51:21Z</time>
      </trkpt>
      <trkpt lat="43.64438" lon="7.02018">
        <ele>204.12</ele>
        <time>2016-10-09T13:51:26Z</time>
      </trkpt>
      <trkpt lat="43.64431" lon="7.01989">
        <ele>203.19</ele>
        <time>2016-10-09T13:51:32Z</time>
      </trkpt>
      <trkpt lat="43.64429" lon="7.01958">
        <ele>204.86</ele>
        <time>2016-10-09T13:51:37Z</time>
      </trkpt>
      <trkpt lat="43.64429" lon="7.01931">
        <ele>207.1</ele>
        <time>2016-10-09T13:51:42Z</time>
      </trkpt>
      <trkpt lat="43.64426" lon="7.01905">
        <ele>206.48</ele>
        <time>2016-10-09T13:51:46Z</time>
      </trkpt>
      <trkpt lat="43.64424" lon="7.01874">
        <ele>205.2</ele>
        <time>2016-10-09T13:51:50Z</time>
      </trkpt>
      <trkpt lat="43.64422" lon="7.01848">
        <ele>203.43</ele>
        <time>2016-10-09T13:51:53Z</time>
      </trkpt>
      <trkpt lat="43.6442" lon="7.01821">
        <ele>204.21</ele>
        <time>2016-10-09T13:51:56Z</time>
      </trkpt>
      <trkpt lat="43.64417" lon="7.01793">
        <ele>203.93</ele>
        <time>2016-10-09T13:51:59Z</time>
      </trkpt>
      <trkpt lat="43.64414" lon="7.01762">
        <ele>203.27</ele>
        <time>2016-10-09T13:52:02Z</time>
      </trkpt>
      <trkpt lat="43.6441" lon="7.01729">
        <ele>203.19</ele>
        <time>2016-10-09T13:52:05Z</time>
      </trkpt>
      <trkpt lat="43.64413" lon="7.01697">
        <ele>200.8</ele>
        <time>2016-10-09T13:52:08Z</time>
      </trkpt>
      <trkpt lat="43.64414" lon="7.01665">
        <ele>199.75</ele>
        <time>2016-10-09T13:52:11Z</time>
      </trkpt>
      <trkpt lat="43.64415" lon="7.01633">
        <ele>200</ele>
        <time>2016-10-09T13:52:14Z</time>
      </trkpt>
      <trkpt lat="43.64411" lon="7.01603">
        <ele>201.4</ele>
        <time>2016-10-09T13:52:17Z</time>
      </trkpt>
      <trkpt lat="43.64405" lon="7.01576">
        <ele>202.83</ele>
        <time>2016-10-09T13:52:20Z</time>
      </trkpt>
      <trkpt lat="43.64399" lon="7.01544">
        <ele>203.88</ele>
        <time>2016-10-09T13:52:23Z</time>
      </trkpt>
      <trkpt lat="43.64394" lon="7.01514">
        <ele>204.14</ele>
        <time>2016-10-09T13:52:26Z</time>
      </trkpt>
      <trkpt lat="43.64388" lon="7.01484">
        <ele>205.05</ele>
        <time>2016-10-09T13:52:29Z</time>
      </trkpt>
      <trkpt lat="43.64383" lon="7.01453">
        <ele>205.16</ele>
        <time>2016-10-09T13:52:32Z</time>
      </trkpt>
      <trkpt lat="43.64377" lon="7.01425">
        <ele>206.05</ele>
        <time>2016-10-09T13:52:35Z</time>
      </trkpt>
      <trkpt lat="43.64371" lon="7.01397">
        <ele>207.54</ele>
        <time>2016-10-09T13:52:38Z</time>
      </trkpt>
      <trkpt lat="43.64367" lon="7.01367">
        <ele>206.72</ele>
        <time>2016-10-09T13:52:41Z</time>
      </trkpt>
      <trkpt lat="43.64358" lon="7.01338">
        <ele>207.62</ele>
        <time>2016-10-09T13:52:44Z</time>
      </trkpt>
      <trkpt lat="43.64347" lon="7.01313">
        <ele>207.36</ele>
        <time>2016-10-09T13:52:47Z</time>
      </trkpt>
      <trkpt lat="43.6434" lon="7.01286">
        <ele>207.2</ele>
        <time>2016-10-09T13:52:50Z</time>
      </trkpt>
      <trkpt lat="43.64334" lon="7.01258">
        <ele>208.05</ele>
        <time>2016-10-09T13:52:54Z</time>
      </trkpt>
      <trkpt lat="43.64327" lon="7.01232">
        <ele>208.67</ele>
        <time>2016-10-09T13:52:58Z</time>
      </trkpt>
      <trkpt lat="43.64319" lon="7.01206">
        <ele>210.89</ele>
        <time>2016-10-09T13:53:02Z</time>
      </trkpt>
      <trkpt lat="43.64308" lon="7.01185">
        <ele>212.53</ele>
        <time>2016-10-09T13:53:06Z</time>
      </trkpt>
      <trkpt lat="43.64295" lon="7.01164">
        <ele>213.82</ele>
        <time>2016-10-09T13:53:10Z</time>
      </trkpt>
      <trkpt lat="43.64287" lon="7.01139">
        <ele>215.15</ele>
        <time>2016-10-09T13:53:14Z</time>
      </trkpt>
      <trkpt lat="43.64274" lon="7.01116">
        <ele>216.61</ele>
        <time>2016-10-09T13:53:18Z</time>
      </trkpt>
      <trkpt lat="43.64255" lon="7.0111">
        <ele>215.86</ele>
        <time>2016-10-09T13:53:21Z</time>
      </trkpt>
      <trkpt lat="43.64231" lon="7.01113">
        <ele>214.47</ele>
        <time>2016-10-09T13:53:25Z</time>
      </trkpt>
      <trkpt lat="43.64212" lon="7.01117">
        <ele>213.46</ele>
        <time>2016-10-09T13:53:28Z</time>
      </trkpt>
      <trkpt lat="43.64194" lon="7.01122">
        <ele>213.69</ele>
        <time>2016-10-09T13:53:32Z</time>
      </trkpt>
      <trkpt lat="43.64201" lon="7.01099">
        <ele>211.61</ele>
        <time>2016-10-09T13:53:38Z</time>
      </trkpt>
      <trkpt lat="43.64222" lon="7.01086">
        <ele>211.58</ele>
        <time>2016-10-09T13:53:42Z</time>
      </trkpt>
      <trkpt lat="43.6424" lon="7.01077">
        <ele>213.48</ele>
        <time>2016-10-09T13:53:45Z</time>
      </trkpt>
      <trkpt lat="43.64256" lon="7.01065">
        <ele>213.71</ele>
        <time>2016-10-09T13:53:48Z</time>
      </trkpt>
      <trkpt lat="43.64257" lon="7.01038">
        <ele>213.77</ele>
        <time>2016-10-09T13:53:52Z</time>
      </trkpt>
      <trkpt lat="43.64251" lon="7.01008">
        <ele>214.84</ele>
        <time>2016-10-09T13:53:56Z</time>
      </trkpt>
      <trkpt lat="43.64241" lon="7.00983">
        <ele>212.59</ele>
        <time>2016-10-09T13:54:00Z</time>
      </trkpt>
      <trkpt lat="43.6424" lon="7.00957">
        <ele>210.73</ele>
        <time>2016-10-09T13:54:03Z</time>
      </trkpt>
      <trkpt lat="43.64241" lon="7.00932">
        <ele>210.25</ele>
        <time>2016-10-09T13:54:06Z</time>
      </trkpt>
      <trkpt lat="43.64244" lon="7.00906">
        <ele>207.02</ele>
        <time>2016-10-09T13:54:12Z</time>
      </trkpt>
      <trkpt lat="43.64227" lon="7.00896">
        <ele>206.13</ele>
        <time>2016-10-09T13:55:19Z</time>
      </trkpt>
      <trkpt lat="43.64208" lon="7.00892">
        <ele>198.43</ele>
        <time>2016-10-09T13:55:40Z</time>
      </trkpt>
      <trkpt lat="43.64191" lon="7.00884">
        <ele>193.97</ele>
        <time>2016-10-09T13:55:53Z</time>
      </trkpt>
      <trkpt lat="43.64172" lon="7.00882">
        <ele>193.96</ele>
        <time>2016-10-09T13:56:03Z</time>
      </trkpt>
      <trkpt lat="43.64154" lon="7.00877">
        <ele>195.97</ele>
        <time>2016-10-09T13:56:11Z</time>
      </trkpt>
      <trkpt lat="43.64135" lon="7.0087">
        <ele>200.91</ele>
        <time>2016-10-09T13:56:35Z</time>
      </trkpt>
      <trkpt lat="43.64117" lon="7.0087">
        <ele>200.5</ele>
        <time>2016-10-09T13:56:41Z</time>
      </trkpt>
      <trkpt lat="43.64099" lon="7.0087">
        <ele>197.78</ele>
        <time>2016-10-09T13:56:49Z</time>
      </trkpt>
      <trkpt lat="43.64096" lon="7.00846">
        <ele>193.28</ele>
        <time>2016-10-09T13:57:07Z</time>
      </trkpt>
      <trkpt lat="43.64105" lon="7.00824">
        <ele>194.3</ele>
        <time>2016-10-09T13:57:14Z</time>
      </trkpt>
      <trkpt lat="43.64111" lon="7.00798">
        <ele>194.84</ele>
        <time>2016-10-09T13:57:22Z</time>
      </trkpt>
      <trkpt lat="43.64093" lon="7.00791">
        <ele>191.48</ele>
        <time>2016-10-09T13:57:30Z</time>
      </trkpt>
      <trkpt lat="43.64076" lon="7.00776">
        <ele>188.2</ele>
        <time>2016-10-09T13:58:47Z</time>
      </trkpt>
      <trkpt lat="43.64062" lon="7.00759">
        <ele>188.93</ele>
        <time>2016-10-09T13:58:52Z</time>
      </trkpt>
      <trkpt lat="43.64048" lon="7.00741">
        <ele>188.02</ele>
        <time>2016-10-09T13:58:58Z</time>
      </trkpt>
      <trkpt lat="43.64036" lon="7.00722">
        <ele>182.5</ele>
        <time>2016-10-09T13:59:05Z</time>
      </trkpt>
      <trkpt lat="43.64028" lon="7.00697">
        <ele>183.12</ele>
        <time>2016-10-09T13:59:12Z</time>
      </trkpt>
      <trkpt lat="43.6402" lon="7.00668">
        <ele>183.46</ele>
        <time>2016-10-09T13:59:21Z</time>
      </trkpt>
      <trkpt lat="43.6401" lon="7.00641">
        <ele>184.07</ele>
        <time>2016-10-09T13:59:25Z</time>
      </trkpt>
      <trkpt lat="43.63999" lon="7.00609">
        <ele>184.11</ele>
        <time>2016-10-09T13:59:29Z</time>
      </trkpt>
      <trkpt lat="43.6399" lon="7.00582">
        <ele>185.42</ele>
        <time>2016-10-09T13:59:32Z</time>
      </trkpt>
      <trkpt lat="43.6398" lon="7.0056">
        <ele>186.08</ele>
        <time>2016-10-09T13:59:35Z</time>
      </trkpt>
      <trkpt lat="43.63963" lon="7.0054">
        <ele>183.61</ele>
        <time>2016-10-09T13:59:39Z</time>
      </trkpt>
      <trkpt lat="43.63946" lon="7.00523">
        <ele>183.27</ele>
        <time>2016-10-09T13:59:43Z</time>
      </trkpt>
      <trkpt lat="43.63926" lon="7.00508">
        <ele>184.56</ele>
        <time>2016-10-09T13:59:47Z</time>
      </trkpt>
      <trkpt lat="43.63906" lon="7.00494">
        <ele>185.39</ele>
        <time>2016-10-09T13:59:51Z</time>
      </trkpt>
      <trkpt lat="43.63888" lon="7.00485">
        <ele>185.06</ele>
        <time>2016-10-09T13:59:55Z</time>
      </trkpt>
      <trkpt lat="43.63872" lon="7.00499">
        <ele>183.54</ele>
        <time>2016-10-09T13:59:59Z</time>
      </trkpt>
      <trkpt lat="43.63855" lon="7.0051">
        <ele>186.35</ele>
        <time>2016-10-09T14:00:02Z</time>
      </trkpt>
      <trkpt lat="43.63834" lon="7.00523">
        <ele>190.5</ele>
        <time>2016-10-09T14:00:06Z</time>
      </trkpt>
      <trkpt lat="43.63817" lon="7.00534">
        <ele>195.09</ele>
        <time>2016-10-09T14:00:09Z</time>
      </trkpt>
      <trkpt lat="43.63797" lon="7.0053">
        <ele>200.92</ele>
        <time>2016-10-09T14:00:14Z</time>
      </trkpt>
      <trkpt lat="43.63779" lon="7.00523">
        <ele>201.6</ele>
        <time>2016-10-09T14:00:18Z</time>
      </trkpt>
      <trkpt lat="43.6376" lon="7.00531">
        <ele>196.89</ele>
        <time>2016-10-09T14:00:22Z</time>
      </trkpt>
      <trkpt lat="43.63744" lon="7.00544">
        <ele>194.35</ele>
        <time>2016-10-09T14:00:26Z</time>
      </trkpt>
      <trkpt lat="43.63728" lon="7.0056">
        <ele>195.45</ele>
        <time>2016-10-09T14:00:29Z</time>
      </trkpt>
      <trkpt lat="43.63708" lon="7.00572">
        <ele>196.88</ele>
        <time>2016-10-09T14:00:33Z</time>
      </trkpt>
      <trkpt lat="43.63689" lon="7.00588">
        <ele>197.41</ele>
        <time>2016-10-09T14:00:37Z</time>
      </trkpt>
      <trkpt lat="43.6367" lon="7.006">
        <ele>198.38</ele>
        <time>2016-10-09T14:00:41Z</time>
      </trkpt>
      <trkpt lat="43.63649" lon="7.00608">
        <ele>198.38</ele>
        <time>2016-10-09T14:00:45Z</time>
      </trkpt>
      <trkpt lat="43.63628" lon="7.00614">
        <ele>199.81</ele>
        <time>2016-10-09T14:00:49Z</time>
      </trkpt>
      <trkpt lat="43.63608" lon="7.00621">
        <ele>199.4</ele>
        <time>2016-10-09T14:00:53Z</time>
      </trkpt>
      <trkpt lat="43.6359" lon="7.00621">
        <ele>198.19</ele>
        <time>2016-10-09T14:00:57Z</time>
      </trkpt>
      <trkpt lat="43.6357" lon="7.0063">
        <ele>195.75</ele>
        <time>2016-10-09T14:01:03Z</time>
      </trkpt>
      <trkpt lat="43.63553" lon="7.00636">
        <ele>203.94</ele>
        <time>2016-10-09T14:01:08Z</time>
      </trkpt>
      <trkpt lat="43.63534" lon="7.00638">
        <ele>228.26</ele>
        <time>2016-10-09T14:01:32Z</time>
      </trkpt>
      <trkpt lat="43.63511" lon="7.00641">
        <ele>228.18</ele>
        <time>2016-10-09T14:01:36Z</time>
      </trkpt>
      <trkpt lat="43.63488" lon="7.00647">
        <ele>230.18</ele>
        <time>2016-10-09T14:01:39Z</time>
      </trkpt>
      <trkpt lat="43.63467" lon="7.00649">
        <ele>230.3</ele>
        <time>2016-10-09T14:01:42Z</time>
      </trkpt>
      <trkpt lat="43.63446" lon="7.0065">
        <ele>231.44</ele>
        <time>2016-10-09T14:01:45Z</time>
      </trkpt>
      <trkpt lat="43.63423" lon="7.00653">
        <ele>231.38</ele>
        <time>2016-10-09T14:01:49Z</time>
      </trkpt>
      <trkpt lat="43.63405" lon="7.00656">
        <ele>229.75</ele>
        <time>2016-10-09T14:01:53Z</time>
      </trkpt>
      <trkpt lat="43.6338" lon="7.00659">
        <ele>228.96</ele>
        <time>2016-10-09T14:01:57Z</time>
      </trkpt>
      <trkpt lat="43.63362" lon="7.00661">
        <ele>229.15</ele>
        <time>2016-10-09T14:02:00Z</time>
      </trkpt>
      <trkpt lat="43.6334" lon="7.00659">
        <ele>229.17</ele>
        <time>2016-10-09T14:02:04Z</time>
      </trkpt>
      <trkpt lat="43.63335" lon="7.00689">
        <ele>227.07</ele>
        <time>2016-10-09T14:02:11Z</time>
      </trkpt>
      <trkpt lat="43.63319" lon="7.00711">
        <ele>227.05</ele>
        <time>2016-10-09T14:02:16Z</time>
      </trkpt>
      <trkpt lat="43.63302" lon="7.00726">
        <ele>228.11</ele>
        <time>2016-10-09T14:02:20Z</time>
      </trkpt>
      <trkpt lat="43.63282" lon="7.00741">
        <ele>230.05</ele>
        <time>2016-10-09T14:02:24Z</time>
      </trkpt>
      <trkpt lat="43.63264" lon="7.00753">
        <ele>228.92</ele>
        <time>2016-10-09T14:02:28Z</time>
      </trkpt>
      <trkpt lat="43.6325" lon="7.00771">
        <ele>227.39</ele>
        <time>2016-10-09T14:02:31Z</time>
      </trkpt>
      <trkpt lat="43.63238" lon="7.00798">
        <ele>226.7</ele>
        <time>2016-10-09T14:02:34Z</time>
      </trkpt>
      <trkpt lat="43.63224" lon="7.00822">
        <ele>226.99</ele>
        <time>2016-10-09T14:02:37Z</time>
      </trkpt>
      <trkpt lat="43.63215" lon="7.00851">
        <ele>225.03</ele>
        <time>2016-10-09T14:02:40Z</time>
      </trkpt>
      <trkpt lat="43.63208" lon="7.00878">
        <ele>225.66</ele>
        <time>2016-10-09T14:02:43Z</time>
      </trkpt>
      <trkpt lat="43.63199" lon="7.00905">
        <ele>225.36</ele>
        <time>2016-10-09T14:02:46Z</time>
      </trkpt>
      <trkpt lat="43.63191" lon="7.00933">
        <ele>225.2</ele>
        <time>2016-10-09T14:02:49Z</time>
      </trkpt>
      <trkpt lat="43.63185" lon="7.00958">
        <ele>222.43</ele>
        <time>2016-10-09T14:02:51Z</time>
      </trkpt>
      <trkpt lat="43.63175" lon="7.00989">
        <ele>218.83</ele>
        <time>2016-10-09T14:02:54Z</time>
      </trkpt>
      <trkpt lat="43.63164" lon="7.0101">
        <ele>217.01</ele>
        <time>2016-10-09T14:02:57Z</time>
      </trkpt>
      <trkpt lat="43.63161" lon="7.01043">
        <ele>213.98</ele>
        <time>2016-10-09T14:03:01Z</time>
      </trkpt>
      <trkpt lat="43.63162" lon="7.0107">
        <ele>212.48</ele>
        <time>2016-10-09T14:03:05Z</time>
      </trkpt>
      <trkpt lat="43.6315" lon="7.01096">
        <ele>211.63</ele>
        <time>2016-10-09T14:03:09Z</time>
      </trkpt>
      <trkpt lat="43.63141" lon="7.01121">
        <ele>211.36</ele>
        <time>2016-10-09T14:03:12Z</time>
      </trkpt>
      <trkpt lat="43.63136" lon="7.0115">
        <ele>208.26</ele>
        <time>2016-10-09T14:03:18Z</time>
      </trkpt>
      <trkpt lat="43.63134" lon="7.01176">
        <ele>208.56</ele>
        <time>2016-10-09T14:03:21Z</time>
      </trkpt>
      <trkpt lat="43.63131" lon="7.01209">
        <ele>209.1</ele>
        <time>2016-10-09T14:03:24Z</time>
      </trkpt>
      <trkpt lat="43.6313" lon="7.01236">
        <ele>211.79</ele>
        <time>2016-10-09T14:03:27Z</time>
      </trkpt>
      <trkpt lat="43.63126" lon="7.01265">
        <ele>211</ele>
        <time>2016-10-09T14:03:30Z</time>
      </trkpt>
      <trkpt lat="43.63124" lon="7.01291">
        <ele>210.03</ele>
        <time>2016-10-09T14:03:33Z</time>
      </trkpt>
      <trkpt lat="43.63118" lon="7.01316">
        <ele>207.6</ele>
        <time>2016-10-09T14:03:37Z</time>
      </trkpt>
      <trkpt lat="43.63111" lon="7.01342">
        <ele>209.05</ele>
        <time>2016-10-09T14:03:44Z</time>
      </trkpt>
      <trkpt lat="43.63102" lon="7.0137">
        <ele>211.21</ele>
        <time>2016-10-09T14:05:58Z</time>
      </trkpt>
      <trkpt lat="43.63092" lon="7.01398">
        <ele>213.55</ele>
        <time>2016-10-09T14:06:02Z</time>
      </trkpt>
      <trkpt lat="43.63078" lon="7.01424">
        <ele>216.32</ele>
        <time>2016-10-09T14:06:06Z</time>
      </trkpt>
      <trkpt lat="43.63063" lon="7.01444">
        <ele>218.32</ele>
        <time>2016-10-09T14:06:09Z</time>
      </trkpt>
      <trkpt lat="43.63047" lon="7.01464">
        <ele>220.5</ele>
        <time>2016-10-09T14:06:13Z</time>
      </trkpt>
      <trkpt lat="43.63031" lon="7.01479">
        <ele>222.76</ele>
        <time>2016-10-09T14:06:19Z</time>
      </trkpt>
      <trkpt lat="43.63028" lon="7.01505">
        <ele>223.01</ele>
        <time>2016-10-09T14:06:25Z</time>
      </trkpt>
      <trkpt lat="43.63029" lon="7.01532">
        <ele>219.24</ele>
        <time>2016-10-09T14:06:33Z</time>
      </trkpt>
      <trkpt lat="43.63039" lon="7.01557">
        <ele>217.87</ele>
        <time>2016-10-09T14:06:38Z</time>
      </trkpt>
      <trkpt lat="43.63056" lon="7.01568">
        <ele>217.72</ele>
        <time>2016-10-09T14:06:42Z</time>
      </trkpt>
      <trkpt lat="43.6307" lon="7.01591">
        <ele>220.91</ele>
        <time>2016-10-09T14:06:47Z</time>
      </trkpt>
      <trkpt lat="43.63075" lon="7.01616">
        <ele>222.47</ele>
        <time>2016-10-09T14:06:51Z</time>
      </trkpt>
      <trkpt lat="43.63079" lon="7.01648">
        <ele>219.97</ele>
        <time>2016-10-09T14:06:56Z</time>
      </trkpt>
      <trkpt lat="43.6308" lon="7.01678">
        <ele>217.77</ele>
        <time>2016-10-09T14:06:59Z</time>
      </trkpt>
      <trkpt lat="43.63081" lon="7.01705">
        <ele>220.5</ele>
        <time>2016-10-09T14:07:02Z</time>
      </trkpt>
      <trkpt lat="43.6308" lon="7.0173">
        <ele>221.15</ele>
        <time>2016-10-09T14:07:07Z</time>
      </trkpt>
      <trkpt lat="43.6307" lon="7.01763">
        <ele>221.05</ele>
        <time>2016-10-09T14:07:10Z</time>
      </trkpt>
      <trkpt lat="43.63071" lon="7.01798">
        <ele>222.98</ele>
        <time>2016-10-09T14:07:14Z</time>
      </trkpt>
      <trkpt lat="43.63074" lon="7.01829">
        <ele>223.78</ele>
        <time>2016-10-09T14:07:17Z</time>
      </trkpt>
      <trkpt lat="43.63075" lon="7.01858">
        <ele>222.4</ele>
        <time>2016-10-09T14:07:21Z</time>
      </trkpt>
      <trkpt lat="43.63078" lon="7.01885">
        <ele>221.58</ele>
        <time>2016-10-09T14:07:24Z</time>
      </trkpt>
      <trkpt lat="43.63079" lon="7.0192">
        <ele>221.73</ele>
        <time>2016-10-09T14:07:27Z</time>
      </trkpt>
      <trkpt lat="43.63073" lon="7.01954">
        <ele>223.49</ele>
        <time>2016-10-09T14:07:30Z</time>
      </trkpt>
      <trkpt lat="43.63055" lon="7.01981">
        <ele>224.63</ele>
        <time>2016-10-09T14:07:34Z</time>
      </trkpt>
      <trkpt lat="43.6304" lon="7.01999">
        <ele>224.04</ele>
        <time>2016-10-09T14:07:36Z</time>
      </trkpt>
      <trkpt lat="43.63029" lon="7.02025">
        <ele>224.17</ele>
        <time>2016-10-09T14:07:40Z</time>
      </trkpt>
      <trkpt lat="43.63028" lon="7.02058">
        <ele>218.49</ele>
        <time>2016-10-09T14:07:45Z</time>
      </trkpt>
      <trkpt lat="43.63026" lon="7.02089">
        <ele>217.47</ele>
        <time>2016-10-09T14:07:48Z</time>
      </trkpt>
      <trkpt lat="43.6302" lon="7.02113">
        <ele>219.5</ele>
        <time>2016-10-09T14:07:50Z</time>
      </trkpt>
      <trkpt lat="43.63013" lon="7.02137">
        <ele>218.47</ele>
        <time>2016-10-09T14:07:53Z</time>
      </trkpt>
      <trkpt lat="43.63013" lon="7.02165">
        <ele>217.63</ele>
        <time>2016-10-09T14:07:57Z</time>
      </trkpt>
      <trkpt lat="43.63" lon="7.02194">
        <ele>216.86</ele>
        <time>2016-10-09T14:08:00Z</time>
      </trkpt>
      <trkpt lat="43.62994" lon="7.02227">
        <ele>216.89</ele>
        <time>2016-10-09T14:08:03Z</time>
      </trkpt>
      <trkpt lat="43.62978" lon="7.02239">
        <ele>215.98</ele>
        <time>2016-10-09T14:08:09Z</time>
      </trkpt>
      <trkpt lat="43.62955" lon="7.02246">
        <ele>211.67</ele>
        <time>2016-10-09T14:08:14Z</time>
      </trkpt>
      <trkpt lat="43.62934" lon="7.02258">
        <ele>210.46</ele>
        <time>2016-10-09T14:08:18Z</time>
      </trkpt>
      <trkpt lat="43.62914" lon="7.02271">
        <ele>210.21</ele>
        <time>2016-10-09T14:08:21Z</time>
      </trkpt>
      <trkpt lat="43.62891" lon="7.0229">
        <ele>209.12</ele>
        <time>2016-10-09T14:08:25Z</time>
      </trkpt>
      <trkpt lat="43.62875" lon="7.02311">
        <ele>206.92</ele>
        <time>2016-10-09T14:08:29Z</time>
      </trkpt>
      <trkpt lat="43.62867" lon="7.02342">
        <ele>206.85</ele>
        <time>2016-10-09T14:08:33Z</time>
      </trkpt>
      <trkpt lat="43.6286" lon="7.02373">
        <ele>207.76</ele>
        <time>2016-10-09T14:08:36Z</time>
      </trkpt>
      <trkpt lat="43.62859" lon="7.02405">
        <ele>208.25</ele>
        <time>2016-10-09T14:08:39Z</time>
      </trkpt>
      <trkpt lat="43.62861" lon="7.02435">
        <ele>208.06</ele>
        <time>2016-10-09T14:08:42Z</time>
      </trkpt>
      <trkpt lat="43.62866" lon="7.0246">
        <ele>209.29</ele>
        <time>2016-10-09T14:08:45Z</time>
      </trkpt>
      <trkpt lat="43.62876" lon="7.02486">
        <ele>209.56</ele>
        <time>2016-10-09T14:08:48Z</time>
      </trkpt>
      <trkpt lat="43.62889" lon="7.02507">
        <ele>205.6</ele>
        <time>2016-10-09T14:08:51Z</time>
      </trkpt>
      <trkpt lat="43.62907" lon="7.02526">
        <ele>200.23</ele>
        <time>2016-10-09T14:08:54Z</time>
      </trkpt>
      <trkpt lat="43.62923" lon="7.02546">
        <ele>195.93</ele>
        <time>2016-10-09T14:08:57Z</time>
      </trkpt>
      <trkpt lat="43.62938" lon="7.02566">
        <ele>191.77</ele>
        <time>2016-10-09T14:09:00Z</time>
      </trkpt>
      <trkpt lat="43.62955" lon="7.02581">
        <ele>187.25</ele>
        <time>2016-10-09T14:09:03Z</time>
      </trkpt>
      <trkpt lat="43.62973" lon="7.02597">
        <ele>184.06</ele>
        <time>2016-10-09T14:09:06Z</time>
      </trkpt>
      <trkpt lat="43.62993" lon="7.02596">
        <ele>177.66</ele>
        <time>2016-10-09T14:09:09Z</time>
      </trkpt>
      <trkpt lat="43.63012" lon="7.02594">
        <ele>174.11</ele>
        <time>2016-10-09T14:09:12Z</time>
      </trkpt>
      <trkpt lat="43.6303" lon="7.02594">
        <ele>171.8</ele>
        <time>2016-10-09T14:09:16Z</time>
      </trkpt>
      <trkpt lat="43.63034" lon="7.02619">
        <ele>168.81</ele>
        <time>2016-10-09T14:09:22Z</time>
      </trkpt>
      <trkpt lat="43.63031" lon="7.02649">
        <ele>163.86</ele>
        <time>2016-10-09T14:09:28Z</time>
      </trkpt>
      <trkpt lat="43.63022" lon="7.02673">
        <ele>163.5</ele>
        <time>2016-10-09T14:09:37Z</time>
      </trkpt>
      <trkpt lat="43.63012" lon="7.02696">
        <ele>159.89</ele>
        <time>2016-10-09T14:09:44Z</time>
      </trkpt>
      <trkpt lat="43.63001" lon="7.02719">
        <ele>158.66</ele>
        <time>2016-10-09T14:09:50Z</time>
      </trkpt>
      <trkpt lat="43.6299" lon="7.02738">
        <ele>157.62</ele>
        <time>2016-10-09T14:09:56Z</time>
      </trkpt>
      <trkpt lat="43.62976" lon="7.0276">
        <ele>156.47</ele>
        <time>2016-10-09T14:10:01Z</time>
      </trkpt>
      <trkpt lat="43.6296" lon="7.02776">
        <ele>154.75</ele>
        <time>2016-10-09T14:10:06Z</time>
      </trkpt>
      <trkpt lat="43.6294" lon="7.02786">
        <ele>154.73</ele>
        <time>2016-10-09T14:10:11Z</time>
      </trkpt>
      <trkpt lat="43.62921" lon="7.02789">
        <ele>153.1</ele>
        <time>2016-10-09T14:10:16Z</time>
      </trkpt>
      <trkpt lat="43.62899" lon="7.02781">
        <ele>153.8</ele>
        <time>2016-10-09T14:10:45Z</time>
      </trkpt>
      <trkpt lat="43.62882" lon="7.02766">
        <ele>158.4</ele>
        <time>2016-10-09T14:10:49Z</time>
      </trkpt>
      <trkpt lat="43.62862" lon="7.02755">
        <ele>160.07</ele>
        <time>2016-10-09T14:10:53Z</time>
      </trkpt>
      <trkpt lat="43.62845" lon="7.02739">
        <ele>162.29</ele>
        <time>2016-10-09T14:10:57Z</time>
      </trkpt>
      <trkpt lat="43.62826" lon="7.02722">
        <ele>167.81</ele>
        <time>2016-10-09T14:11:01Z</time>
      </trkpt>
      <trkpt lat="43.62804" lon="7.02709">
        <ele>173.47</ele>
        <time>2016-10-09T14:11:05Z</time>
      </trkpt>
      <trkpt lat="43.62785" lon="7.02693">
        <ele>175.07</ele>
        <time>2016-10-09T14:11:09Z</time>
      </trkpt>
      <trkpt lat="43.62774" lon="7.02674">
        <ele>175.41</ele>
        <time>2016-10-09T14:11:12Z</time>
      </trkpt>
      <trkpt lat="43.62761" lon="7.02649">
        <ele>174.32</ele>
        <time>2016-10-09T14:11:16Z</time>
      </trkpt>
      <trkpt lat="43.62745" lon="7.02628">
        <ele>176.5</ele>
        <time>2016-10-09T14:11:20Z</time>
      </trkpt>
      <trkpt lat="43.62728" lon="7.02615">
        <ele>178.47</ele>
        <time>2016-10-09T14:11:23Z</time>
      </trkpt>
      <trkpt lat="43.62711" lon="7.02605">
        <ele>178.21</ele>
        <time>2016-10-09T14:11:26Z</time>
      </trkpt>
      <trkpt lat="43.62692" lon="7.02608">
        <ele>180.18</ele>
        <time>2016-10-09T14:11:29Z</time>
      </trkpt>
      <trkpt lat="43.6267" lon="7.02614">
        <ele>178.8</ele>
        <time>2016-10-09T14:11:33Z</time>
      </trkpt>
      <trkpt lat="43.62652" lon="7.02622">
        <ele>178.5</ele>
        <time>2016-10-09T14:11:36Z</time>
      </trkpt>
      <trkpt lat="43.62635" lon="7.02632">
        <ele>180.59</ele>
        <time>2016-10-09T14:11:39Z</time>
      </trkpt>
      <trkpt lat="43.62616" lon="7.02644">
        <ele>183.6</ele>
        <time>2016-10-09T14:11:42Z</time>
      </trkpt>
      <trkpt lat="43.62593" lon="7.02651">
        <ele>186.33</ele>
        <time>2016-10-09T14:11:46Z</time>
      </trkpt>
      <trkpt lat="43.62569" lon="7.02657">
        <ele>191.5</ele>
        <time>2016-10-09T14:11:50Z</time>
      </trkpt>
      <trkpt lat="43.62549" lon="7.02652">
        <ele>191.63</ele>
        <time>2016-10-09T14:11:54Z</time>
      </trkpt>
      <trkpt lat="43.62529" lon="7.02652">
        <ele>190.33</ele>
        <time>2016-10-09T14:11:58Z</time>
      </trkpt>
      <trkpt lat="43.62504" lon="7.02654">
        <ele>189.69</ele>
        <time>2016-10-09T14:12:02Z</time>
      </trkpt>
      <trkpt lat="43.62485" lon="7.0265">
        <ele>189.21</ele>
        <time>2016-10-09T14:12:06Z</time>
      </trkpt>
      <trkpt lat="43.62465" lon="7.02649">
        <ele>187.93</ele>
        <time>2016-10-09T14:12:09Z</time>
      </trkpt>
      <trkpt lat="43.62444" lon="7.02636">
        <ele>193.9</ele>
        <time>2016-10-09T14:12:12Z</time>
      </trkpt>
      <trkpt lat="43.62431" lon="7.02617">
        <ele>197.89</ele>
        <time>2016-10-09T14:12:15Z</time>
      </trkpt>
      <trkpt lat="43.62412" lon="7.02604">
        <ele>203.64</ele>
        <time>2016-10-09T14:12:18Z</time>
      </trkpt>
      <trkpt lat="43.624" lon="7.0258">
        <ele>206.36</ele>
        <time>2016-10-09T14:12:21Z</time>
      </trkpt>
      <trkpt lat="43.6239" lon="7.02555">
        <ele>205.45</ele>
        <time>2016-10-09T14:12:24Z</time>
      </trkpt>
      <trkpt lat="43.62377" lon="7.02529">
        <ele>207.38</ele>
        <time>2016-10-09T14:12:28Z</time>
      </trkpt>
      <trkpt lat="43.62367" lon="7.02503">
        <ele>206.94</ele>
        <time>2016-10-09T14:12:32Z</time>
      </trkpt>
      <trkpt lat="43.62353" lon="7.02485">
        <ele>207.97</ele>
        <time>2016-10-09T14:12:36Z</time>
      </trkpt>
      <trkpt lat="43.62359" lon="7.02457">
        <ele>209.31</ele>
        <time>2016-10-09T14:13:43Z</time>
      </trkpt>
      <trkpt lat="43.62371" lon="7.02435">
        <ele>209.47</ele>
        <time>2016-10-09T14:13:49Z</time>
      </trkpt>
      <trkpt lat="43.62389" lon="7.02419">
        <ele>208.55</ele>
        <time>2016-10-09T14:14:27Z</time>
      </trkpt>
      <trkpt lat="43.62404" lon="7.02401">
        <ele>209.88</ele>
        <time>2016-10-09T14:14:32Z</time>
      </trkpt>
      <trkpt lat="43.62416" lon="7.02382">
        <ele>209.39</ele>
        <time>2016-10-09T14:14:37Z</time>
      </trkpt>
      <trkpt lat="43.62431" lon="7.02366">
        <ele>213.34</ele>
        <time>2016-10-09T14:14:42Z</time>
      </trkpt>
      <trkpt lat="43.62448" lon="7.02354">
        <ele>222.12</ele>
        <time>2016-10-09T14:14:47Z</time>
      </trkpt>
      <trkpt lat="43.62465" lon="7.02335">
        <ele>227.36</ele>
        <time>2016-10-09T14:14:52Z</time>
      </trkpt>
      <trkpt lat="43.62483" lon="7.02321">
        <ele>228.75</ele>
        <time>2016-10-09T14:14:56Z</time>
      </trkpt>
      <trkpt lat="43.62494" lon="7.02297">
        <ele>229.27</ele>
        <time>2016-10-09T14:15:00Z</time>
      </trkpt>
      <trkpt lat="43.62498" lon="7.02268">
        <ele>229.56</ele>
        <time>2016-10-09T14:15:04Z</time>
      </trkpt>
      <trkpt lat="43.62497" lon="7.02242">
        <ele>231.47</ele>
        <time>2016-10-09T14:15:07Z</time>
      </trkpt>
      <trkpt lat="43.62494" lon="7.02214">
        <ele>232.22</ele>
        <time>2016-10-09T14:15:12Z</time>
      </trkpt>
      <trkpt lat="43.62483" lon="7.02189">
        <ele>221.05</ele>
        <time>2016-10-09T14:15:17Z</time>
      </trkpt>
      <trkpt lat="43.62473" lon="7.02163">
        <ele>223.67</ele>
        <time>2016-10-09T14:15:21Z</time>
      </trkpt>
      <trkpt lat="43.62466" lon="7.02138">
        <ele>225</ele>
        <time>2016-10-09T14:15:26Z</time>
      </trkpt>
      <trkpt lat="43.6246" lon="7.02113">
        <ele>229.73</ele>
        <time>2016-10-09T14:15:30Z</time>
      </trkpt>
      <trkpt lat="43.6246" lon="7.02088">
        <ele>231.24</ele>
        <time>2016-10-09T14:15:33Z</time>
      </trkpt>
      <trkpt lat="43.62466" lon="7.02059">
        <ele>229.9</ele>
        <time>2016-10-09T14:15:38Z</time>
      </trkpt>
      <trkpt lat="43.62475" lon="7.02034">
        <ele>228.28</ele>
        <time>2016-10-09T14:15:42Z</time>
      </trkpt>
      <trkpt lat="43.62484" lon="7.02006">
        <ele>226.71</ele>
        <time>2016-10-09T14:15:47Z</time>
      </trkpt>
      <trkpt lat="43.62493" lon="7.01971">
        <ele>224.4</ele>
        <time>2016-10-09T14:15:51Z</time>
      </trkpt>
      <trkpt lat="43.62493" lon="7.01936">
        <ele>223.45</ele>
        <time>2016-10-09T14:15:54Z</time>
      </trkpt>
      <trkpt lat="43.62501" lon="7.01912">
        <ele>221.96</ele>
        <time>2016-10-09T14:15:57Z</time>
      </trkpt>
      <trkpt lat="43.62498" lon="7.01883">
        <ele>223.15</ele>
        <time>2016-10-09T14:16:00Z</time>
      </trkpt>
      <trkpt lat="43.62486" lon="7.01865">
        <ele>221.36</ele>
        <time>2016-10-09T14:16:06Z</time>
      </trkpt>
      <trkpt lat="43.62475" lon="7.01836">
        <ele>221.25</ele>
        <time>2016-10-09T14:16:10Z</time>
      </trkpt>
      <trkpt lat="43.6247" lon="7.01809">
        <ele>223.31</ele>
        <time>2016-10-09T14:16:14Z</time>
      </trkpt>
      <trkpt lat="43.62475" lon="7.01779">
        <ele>219.21</ele>
        <time>2016-10-09T14:16:19Z</time>
      </trkpt>
      <trkpt lat="43.62471" lon="7.01752">
        <ele>210.9</ele>
        <time>2016-10-09T14:16:24Z</time>
      </trkpt>
      <trkpt lat="43.62468" lon="7.01723">
        <ele>209.35</ele>
        <time>2016-10-09T14:16:28Z</time>
      </trkpt>
      <trkpt lat="43.6246" lon="7.01696">
        <ele>210.06</ele>
        <time>2016-10-09T14:16:32Z</time>
      </trkpt>
      <trkpt lat="43.62447" lon="7.0167">
        <ele>210.79</ele>
        <time>2016-10-09T14:16:35Z</time>
      </trkpt>
      <trkpt lat="43.62444" lon="7.01644">
        <ele>204.09</ele>
        <time>2016-10-09T14:16:39Z</time>
      </trkpt>
      <trkpt lat="43.62443" lon="7.01617">
        <ele>198.86</ele>
        <time>2016-10-09T14:16:43Z</time>
      </trkpt>
      <trkpt lat="43.62431" lon="7.01598">
        <ele>196.36</ele>
        <time>2016-10-09T14:16:49Z</time>
      </trkpt>
      <trkpt lat="43.62428" lon="7.01573">
        <ele>193.55</ele>
        <time>2016-10-09T14:17:52Z</time>
      </trkpt>
      <trkpt lat="43.6241" lon="7.01562">
        <ele>196.39</ele>
        <time>2016-10-09T14:18:09Z</time>
      </trkpt>
      <trkpt lat="43.62388" lon="7.01563">
        <ele>199.81</ele>
        <time>2016-10-09T14:18:14Z</time>
      </trkpt>
      <trkpt lat="43.62367" lon="7.01552">
        <ele>202.48</ele>
        <time>2016-10-09T14:18:19Z</time>
      </trkpt>
      <trkpt lat="43.62352" lon="7.01534">
        <ele>202.13</ele>
        <time>2016-10-09T14:18:23Z</time>
      </trkpt>
      <trkpt lat="43.62333" lon="7.01543">
        <ele>203.11</ele>
        <time>2016-10-09T14:18:28Z</time>
      </trkpt>
      <trkpt lat="43.62328" lon="7.01571">
        <ele>202.3</ele>
        <time>2016-10-09T14:18:32Z</time>
      </trkpt>
      <trkpt lat="43.62324" lon="7.01595">
        <ele>202.44</ele>
        <time>2016-10-09T14:18:35Z</time>
      </trkpt>
      <trkpt lat="43.62314" lon="7.01624">
        <ele>201.32</ele>
        <time>2016-10-09T14:18:39Z</time>
      </trkpt>
      <trkpt lat="43.62305" lon="7.01651">
        <ele>201.18</ele>
        <time>2016-10-09T14:18:43Z</time>
      </trkpt>
      <trkpt lat="43.62296" lon="7.0168">
        <ele>200.49</ele>
        <time>2016-10-09T14:18:47Z</time>
      </trkpt>
      <trkpt lat="43.62284" lon="7.01706">
        <ele>199.57</ele>
        <time>2016-10-09T14:18:51Z</time>
      </trkpt>
      <trkpt lat="43.62273" lon="7.01727">
        <ele>204.86</ele>
        <time>2016-10-09T14:25:58Z</time>
      </trkpt>
      <trkpt lat="43.62272" lon="7.01754">
        <ele>202.43</ele>
        <time>2016-10-09T14:26:43Z</time>
      </trkpt>
      <trkpt lat="43.62265" lon="7.01781">
        <ele>195.4</ele>
        <time>2016-10-09T14:26:48Z</time>
      </trkpt>
      <trkpt lat="43.62264" lon="7.01811">
        <ele>195.95</ele>
        <time>2016-10-09T14:26:51Z</time>
      </trkpt>
      <trkpt lat="43.62261" lon="7.01842">
        <ele>196.52</ele>
        <time>2016-10-09T14:26:54Z</time>
      </trkpt>
      <trkpt lat="43.62252" lon="7.01872">
        <ele>191.84</ele>
        <time>2016-10-09T14:26:57Z</time>
      </trkpt>
      <trkpt lat="43.62244" lon="7.01897">
        <ele>190.84</ele>
        <time>2016-10-09T14:26:59Z</time>
      </trkpt>
      <trkpt lat="43.62229" lon="7.01926">
        <ele>190.01</ele>
        <time>2016-10-09T14:27:02Z</time>
      </trkpt>
      <trkpt lat="43.62211" lon="7.01949">
        <ele>190.53</ele>
        <time>2016-10-09T14:27:05Z</time>
      </trkpt>
      <trkpt lat="43.62197" lon="7.01967">
        <ele>190.85</ele>
        <time>2016-10-09T14:27:08Z</time>
      </trkpt>
      <trkpt lat="43.62182" lon="7.01986">
        <ele>192.84</ele>
        <time>2016-10-09T14:27:12Z</time>
      </trkpt>
      <trkpt lat="43.62172" lon="7.02008">
        <ele>192.59</ele>
        <time>2016-10-09T14:27:14Z</time>
      </trkpt>
      <trkpt lat="43.62165" lon="7.02038">
        <ele>192.2</ele>
        <time>2016-10-09T14:27:18Z</time>
      </trkpt>
      <trkpt lat="43.6216" lon="7.02063">
        <ele>190.99</ele>
        <time>2016-10-09T14:27:22Z</time>
      </trkpt>
      <trkpt lat="43.62158" lon="7.0209">
        <ele>190.98</ele>
        <time>2016-10-09T14:27:26Z</time>
      </trkpt>
      <trkpt lat="43.62159" lon="7.0212">
        <ele>184.66</ele>
        <time>2016-10-09T14:27:30Z</time>
      </trkpt>
      <trkpt lat="43.62163" lon="7.02145">
        <ele>178.49</ele>
        <time>2016-10-09T14:27:33Z</time>
      </trkpt>
      <trkpt lat="43.62166" lon="7.0218">
        <ele>176.09</ele>
        <time>2016-10-09T14:27:36Z</time>
      </trkpt>
      <trkpt lat="43.62166" lon="7.02212">
        <ele>173.17</ele>
        <time>2016-10-09T14:27:39Z</time>
      </trkpt>
      <trkpt lat="43.62165" lon="7.02242">
        <ele>172.05</ele>
        <time>2016-10-09T14:27:42Z</time>
      </trkpt>
      <trkpt lat="43.62163" lon="7.02268">
        <ele>169.91</ele>
        <time>2016-10-09T14:27:45Z</time>
      </trkpt>
      <trkpt lat="43.62164" lon="7.02295">
        <ele>169.14</ele>
        <time>2016-10-09T14:27:48Z</time>
      </trkpt>
      <trkpt lat="43.62162" lon="7.02321">
        <ele>168.96</ele>
        <time>2016-10-09T14:27:53Z</time>
      </trkpt>
      <trkpt lat="43.62168" lon="7.02353">
        <ele>170.8</ele>
        <time>2016-10-09T14:28:30Z</time>
      </trkpt>
      <trkpt lat="43.62166" lon="7.0238">
        <ele>171.13</ele>
        <time>2016-10-09T14:28:33Z</time>
      </trkpt>
      <trkpt lat="43.62167" lon="7.02415">
        <ele>170.92</ele>
        <time>2016-10-09T14:28:36Z</time>
      </trkpt>
      <trkpt lat="43.6217" lon="7.02446">
        <ele>170.14</ele>
        <time>2016-10-09T14:28:39Z</time>
      </trkpt>
      <trkpt lat="43.62174" lon="7.02477">
        <ele>169.92</ele>
        <time>2016-10-09T14:28:42Z</time>
      </trkpt>
      <trkpt lat="43.62172" lon="7.02503">
        <ele>169.61</ele>
        <time>2016-10-09T14:28:44Z</time>
      </trkpt>
      <trkpt lat="43.62169" lon="7.02528">
        <ele>170.29</ele>
        <time>2016-10-09T14:28:46Z</time>
      </trkpt>
      <trkpt lat="43.62164" lon="7.02557">
        <ele>173.7</ele>
        <time>2016-10-09T14:28:48Z</time>
      </trkpt>
      <trkpt lat="43.62159" lon="7.02582">
        <ele>174.81</ele>
        <time>2016-10-09T14:28:50Z</time>
      </trkpt>
      <trkpt lat="43.62149" lon="7.02603">
        <ele>175.08</ele>
        <time>2016-10-09T14:28:52Z</time>
      </trkpt>
      <trkpt lat="43.62135" lon="7.02628">
        <ele>173.54</ele>
        <time>2016-10-09T14:28:55Z</time>
      </trkpt>
      <trkpt lat="43.62128" lon="7.02652">
        <ele>172.52</ele>
        <time>2016-10-09T14:28:57Z</time>
      </trkpt>
      <trkpt lat="43.62116" lon="7.02673">
        <ele>174.22</ele>
        <time>2016-10-09T14:29:00Z</time>
      </trkpt>
      <trkpt lat="43.62103" lon="7.02705">
        <ele>175.68</ele>
        <time>2016-10-09T14:29:03Z</time>
      </trkpt>
      <trkpt lat="43.6209" lon="7.02729">
        <ele>175.33</ele>
        <time>2016-10-09T14:29:07Z</time>
      </trkpt>
      <trkpt lat="43.62082" lon="7.02753">
        <ele>175.45</ele>
        <time>2016-10-09T14:29:10Z</time>
      </trkpt>
      <trkpt lat="43.62072" lon="7.0278">
        <ele>176.13</ele>
        <time>2016-10-09T14:29:14Z</time>
      </trkpt>
      <trkpt lat="43.62058" lon="7.0281">
        <ele>175.67</ele>
        <time>2016-10-09T14:29:18Z</time>
      </trkpt>
      <trkpt lat="43.62047" lon="7.02836">
        <ele>173.61</ele>
        <time>2016-10-09T14:29:21Z</time>
      </trkpt>
      <trkpt lat="43.62035" lon="7.0286">
        <ele>174.36</ele>
        <time>2016-10-09T14:29:24Z</time>
      </trkpt>
      <trkpt lat="43.6202" lon="7.02888">
        <ele>172.25</ele>
        <time>2016-10-09T14:29:28Z</time>
      </trkpt>
      <trkpt lat="43.62012" lon="7.02913">
        <ele>172.19</ele>
        <time>2016-10-09T14:29:30Z</time>
      </trkpt>
      <trkpt lat="43.62003" lon="7.02943">
        <ele>168.36</ele>
        <time>2016-10-09T14:29:34Z</time>
      </trkpt>
      <trkpt lat="43.61991" lon="7.02973">
        <ele>165.95</ele>
        <time>2016-10-09T14:29:37Z</time>
      </trkpt>
      <trkpt lat="43.61981" lon="7.03001">
        <ele>163.15</ele>
        <time>2016-10-09T14:29:40Z</time>
      </trkpt>
      <trkpt lat="43.61972" lon="7.03031">
        <ele>161.55</ele>
        <time>2016-10-09T14:29:43Z</time>
      </trkpt>
      <trkpt lat="43.61962" lon="7.03057">
        <ele>159.6</ele>
        <time>2016-10-09T14:29:46Z</time>
      </trkpt>
      <trkpt lat="43.61951" lon="7.03084">
        <ele>159.98</ele>
        <time>2016-10-09T14:29:49Z</time>
      </trkpt>
      <trkpt lat="43.61937" lon="7.03109">
        <ele>159.4</ele>
        <time>2016-10-09T14:29:52Z</time>
      </trkpt>
      <trkpt lat="43.61922" lon="7.03133">
        <ele>161.08</ele>
        <time>2016-10-09T14:29:55Z</time>
      </trkpt>
      <trkpt lat="43.61911" lon="7.03159">
        <ele>159.65</ele>
        <time>2016-10-09T14:29:57Z</time>
      </trkpt>
      <trkpt lat="43.61897" lon="7.03185">
        <ele>157.49</ele>
        <time>2016-10-09T14:30:00Z</time>
      </trkpt>
      <trkpt lat="43.61883" lon="7.03215">
        <ele>152.96</ele>
        <time>2016-10-09T14:30:03Z</time>
      </trkpt>
      <trkpt lat="43.61871" lon="7.03242">
        <ele>151.27</ele>
        <time>2016-10-09T14:30:06Z</time>
      </trkpt>
      <trkpt lat="43.61859" lon="7.03271">
        <ele>148.81</ele>
        <time>2016-10-09T14:30:09Z</time>
      </trkpt>
      <trkpt lat="43.6185" lon="7.03303">
        <ele>147.51</ele>
        <time>2016-10-09T14:30:12Z</time>
      </trkpt>
      <trkpt lat="43.61846" lon="7.03328">
        <ele>147.26</ele>
        <time>2016-10-09T14:30:14Z</time>
      </trkpt>
      <trkpt lat="43.61841" lon="7.03361">
        <ele>145.06</ele>
        <time>2016-10-09T14:30:17Z</time>
      </trkpt>
      <trkpt lat="43.61836" lon="7.03389">
        <ele>151.65</ele>
        <time>2016-10-09T14:30:19Z</time>
      </trkpt>
      <trkpt lat="43.61831" lon="7.03413">
        <ele>154.04</ele>
        <time>2016-10-09T14:30:21Z</time>
      </trkpt>
      <trkpt lat="43.61825" lon="7.03438">
        <ele>152.89</ele>
        <time>2016-10-09T14:30:23Z</time>
      </trkpt>
      <trkpt lat="43.61815" lon="7.03472">
        <ele>148.02</ele>
        <time>2016-10-09T14:30:26Z</time>
      </trkpt>
      <trkpt lat="43.61802" lon="7.03504">
        <ele>146.03</ele>
        <time>2016-10-09T14:30:29Z</time>
      </trkpt>
      <trkpt lat="43.61788" lon="7.03533">
        <ele>143.91</ele>
        <time>2016-10-09T14:30:32Z</time>
      </trkpt>
      <trkpt lat="43.61779" lon="7.03554">
        <ele>143.36</ele>
        <time>2016-10-09T14:30:34Z</time>
      </trkpt>
      <trkpt lat="43.61767" lon="7.03583">
        <ele>142.95</ele>
        <time>2016-10-09T14:30:37Z</time>
      </trkpt>
      <trkpt lat="43.61758" lon="7.03611">
        <ele>143.52</ele>
        <time>2016-10-09T14:30:40Z</time>
      </trkpt>
      <trkpt lat="43.61748" lon="7.03639">
        <ele>144.09</ele>
        <time>2016-10-09T14:30:43Z</time>
      </trkpt>
      <trkpt lat="43.61737" lon="7.03668">
        <ele>144.17</ele>
        <time>2016-10-09T14:30:46Z</time>
      </trkpt>
      <trkpt lat="43.61726" lon="7.03694">
        <ele>144.17</ele>
        <time>2016-10-09T14:30:49Z</time>
      </trkpt>
      <trkpt lat="43.61716" lon="7.03717">
        <ele>141.55</ele>
        <time>2016-10-09T14:30:52Z</time>
      </trkpt>
      <trkpt lat="43.61698" lon="7.03728">
        <ele>141.1</ele>
        <time>2016-10-09T14:30:55Z</time>
      </trkpt>
      <trkpt lat="43.61677" lon="7.03731">
        <ele>139.29</ele>
        <time>2016-10-09T14:30:58Z</time>
      </trkpt>
      <trkpt lat="43.61659" lon="7.03719">
        <ele>139.94</ele>
        <time>2016-10-09T14:31:01Z</time>
      </trkpt>
      <trkpt lat="43.61641" lon="7.03697">
        <ele>139.22</ele>
        <time>2016-10-09T14:31:05Z</time>
      </trkpt>
      <trkpt lat="43.61631" lon="7.03675">
        <ele>139.93</ele>
        <time>2016-10-09T14:31:08Z</time>
      </trkpt>
      <trkpt lat="43.61614" lon="7.03654">
        <ele>140.66</ele>
        <time>2016-10-09T14:31:12Z</time>
      </trkpt>
      <trkpt lat="43.61597" lon="7.03632">
        <ele>142.58</ele>
        <time>2016-10-09T14:31:16Z</time>
      </trkpt>
      <trkpt lat="43.61587" lon="7.03611">
        <ele>144.78</ele>
        <time>2016-10-09T14:31:19Z</time>
      </trkpt>
      <trkpt lat="43.61572" lon="7.03586">
        <ele>146.84</ele>
        <time>2016-10-09T14:31:23Z</time>
      </trkpt>
      <trkpt lat="43.61558" lon="7.03567">
        <ele>149.01</ele>
        <time>2016-10-09T14:31:26Z</time>
      </trkpt>
      <trkpt lat="43.61546" lon="7.03547">
        <ele>151.66</ele>
        <time>2016-10-09T14:31:29Z</time>
      </trkpt>
      <trkpt lat="43.61535" lon="7.03524">
        <ele>151.86</ele>
        <time>2016-10-09T14:31:32Z</time>
      </trkpt>
      <trkpt lat="43.61519" lon="7.03501">
        <ele>153.66</ele>
        <time>2016-10-09T14:31:36Z</time>
      </trkpt>
      <trkpt lat="43.6151" lon="7.03478">
        <ele>154.49</ele>
        <time>2016-10-09T14:31:39Z</time>
      </trkpt>
      <trkpt lat="43.615" lon="7.03454">
        <ele>155.09</ele>
        <time>2016-10-09T14:31:42Z</time>
      </trkpt>
      <trkpt lat="43.61488" lon="7.03434">
        <ele>155.17</ele>
        <time>2016-10-09T14:31:45Z</time>
      </trkpt>
      <trkpt lat="43.61477" lon="7.03415">
        <ele>158.8</ele>
        <time>2016-10-09T14:31:48Z</time>
      </trkpt>
      <trkpt lat="43.61461" lon="7.03391">
        <ele>160.96</ele>
        <time>2016-10-09T14:31:52Z</time>
      </trkpt>
      <trkpt lat="43.61446" lon="7.0337">
        <ele>161.91</ele>
        <time>2016-10-09T14:31:56Z</time>
      </trkpt>
      <trkpt lat="43.61427" lon="7.03349">
        <ele>163.1</ele>
        <time>2016-10-09T14:32:00Z</time>
      </trkpt>
      <trkpt lat="43.61415" lon="7.03326">
        <ele>164.05</ele>
        <time>2016-10-09T14:32:04Z</time>
      </trkpt>
      <trkpt lat="43.61399" lon="7.03304">
        <ele>165.54</ele>
        <time>2016-10-09T14:32:08Z</time>
      </trkpt>
      <trkpt lat="43.61383" lon="7.03281">
        <ele>166.39</ele>
        <time>2016-10-09T14:32:12Z</time>
      </trkpt>
      <trkpt lat="43.6137" lon="7.03251">
        <ele>167.13</ele>
        <time>2016-10-09T14:32:16Z</time>
      </trkpt>
      <trkpt lat="43.61361" lon="7.03227">
        <ele>169.79</ele>
        <time>2016-10-09T14:32:19Z</time>
      </trkpt>
      <trkpt lat="43.61353" lon="7.03202">
        <ele>172.63</ele>
        <time>2016-10-09T14:32:22Z</time>
      </trkpt>
      <trkpt lat="43.61347" lon="7.03177">
        <ele>171.73</ele>
        <time>2016-10-09T14:32:25Z</time>
      </trkpt>
      <trkpt lat="43.61343" lon="7.03148">
        <ele>172.87</ele>
        <time>2016-10-09T14:32:28Z</time>
      </trkpt>
      <trkpt lat="43.61339" lon="7.0312">
        <ele>173.89</ele>
        <time>2016-10-09T14:32:31Z</time>
      </trkpt>
      <trkpt lat="43.61337" lon="7.0309">
        <ele>172.89</ele>
        <time>2016-10-09T14:32:34Z</time>
      </trkpt>
      <trkpt lat="43.61335" lon="7.03059">
        <ele>172.39</ele>
        <time>2016-10-09T14:32:37Z</time>
      </trkpt>
      <trkpt lat="43.61331" lon="7.03026">
        <ele>173.7</ele>
        <time>2016-10-09T14:32:40Z</time>
      </trkpt>
      <trkpt lat="43.61328" lon="7.02996">
        <ele>173.62</ele>
        <time>2016-10-09T14:32:43Z</time>
      </trkpt>
      <trkpt lat="43.61323" lon="7.02967">
        <ele>172.48</ele>
        <time>2016-10-09T14:32:46Z</time>
      </trkpt>
      <trkpt lat="43.61318" lon="7.02938">
        <ele>173.84</ele>
        <time>2016-10-09T14:32:49Z</time>
      </trkpt>
      <trkpt lat="43.61313" lon="7.0291">
        <ele>174.13</ele>
        <time>2016-10-09T14:32:52Z</time>
      </trkpt>
      <trkpt lat="43.61307" lon="7.02882">
        <ele>174.17</ele>
        <time>2016-10-09T14:32:55Z</time>
      </trkpt>
      <trkpt lat="43.613" lon="7.02854">
        <ele>174.05</ele>
        <time>2016-10-09T14:32:58Z</time>
      </trkpt>
      <trkpt lat="43.61295" lon="7.02827">
        <ele>174.04</ele>
        <time>2016-10-09T14:33:01Z</time>
      </trkpt>
      <trkpt lat="43.61288" lon="7.02803">
        <ele>174.66</ele>
        <time>2016-10-09T14:33:04Z</time>
      </trkpt>
      <trkpt lat="43.61279" lon="7.02779">
        <ele>177.61</ele>
        <time>2016-10-09T14:33:07Z</time>
      </trkpt>
      <trkpt lat="43.61273" lon="7.02752">
        <ele>179.23</ele>
        <time>2016-10-09T14:33:10Z</time>
      </trkpt>
      <trkpt lat="43.61264" lon="7.02722">
        <ele>180.05</ele>
        <time>2016-10-09T14:33:14Z</time>
      </trkpt>
      <trkpt lat="43.61258" lon="7.02693">
        <ele>180.54</ele>
        <time>2016-10-09T14:33:18Z</time>
      </trkpt>
      <trkpt lat="43.61251" lon="7.02664">
        <ele>181.82</ele>
        <time>2016-10-09T14:33:22Z</time>
      </trkpt>
      <trkpt lat="43.61246" lon="7.02635">
        <ele>182.65</ele>
        <time>2016-10-09T14:33:26Z</time>
      </trkpt>
      <trkpt lat="43.6124" lon="7.02608">
        <ele>183.39</ele>
        <time>2016-10-09T14:33:30Z</time>
      </trkpt>
      <trkpt lat="43.61233" lon="7.0258">
        <ele>185.56</ele>
        <time>2016-10-09T14:33:34Z</time>
      </trkpt>
      <trkpt lat="43.61229" lon="7.02555">
        <ele>183.81</ele>
        <time>2016-10-09T14:33:39Z</time>
      </trkpt>
      <trkpt lat="43.61231" lon="7.02583">
        <ele>186.29</ele>
        <time>2016-10-09T14:34:29Z</time>
      </trkpt>
      <trkpt lat="43.6124" lon="7.02609">
        <ele>184.71</ele>
        <time>2016-10-09T14:34:34Z</time>
      </trkpt>
      <trkpt lat="43.61244" lon="7.02633">
        <ele>184.99</ele>
        <time>2016-10-09T14:34:37Z</time>
      </trkpt>
      <trkpt lat="43.6125" lon="7.02658">
        <ele>184.28</ele>
        <time>2016-10-09T14:34:40Z</time>
      </trkpt>
      <trkpt lat="43.61257" lon="7.02688">
        <ele>184.19</ele>
        <time>2016-10-09T14:34:43Z</time>
      </trkpt>
      <trkpt lat="43.61265" lon="7.0272">
        <ele>183.68</ele>
        <time>2016-10-09T14:34:46Z</time>
      </trkpt>
      <trkpt lat="43.61271" lon="7.02745">
        <ele>183.21</ele>
        <time>2016-10-09T14:34:50Z</time>
      </trkpt>
      <trkpt lat="43.61278" lon="7.0272">
        <ele>178</ele>
        <time>2016-10-09T14:35:42Z</time>
      </trkpt>
      <trkpt lat="43.61272" lon="7.02691">
        <ele>177.42</ele>
        <time>2016-10-09T14:35:49Z</time>
      </trkpt>
      <trkpt lat="43.61268" lon="7.02666">
        <ele>177.21</ele>
        <time>2016-10-09T14:35:52Z</time>
      </trkpt>
      <trkpt lat="43.61265" lon="7.02635">
        <ele>177.55</ele>
        <time>2016-10-09T14:35:57Z</time>
      </trkpt>
      <trkpt lat="43.61271" lon="7.02607">
        <ele>178.97</ele>
        <time>2016-10-09T14:36:02Z</time>
      </trkpt>
      <trkpt lat="43.61289" lon="7.02611">
        <ele>181.39</ele>
        <time>2016-10-09T14:36:08Z</time>
      </trkpt>
      <trkpt lat="43.61307" lon="7.02619">
        <ele>180.33</ele>
        <time>2016-10-09T14:36:11Z</time>
      </trkpt>
      <trkpt lat="43.61326" lon="7.02616">
        <ele>179.69</ele>
        <time>2016-10-09T14:36:15Z</time>
      </trkpt>
      <trkpt lat="43.6134" lon="7.02594">
        <ele>179.83</ele>
        <time>2016-10-09T14:36:19Z</time>
      </trkpt>
      <trkpt lat="43.61354" lon="7.02575">
        <ele>178.65</ele>
        <time>2016-10-09T14:36:23Z</time>
      </trkpt>
      <trkpt lat="43.61371" lon="7.02564">
        <ele>178.21</ele>
        <time>2016-10-09T14:36:27Z</time>
      </trkpt>
      <trkpt lat="43.61387" lon="7.02549">
        <ele>179.86</ele>
        <time>2016-10-09T14:36:32Z</time>
      </trkpt>
      <trkpt lat="43.6141" lon="7.02558">
        <ele>182.48</ele>
        <time>2016-10-09T14:36:41Z</time>
      </trkpt>
      <trkpt lat="43.61428" lon="7.02561">
        <ele>184.76</ele>
        <time>2016-10-09T14:36:45Z</time>
      </trkpt>
      <trkpt lat="43.61447" lon="7.02563">
        <ele>186.32</ele>
        <time>2016-10-09T14:36:50Z</time>
      </trkpt>
      <trkpt lat="43.61457" lon="7.02542">
        <ele>186.21</ele>
        <time>2016-10-09T14:36:57Z</time>
      </trkpt>
      <trkpt lat="43.61457" lon="7.02514">
        <ele>191.58</ele>
        <time>2016-10-09T14:37:02Z</time>
      </trkpt>
      <trkpt lat="43.6145" lon="7.02486">
        <ele>197.47</ele>
        <time>2016-10-09T14:37:07Z</time>
      </trkpt>
      <trkpt lat="43.61439" lon="7.02465">
        <ele>199.38</ele>
        <time>2016-10-09T14:37:11Z</time>
      </trkpt>
      <trkpt lat="43.61432" lon="7.02441">
        <ele>205.21</ele>
        <time>2016-10-09T14:37:16Z</time>
      </trkpt>
      <trkpt lat="43.61426" lon="7.02417">
        <ele>204.62</ele>
        <time>2016-10-09T14:37:20Z</time>
      </trkpt>
      <trkpt lat="43.61422" lon="7.02386">
        <ele>208.95</ele>
        <time>2016-10-09T14:37:24Z</time>
      </trkpt>
      <trkpt lat="43.61416" lon="7.02359">
        <ele>212.79</ele>
        <time>2016-10-09T14:37:28Z</time>
      </trkpt>
      <trkpt lat="43.61405" lon="7.02332">
        <ele>215.84</ele>
        <time>2016-10-09T14:37:32Z</time>
      </trkpt>
      <trkpt lat="43.6139" lon="7.02308">
        <ele>214.59</ele>
        <time>2016-10-09T14:37:36Z</time>
      </trkpt>
      <trkpt lat="43.61378" lon="7.02287">
        <ele>217.6</ele>
        <time>2016-10-09T14:37:39Z</time>
      </trkpt>
      <trkpt lat="43.61366" lon="7.02265">
        <ele>220.39</ele>
        <time>2016-10-09T14:37:43Z</time>
      </trkpt>
      <trkpt lat="43.61351" lon="7.0225">
        <ele>213.87</ele>
        <time>2016-10-09T14:37:50Z</time>
      </trkpt>
      <trkpt lat="43.61335" lon="7.02232">
        <ele>211.21</ele>
        <time>2016-10-09T14:37:57Z</time>
      </trkpt>
      <trkpt lat="43.61325" lon="7.02211">
        <ele>211.3</ele>
        <time>2016-10-09T14:38:03Z</time>
      </trkpt>
      <trkpt lat="43.61314" lon="7.02188">
        <ele>210.52</ele>
        <time>2016-10-09T14:38:08Z</time>
      </trkpt>
      <trkpt lat="43.61305" lon="7.02161">
        <ele>213.7</ele>
        <time>2016-10-09T14:38:12Z</time>
      </trkpt>
      <trkpt lat="43.61303" lon="7.02136">
        <ele>212.83</ele>
        <time>2016-10-09T14:38:29Z</time>
      </trkpt>
      <trkpt lat="43.61309" lon="7.02165">
        <ele>221.31</ele>
        <time>2016-10-09T14:38:57Z</time>
      </trkpt>
      <trkpt lat="43.61314" lon="7.02189">
        <ele>220.77</ele>
        <time>2016-10-09T14:39:02Z</time>
      </trkpt>
      <trkpt lat="43.61323" lon="7.02215">
        <ele>216.52</ele>
        <time>2016-10-09T14:39:09Z</time>
      </trkpt>
      <trkpt lat="43.61332" lon="7.02239">
        <ele>202.92</ele>
        <time>2016-10-09T14:39:16Z</time>
      </trkpt>
      <trkpt lat="43.6135" lon="7.02251">
        <ele>207.71</ele>
        <time>2016-10-09T14:39:29Z</time>
      </trkpt>
      <trkpt lat="43.61365" lon="7.02273">
        <ele>206.04</ele>
        <time>2016-10-09T14:39:35Z</time>
      </trkpt>
      <trkpt lat="43.61378" lon="7.02294">
        <ele>201.52</ele>
        <time>2016-10-09T14:39:41Z</time>
      </trkpt>
      <trkpt lat="43.6137" lon="7.02318">
        <ele>202.19</ele>
        <time>2016-10-09T14:39:54Z</time>
      </trkpt>
      <trkpt lat="43.61352" lon="7.02307">
        <ele>203.05</ele>
        <time>2016-10-09T14:39:59Z</time>
      </trkpt>
      <trkpt lat="43.61333" lon="7.02316">
        <ele>204.61</ele>
        <time>2016-10-09T14:40:04Z</time>
      </trkpt>
      <trkpt lat="43.61314" lon="7.02322">
        <ele>202.51</ele>
        <time>2016-10-09T14:40:10Z</time>
      </trkpt>
      <trkpt lat="43.61297" lon="7.02333">
        <ele>205.68</ele>
        <time>2016-10-09T14:41:59Z</time>
      </trkpt>
      <trkpt lat="43.61279" lon="7.02347">
        <ele>202.28</ele>
        <time>2016-10-09T14:44:00Z</time>
      </trkpt>
      <trkpt lat="43.61264" lon="7.02363">
        <ele>198.62</ele>
        <time>2016-10-09T14:44:07Z</time>
      </trkpt>
      <trkpt lat="43.61245" lon="7.02378">
        <ele>195.42</ele>
        <time>2016-10-09T14:44:15Z</time>
      </trkpt>
      <trkpt lat="43.61228" lon="7.02389">
        <ele>195.15</ele>
        <time>2016-10-09T14:44:20Z</time>
      </trkpt>
      <trkpt lat="43.6122" lon="7.02411">
        <ele>193.88</ele>
        <time>2016-10-09T14:44:29Z</time>
      </trkpt>
      <trkpt lat="43.61204" lon="7.02423">
        <ele>193.67</ele>
        <time>2016-10-09T14:44:35Z</time>
      </trkpt>
      <trkpt lat="43.61186" lon="7.02434">
        <ele>194.08</ele>
        <time>2016-10-09T14:44:39Z</time>
      </trkpt>
      <trkpt lat="43.61175" lon="7.02456">
        <ele>198.26</ele>
        <time>2016-10-09T14:44:47Z</time>
      </trkpt>
      <trkpt lat="43.61179" lon="7.02482">
        <ele>192.8</ele>
        <time>2016-10-09T14:45:32Z</time>
      </trkpt>
      <trkpt lat="43.6119" lon="7.02513">
        <ele>190.79</ele>
        <time>2016-10-09T14:45:37Z</time>
      </trkpt>
      <trkpt lat="43.61195" lon="7.02544">
        <ele>193.09</ele>
        <time>2016-10-09T14:45:41Z</time>
      </trkpt>
      <trkpt lat="43.61199" lon="7.02572">
        <ele>194.86</ele>
        <time>2016-10-09T14:45:45Z</time>
      </trkpt>
      <trkpt lat="43.61198" lon="7.02598">
        <ele>192.04</ele>
        <time>2016-10-09T14:45:50Z</time>
      </trkpt>
      <trkpt lat="43.61192" lon="7.02623">
        <ele>185.41</ele>
        <time>2016-10-09T14:45:56Z</time>
      </trkpt>
      <trkpt lat="43.61185" lon="7.0265">
        <ele>183</ele>
        <time>2016-10-09T14:46:00Z</time>
      </trkpt>
      <trkpt lat="43.61177" lon="7.02674">
        <ele>185.78</ele>
        <time>2016-10-09T14:46:03Z</time>
      </trkpt>
      <trkpt lat="43.61169" lon="7.02697">
        <ele>188.13</ele>
        <time>2016-10-09T14:46:06Z</time>
      </trkpt>
      <trkpt lat="43.61152" lon="7.02709">
        <ele>189.92</ele>
        <time>2016-10-09T14:46:10Z</time>
      </trkpt>
      <trkpt lat="43.61134" lon="7.02717">
        <ele>195.16</ele>
        <time>2016-10-09T14:46:14Z</time>
      </trkpt>
      <trkpt lat="43.61119" lon="7.02731">
        <ele>196.99</ele>
        <time>2016-10-09T14:46:18Z</time>
      </trkpt>
      <trkpt lat="43.61125" lon="7.0276">
        <ele>193.6</ele>
        <time>2016-10-09T14:46:22Z</time>
      </trkpt>
      <trkpt lat="43.61132" lon="7.02795">
        <ele>192.48</ele>
        <time>2016-10-09T14:46:25Z</time>
      </trkpt>
      <trkpt lat="43.61137" lon="7.02825">
        <ele>193.84</ele>
        <time>2016-10-09T14:46:28Z</time>
      </trkpt>
      <trkpt lat="43.61143" lon="7.02851">
        <ele>194.88</ele>
        <time>2016-10-09T14:46:31Z</time>
      </trkpt>
      <trkpt lat="43.61124" lon="7.02859">
        <ele>186.8</ele>
        <time>2016-10-09T14:47:07Z</time>
      </trkpt>
      <trkpt lat="43.61108" lon="7.02842">
        <ele>183.59</ele>
        <time>2016-10-09T14:47:11Z</time>
      </trkpt>
      <trkpt lat="43.6109" lon="7.02828">
        <ele>182.6</ele>
        <time>2016-10-09T14:47:14Z</time>
      </trkpt>
      <trkpt lat="43.61071" lon="7.02825">
        <ele>182.6</ele>
        <time>2016-10-09T14:47:17Z</time>
      </trkpt>
      <trkpt lat="43.61051" lon="7.02833">
        <ele>186.68</ele>
        <time>2016-10-09T14:47:23Z</time>
      </trkpt>
      <trkpt lat="43.61034" lon="7.02841">
        <ele>190.05</ele>
        <time>2016-10-09T14:47:33Z</time>
      </trkpt>
      <trkpt lat="43.61014" lon="7.02846">
        <ele>186.19</ele>
        <time>2016-10-09T14:47:49Z</time>
      </trkpt>
      <trkpt lat="43.60995" lon="7.02851">
        <ele>182.08</ele>
        <time>2016-10-09T14:47:54Z</time>
      </trkpt>
      <trkpt lat="43.60972" lon="7.02852">
        <ele>178.11</ele>
        <time>2016-10-09T14:47:58Z</time>
      </trkpt>
      <trkpt lat="43.60954" lon="7.02846">
        <ele>178.14</ele>
        <time>2016-10-09T14:48:04Z</time>
      </trkpt>
      <trkpt lat="43.60938" lon="7.02831">
        <ele>173.3</ele>
        <time>2016-10-09T14:48:36Z</time>
      </trkpt>
      <trkpt lat="43.60919" lon="7.02817">
        <ele>177.94</ele>
        <time>2016-10-09T14:48:39Z</time>
      </trkpt>
      <trkpt lat="43.609" lon="7.02807">
        <ele>179.97</ele>
        <time>2016-10-09T14:48:43Z</time>
      </trkpt>
      <trkpt lat="43.60883" lon="7.02797">
        <ele>180.73</ele>
        <time>2016-10-09T14:48:47Z</time>
      </trkpt>
      <trkpt lat="43.60866" lon="7.02785">
        <ele>172.52</ele>
        <time>2016-10-09T14:48:56Z</time>
      </trkpt>
      <trkpt lat="43.60851" lon="7.02768">
        <ele>166.87</ele>
        <time>2016-10-09T14:49:03Z</time>
      </trkpt>
      <trkpt lat="43.60833" lon="7.02767">
        <ele>163.11</ele>
        <time>2016-10-09T14:49:18Z</time>
      </trkpt>
      <trkpt lat="43.60814" lon="7.02759">
        <ele>161.43</ele>
        <time>2016-10-09T14:49:40Z</time>
      </trkpt>
      <trkpt lat="43.60796" lon="7.0275">
        <ele>160.83</ele>
        <time>2016-10-09T14:49:43Z</time>
      </trkpt>
      <trkpt lat="43.60778" lon="7.0274">
        <ele>162.01</ele>
        <time>2016-10-09T14:49:46Z</time>
      </trkpt>
      <trkpt lat="43.6076" lon="7.02731">
        <ele>162.1</ele>
        <time>2016-10-09T14:49:50Z</time>
      </trkpt>
      <trkpt lat="43.60743" lon="7.02721">
        <ele>160.98</ele>
        <time>2016-10-09T14:49:54Z</time>
      </trkpt>
      <trkpt lat="43.60723" lon="7.02712">
        <ele>157.17</ele>
        <time>2016-10-09T14:49:59Z</time>
      </trkpt>
      <trkpt lat="43.60704" lon="7.02701">
        <ele>154.68</ele>
        <time>2016-10-09T14:50:03Z</time>
      </trkpt>
      <trkpt lat="43.60685" lon="7.02689">
        <ele>156.11</ele>
        <time>2016-10-09T14:50:09Z</time>
      </trkpt>
      <trkpt lat="43.60663" lon="7.02684">
        <ele>156.17</ele>
        <time>2016-10-09T14:50:13Z</time>
      </trkpt>
      <trkpt lat="43.60643" lon="7.02683">
        <ele>156.11</ele>
        <time>2016-10-09T14:50:17Z</time>
      </trkpt>
      <trkpt lat="43.60623" lon="7.02686">
        <ele>156.17</ele>
        <time>2016-10-09T14:50:21Z</time>
      </trkpt>
      <trkpt lat="43.60601" lon="7.02683">
        <ele>154.43</ele>
        <time>2016-10-09T14:50:25Z</time>
      </trkpt>
      <trkpt lat="43.60582" lon="7.02683">
        <ele>151.88</ele>
        <time>2016-10-09T14:50:29Z</time>
      </trkpt>
      <trkpt lat="43.60564" lon="7.02668">
        <ele>151.14</ele>
        <time>2016-10-09T14:50:34Z</time>
      </trkpt>
      <trkpt lat="43.60553" lon="7.02642">
        <ele>151.17</ele>
        <time>2016-10-09T14:50:38Z</time>
      </trkpt>
      <trkpt lat="43.60542" lon="7.02613">
        <ele>154.43</ele>
        <time>2016-10-09T14:50:42Z</time>
      </trkpt>
      <trkpt lat="43.60534" lon="7.0259">
        <ele>155.71</ele>
        <time>2016-10-09T14:50:45Z</time>
      </trkpt>
      <trkpt lat="43.60528" lon="7.02566">
        <ele>156.99</ele>
        <time>2016-10-09T14:50:48Z</time>
      </trkpt>
      <trkpt lat="43.60522" lon="7.02542">
        <ele>157.28</ele>
        <time>2016-10-09T14:50:51Z</time>
      </trkpt>
      <trkpt lat="43.60516" lon="7.02509">
        <ele>159.24</ele>
        <time>2016-10-09T14:50:55Z</time>
      </trkpt>
      <trkpt lat="43.60512" lon="7.02484">
        <ele>160.31</ele>
        <time>2016-10-09T14:50:58Z</time>
      </trkpt>
      <trkpt lat="43.60509" lon="7.02458">
        <ele>159.94</ele>
        <time>2016-10-09T14:51:01Z</time>
      </trkpt>
      <trkpt lat="43.60509" lon="7.02433">
        <ele>157.77</ele>
        <time>2016-10-09T14:51:04Z</time>
      </trkpt>
      <trkpt lat="43.60508" lon="7.02407">
        <ele>156.5</ele>
        <time>2016-10-09T14:51:07Z</time>
      </trkpt>
      <trkpt lat="43.60502" lon="7.02379">
        <ele>156.97</ele>
        <time>2016-10-09T14:51:10Z</time>
      </trkpt>
      <trkpt lat="43.60496" lon="7.02349">
        <ele>159.52</ele>
        <time>2016-10-09T14:51:13Z</time>
      </trkpt>
      <trkpt lat="43.6049" lon="7.02323">
        <ele>160.84</ele>
        <time>2016-10-09T14:51:16Z</time>
      </trkpt>
      <trkpt lat="43.60482" lon="7.02297">
        <ele>161.13</ele>
        <time>2016-10-09T14:51:19Z</time>
      </trkpt>
      <trkpt lat="43.60477" lon="7.0227">
        <ele>162.42</ele>
        <time>2016-10-09T14:51:22Z</time>
      </trkpt>
      <trkpt lat="43.6047" lon="7.02243">
        <ele>163.08</ele>
        <time>2016-10-09T14:51:25Z</time>
      </trkpt>
      <trkpt lat="43.60462" lon="7.02219">
        <ele>163.91</ele>
        <time>2016-10-09T14:51:28Z</time>
      </trkpt>
      <trkpt lat="43.60449" lon="7.02195">
        <ele>164.16</ele>
        <time>2016-10-09T14:51:32Z</time>
      </trkpt>
      <trkpt lat="43.60427" lon="7.02185">
        <ele>163.36</ele>
        <time>2016-10-09T14:51:37Z</time>
      </trkpt>
      <trkpt lat="43.60406" lon="7.02186">
        <ele>163.95</ele>
        <time>2016-10-09T14:51:40Z</time>
      </trkpt>
      <trkpt lat="43.60382" lon="7.02191">
        <ele>163.77</ele>
        <time>2016-10-09T14:51:43Z</time>
      </trkpt>
      <trkpt lat="43.60362" lon="7.02181">
        <ele>162.35</ele>
        <time>2016-10-09T14:51:48Z</time>
      </trkpt>
      <trkpt lat="43.60347" lon="7.02168">
        <ele>158.03</ele>
        <time>2016-10-09T14:51:53Z</time>
      </trkpt>
      <trkpt lat="43.60329" lon="7.02156">
        <ele>160.58</ele>
        <time>2016-10-09T14:51:58Z</time>
      </trkpt>
      <trkpt lat="43.60314" lon="7.02143">
        <ele>162.78</ele>
        <time>2016-10-09T14:52:04Z</time>
      </trkpt>
      <trkpt lat="43.60293" lon="7.02145">
        <ele>167.1</ele>
        <time>2016-10-09T14:52:11Z</time>
      </trkpt>
      <trkpt lat="43.60277" lon="7.02157">
        <ele>166.3</ele>
        <time>2016-10-09T14:52:16Z</time>
      </trkpt>
      <trkpt lat="43.60279" lon="7.02188">
        <ele>167.12</ele>
        <time>2016-10-09T14:52:21Z</time>
      </trkpt>
      <trkpt lat="43.60286" lon="7.02215">
        <ele>166.61</ele>
        <time>2016-10-09T14:52:25Z</time>
      </trkpt>
      <trkpt lat="43.6029" lon="7.02244">
        <ele>163.77</ele>
        <time>2016-10-09T14:52:29Z</time>
      </trkpt>
      <trkpt lat="43.60295" lon="7.0227">
        <ele>162.34</ele>
        <time>2016-10-09T14:52:33Z</time>
      </trkpt>
      <trkpt lat="43.603" lon="7.02295">
        <ele>163.56</ele>
        <time>2016-10-09T14:52:37Z</time>
      </trkpt>
      <trkpt lat="43.60307" lon="7.02322">
        <ele>164.91</ele>
        <time>2016-10-09T14:52:42Z</time>
      </trkpt>
      <trkpt lat="43.60312" lon="7.02353">
        <ele>164.78</ele>
        <time>2016-10-09T14:52:46Z</time>
      </trkpt>
      <trkpt lat="43.60317" lon="7.02378">
        <ele>165.13</ele>
        <time>2016-10-09T14:52:49Z</time>
      </trkpt>
      <trkpt lat="43.60323" lon="7.0241">
        <ele>164.67</ele>
        <time>2016-10-09T14:52:52Z</time>
      </trkpt>
      <trkpt lat="43.60328" lon="7.02439">
        <ele>163.36</ele>
        <time>2016-10-09T14:52:55Z</time>
      </trkpt>
      <trkpt lat="43.60334" lon="7.02467">
        <ele>160.7</ele>
        <time>2016-10-09T14:52:58Z</time>
      </trkpt>
      <trkpt lat="43.60339" lon="7.02498">
        <ele>158.87</ele>
        <time>2016-10-09T14:53:01Z</time>
      </trkpt>
      <trkpt lat="43.60341" lon="7.02529">
        <ele>157.01</ele>
        <time>2016-10-09T14:53:04Z</time>
      </trkpt>
      <trkpt lat="43.60338" lon="7.02564">
        <ele>156.16</ele>
        <time>2016-10-09T14:53:07Z</time>
      </trkpt>
      <trkpt lat="43.60329" lon="7.02597">
        <ele>157.05</ele>
        <time>2016-10-09T14:53:10Z</time>
      </trkpt>
      <trkpt lat="43.60317" lon="7.02622">
        <ele>156.29</ele>
        <time>2016-10-09T14:53:13Z</time>
      </trkpt>
      <trkpt lat="43.60298" lon="7.02648">
        <ele>157.06</ele>
        <time>2016-10-09T14:53:16Z</time>
      </trkpt>
      <trkpt lat="43.60286" lon="7.02667">
        <ele>155.65</ele>
        <time>2016-10-09T14:53:18Z</time>
      </trkpt>
      <trkpt lat="43.60271" lon="7.02682">
        <ele>154.79</ele>
        <time>2016-10-09T14:53:20Z</time>
      </trkpt>
      <trkpt lat="43.60256" lon="7.02699">
        <ele>155.08</ele>
        <time>2016-10-09T14:53:22Z</time>
      </trkpt>
      <trkpt lat="43.60236" lon="7.02722">
        <ele>154.66</ele>
        <time>2016-10-09T14:53:25Z</time>
      </trkpt>
      <trkpt lat="43.60217" lon="7.02739">
        <ele>153.99</ele>
        <time>2016-10-09T14:53:28Z</time>
      </trkpt>
      <trkpt lat="43.60197" lon="7.0276">
        <ele>154.78</ele>
        <time>2016-10-09T14:53:31Z</time>
      </trkpt>
      <trkpt lat="43.6018" lon="7.0278">
        <ele>155</ele>
        <time>2016-10-09T14:53:34Z</time>
      </trkpt>
      <trkpt lat="43.60164" lon="7.02798">
        <ele>154.4</ele>
        <time>2016-10-09T14:53:37Z</time>
      </trkpt>
      <trkpt lat="43.60147" lon="7.02816">
        <ele>153.08</ele>
        <time>2016-10-09T14:53:40Z</time>
      </trkpt>
      <trkpt lat="43.60131" lon="7.02828">
        <ele>172.92</ele>
        <time>2016-10-09T14:53:44Z</time>
      </trkpt>
      <trkpt lat="43.60125" lon="7.02854">
        <ele>162.36</ele>
        <time>2016-10-09T14:53:53Z</time>
      </trkpt>
      <trkpt lat="43.60127" lon="7.0288">
        <ele>157.69</ele>
        <time>2016-10-09T14:55:00Z</time>
      </trkpt>
      <trkpt lat="43.60119" lon="7.02903">
        <ele>165.91</ele>
        <time>2016-10-09T14:55:14Z</time>
      </trkpt>
      <trkpt lat="43.60108" lon="7.02925">
        <ele>165.11</ele>
        <time>2016-10-09T14:55:37Z</time>
      </trkpt>
      <trkpt lat="43.60093" lon="7.02943">
        <ele>162.32</ele>
        <time>2016-10-09T14:55:43Z</time>
      </trkpt>
      <trkpt lat="43.60084" lon="7.02966">
        <ele>161.36</ele>
        <time>2016-10-09T14:55:51Z</time>
      </trkpt>
      <trkpt lat="43.6008" lon="7.02994">
        <ele>162.07</ele>
        <time>2016-10-09T14:56:00Z</time>
      </trkpt>
      <trkpt lat="43.60077" lon="7.03022">
        <ele>159.56</ele>
        <time>2016-10-09T14:56:06Z</time>
      </trkpt>
      <trkpt lat="43.60077" lon="7.03051">
        <ele>159.72</ele>
        <time>2016-10-09T14:56:11Z</time>
      </trkpt>
      <trkpt lat="43.60085" lon="7.03074">
        <ele>161.07</ele>
        <time>2016-10-09T14:56:16Z</time>
      </trkpt>
      <trkpt lat="43.60098" lon="7.03093">
        <ele>160.61</ele>
        <time>2016-10-09T14:56:22Z</time>
      </trkpt>
      <trkpt lat="43.60115" lon="7.03114">
        <ele>161.47</ele>
        <time>2016-10-09T14:56:27Z</time>
      </trkpt>
      <trkpt lat="43.60129" lon="7.03131">
        <ele>168.82</ele>
        <time>2016-10-09T14:56:31Z</time>
      </trkpt>
      <trkpt lat="43.60143" lon="7.03151">
        <ele>172.11</ele>
        <time>2016-10-09T14:56:37Z</time>
      </trkpt>
      <trkpt lat="43.60156" lon="7.03168">
        <ele>170.58</ele>
        <time>2016-10-09T14:56:42Z</time>
      </trkpt>
      <trkpt lat="43.60172" lon="7.03187">
        <ele>174.86</ele>
        <time>2016-10-09T14:56:50Z</time>
      </trkpt>
      <trkpt lat="43.60187" lon="7.03203">
        <ele>175.31</ele>
        <time>2016-10-09T14:56:56Z</time>
      </trkpt>
      <trkpt lat="43.60205" lon="7.0322">
        <ele>178.56</ele>
        <time>2016-10-09T14:57:01Z</time>
      </trkpt>
      <trkpt lat="43.60221" lon="7.03235">
        <ele>169.98</ele>
        <time>2016-10-09T14:57:09Z</time>
      </trkpt>
      <trkpt lat="43.60243" lon="7.03244">
        <ele>173.7</ele>
        <time>2016-10-09T14:57:14Z</time>
      </trkpt>
      <trkpt lat="43.60261" lon="7.03251">
        <ele>181.29</ele>
        <time>2016-10-09T14:57:20Z</time>
      </trkpt>
      <trkpt lat="43.60268" lon="7.03274">
        <ele>184.96</ele>
        <time>2016-10-09T14:57:25Z</time>
      </trkpt>
      <trkpt lat="43.60261" lon="7.033">
        <ele>186.9</ele>
        <time>2016-10-09T14:57:28Z</time>
      </trkpt>
      <trkpt lat="43.60246" lon="7.03321">
        <ele>187.85</ele>
        <time>2016-10-09T14:57:33Z</time>
      </trkpt>
      <trkpt lat="43.60229" lon="7.03342">
        <ele>193.09</ele>
        <time>2016-10-09T14:57:37Z</time>
      </trkpt>
      <trkpt lat="43.60221" lon="7.03366">
        <ele>194.44</ele>
        <time>2016-10-09T14:57:43Z</time>
      </trkpt>
      <trkpt lat="43.60217" lon="7.03397">
        <ele>190.81</ele>
        <time>2016-10-09T14:57:49Z</time>
      </trkpt>
      <trkpt lat="43.60211" lon="7.03421">
        <ele>186.23</ele>
        <time>2016-10-09T14:57:54Z</time>
      </trkpt>
      <trkpt lat="43.60215" lon="7.03446">
        <ele>180.68</ele>
        <time>2016-10-09T14:57:57Z</time>
      </trkpt>
      <trkpt lat="43.60227" lon="7.03467">
        <ele>185.63</ele>
        <time>2016-10-09T14:58:43Z</time>
      </trkpt>
      <trkpt lat="43.60227" lon="7.03495">
        <ele>188.35</ele>
        <time>2016-10-09T15:04:02Z</time>
      </trkpt>
      <trkpt lat="43.60228" lon="7.03523">
        <ele>184.97</ele>
        <time>2016-10-09T15:04:11Z</time>
      </trkpt>
      <trkpt lat="43.6024" lon="7.03545">
        <ele>188.36</ele>
        <time>2016-10-09T15:04:17Z</time>
      </trkpt>
      <trkpt lat="43.60253" lon="7.03563">
        <ele>186.6</ele>
        <time>2016-10-09T15:04:24Z</time>
      </trkpt>
      <trkpt lat="43.60265" lon="7.03587">
        <ele>191.4</ele>
        <time>2016-10-09T15:04:30Z</time>
      </trkpt>
      <trkpt lat="43.60275" lon="7.03609">
        <ele>192.46</ele>
        <time>2016-10-09T15:04:35Z</time>
      </trkpt>
      <trkpt lat="43.60283" lon="7.03632">
        <ele>190.94</ele>
        <time>2016-10-09T15:04:46Z</time>
      </trkpt>
      <trkpt lat="43.60289" lon="7.03659">
        <ele>193.74</ele>
        <time>2016-10-09T15:05:00Z</time>
      </trkpt>
      <trkpt lat="43.60298" lon="7.03683">
        <ele>191.59</ele>
        <time>2016-10-09T15:05:06Z</time>
      </trkpt>
      <trkpt lat="43.60314" lon="7.03699">
        <ele>193.03</ele>
        <time>2016-10-09T15:05:13Z</time>
      </trkpt>
      <trkpt lat="43.60332" lon="7.03705">
        <ele>198.92</ele>
        <time>2016-10-09T15:05:17Z</time>
      </trkpt>
      <trkpt lat="43.60353" lon="7.03718">
        <ele>199.42</ele>
        <time>2016-10-09T15:05:22Z</time>
      </trkpt>
      <trkpt lat="43.60374" lon="7.03722">
        <ele>199.5</ele>
        <time>2016-10-09T15:05:27Z</time>
      </trkpt>
      <trkpt lat="43.60396" lon="7.03715">
        <ele>199.2</ele>
        <time>2016-10-09T15:05:31Z</time>
      </trkpt>
      <trkpt lat="43.60414" lon="7.03709">
        <ele>201.55</ele>
        <time>2016-10-09T15:05:34Z</time>
      </trkpt>
      <trkpt lat="43.60433" lon="7.037">
        <ele>201.68</ele>
        <time>2016-10-09T15:05:40Z</time>
      </trkpt>
      <trkpt lat="43.60454" lon="7.03694">
        <ele>198.63</ele>
        <time>2016-10-09T15:05:45Z</time>
      </trkpt>
      <trkpt lat="43.60472" lon="7.03701">
        <ele>199.18</ele>
        <time>2016-10-09T15:06:34Z</time>
      </trkpt>
      <trkpt lat="43.60455" lon="7.03716">
        <ele>196.4</ele>
        <time>2016-10-09T15:06:47Z</time>
      </trkpt>
      <trkpt lat="43.60438" lon="7.03725">
        <ele>196.57</ele>
        <time>2016-10-09T15:06:51Z</time>
      </trkpt>
      <trkpt lat="43.60418" lon="7.03737">
        <ele>195.45</ele>
        <time>2016-10-09T15:06:55Z</time>
      </trkpt>
      <trkpt lat="43.60396" lon="7.03744">
        <ele>194.76</ele>
        <time>2016-10-09T15:06:59Z</time>
      </trkpt>
      <trkpt lat="43.60375" lon="7.03756">
        <ele>194.34</ele>
        <time>2016-10-09T15:07:03Z</time>
      </trkpt>
      <trkpt lat="43.60355" lon="7.03761">
        <ele>195.07</ele>
        <time>2016-10-09T15:07:06Z</time>
      </trkpt>
      <trkpt lat="43.60338" lon="7.03766">
        <ele>193.73</ele>
        <time>2016-10-09T15:07:10Z</time>
      </trkpt>
      <trkpt lat="43.60322" lon="7.03779">
        <ele>193.25</ele>
        <time>2016-10-09T15:07:13Z</time>
      </trkpt>
      <trkpt lat="43.60305" lon="7.03795">
        <ele>185.8</ele>
        <time>2016-10-09T15:07:18Z</time>
      </trkpt>
      <trkpt lat="43.60301" lon="7.0382">
        <ele>174.91</ele>
        <time>2016-10-09T15:07:26Z</time>
      </trkpt>
      <trkpt lat="43.60298" lon="7.03849">
        <ele>170.07</ele>
        <time>2016-10-09T15:07:33Z</time>
      </trkpt>
      <trkpt lat="43.60305" lon="7.0388">
        <ele>172.92</ele>
        <time>2016-10-09T15:07:37Z</time>
      </trkpt>
      <trkpt lat="43.60309" lon="7.03909">
        <ele>177.91</ele>
        <time>2016-10-09T15:07:41Z</time>
      </trkpt>
      <trkpt lat="43.60314" lon="7.03934">
        <ele>179.73</ele>
        <time>2016-10-09T15:07:47Z</time>
      </trkpt>
      <trkpt lat="43.60313" lon="7.03961">
        <ele>178.74</ele>
        <time>2016-10-09T15:07:56Z</time>
      </trkpt>
      <trkpt lat="43.60314" lon="7.03986">
        <ele>177.41</ele>
        <time>2016-10-09T15:08:03Z</time>
      </trkpt>
      <trkpt lat="43.60316" lon="7.04011">
        <ele>175.4</ele>
        <time>2016-10-09T15:08:09Z</time>
      </trkpt>
      <trkpt lat="43.60324" lon="7.04036">
        <ele>173.77</ele>
        <time>2016-10-09T15:08:16Z</time>
      </trkpt>
      <trkpt lat="43.60326" lon="7.04061">
        <ele>173.4</ele>
        <time>2016-10-09T15:08:20Z</time>
      </trkpt>
      <trkpt lat="43.60332" lon="7.04086">
        <ele>172.87</ele>
        <time>2016-10-09T15:08:25Z</time>
      </trkpt>
      <trkpt lat="43.60344" lon="7.04116">
        <ele>176.01</ele>
        <time>2016-10-09T15:08:28Z</time>
      </trkpt>
      <trkpt lat="43.60357" lon="7.04137">
        <ele>180.29</ele>
        <time>2016-10-09T15:08:32Z</time>
      </trkpt>
      <trkpt lat="43.60372" lon="7.04155">
        <ele>181.12</ele>
        <time>2016-10-09T15:08:36Z</time>
      </trkpt>
      <trkpt lat="43.60389" lon="7.0417">
        <ele>182.86</ele>
        <time>2016-10-09T15:08:41Z</time>
      </trkpt>
      <trkpt lat="43.60409" lon="7.04184">
        <ele>180.28</ele>
        <time>2016-10-09T15:08:45Z</time>
      </trkpt>
      <trkpt lat="43.60432" lon="7.04195">
        <ele>180.81</ele>
        <time>2016-10-09T15:08:48Z</time>
      </trkpt>
      <trkpt lat="43.60451" lon="7.04205">
        <ele>185.51</ele>
        <time>2016-10-09T15:08:51Z</time>
      </trkpt>
      <trkpt lat="43.60461" lon="7.0423">
        <ele>185.6</ele>
        <time>2016-10-09T15:08:57Z</time>
      </trkpt>
      <trkpt lat="43.60469" lon="7.04254">
        <ele>183.56</ele>
        <time>2016-10-09T15:09:02Z</time>
      </trkpt>
      <trkpt lat="43.60477" lon="7.04279">
        <ele>182.34</ele>
        <time>2016-10-09T15:09:08Z</time>
      </trkpt>
      <trkpt lat="43.60484" lon="7.04304">
        <ele>180.08</ele>
        <time>2016-10-09T15:09:14Z</time>
      </trkpt>
      <trkpt lat="43.6049" lon="7.04329">
        <ele>177.3</ele>
        <time>2016-10-09T15:09:18Z</time>
      </trkpt>
      <trkpt lat="43.60494" lon="7.04355">
        <ele>178.09</ele>
        <time>2016-10-09T15:09:23Z</time>
      </trkpt>
      <trkpt lat="43.60498" lon="7.04381">
        <ele>176.69</ele>
        <time>2016-10-09T15:09:31Z</time>
      </trkpt>
      <trkpt lat="43.60511" lon="7.04401">
        <ele>177.91</ele>
        <time>2016-10-09T15:09:36Z</time>
      </trkpt>
      <trkpt lat="43.60525" lon="7.04418">
        <ele>177.67</ele>
        <time>2016-10-09T15:09:42Z</time>
      </trkpt>
      <trkpt lat="43.60529" lon="7.04444">
        <ele>173.6</ele>
        <time>2016-10-09T15:09:50Z</time>
      </trkpt>
      <trkpt lat="43.60536" lon="7.04468">
        <ele>173</ele>
        <time>2016-10-09T15:09:56Z</time>
      </trkpt>
      <trkpt lat="43.60541" lon="7.04497">
        <ele>172.64</ele>
        <time>2016-10-09T15:10:01Z</time>
      </trkpt>
      <trkpt lat="43.6055" lon="7.04524">
        <ele>178.73</ele>
        <time>2016-10-09T15:10:07Z</time>
      </trkpt>
      <trkpt lat="43.60564" lon="7.04551">
        <ele>181.96</ele>
        <time>2016-10-09T15:10:11Z</time>
      </trkpt>
      <trkpt lat="43.60575" lon="7.04573">
        <ele>182.9</ele>
        <time>2016-10-09T15:10:14Z</time>
      </trkpt>
      <trkpt lat="43.60582" lon="7.04598">
        <ele>182.64</ele>
        <time>2016-10-09T15:10:17Z</time>
      </trkpt>
      <trkpt lat="43.60592" lon="7.04622">
        <ele>177.71</ele>
        <time>2016-10-09T15:10:21Z</time>
      </trkpt>
      <trkpt lat="43.60596" lon="7.0465">
        <ele>148.73</ele>
        <time>2016-10-09T15:10:27Z</time>
      </trkpt>
      <trkpt lat="43.6059" lon="7.04674">
        <ele>145.84</ele>
        <time>2016-10-09T15:10:31Z</time>
      </trkpt>
      <trkpt lat="43.60581" lon="7.04699">
        <ele>152.53</ele>
        <time>2016-10-09T15:10:35Z</time>
      </trkpt>
      <trkpt lat="43.60575" lon="7.04724">
        <ele>168.76</ele>
        <time>2016-10-09T15:10:39Z</time>
      </trkpt>
      <trkpt lat="43.60569" lon="7.04749">
        <ele>172.87</ele>
        <time>2016-10-09T15:10:42Z</time>
      </trkpt>
      <trkpt lat="43.60562" lon="7.04776">
        <ele>172.73</ele>
        <time>2016-10-09T15:10:47Z</time>
      </trkpt>
      <trkpt lat="43.60552" lon="7.04797">
        <ele>170.77</ele>
        <time>2016-10-09T15:10:51Z</time>
      </trkpt>
      <trkpt lat="43.60538" lon="7.04817">
        <ele>169.34</ele>
        <time>2016-10-09T15:10:55Z</time>
      </trkpt>
      <trkpt lat="43.60522" lon="7.04837">
        <ele>165.24</ele>
        <time>2016-10-09T15:11:00Z</time>
      </trkpt>
      <trkpt lat="43.60512" lon="7.04871">
        <ele>162.19</ele>
        <time>2016-10-09T15:11:02Z</time>
      </trkpt>
      <trkpt lat="43.60502" lon="7.04893">
        <ele>159.55</ele>
        <time>2016-10-09T15:11:05Z</time>
      </trkpt>
      <trkpt lat="43.6049" lon="7.04915">
        <ele>156.89</ele>
        <time>2016-10-09T15:11:09Z</time>
      </trkpt>
      <trkpt lat="43.60481" lon="7.04939">
        <ele>154.89</ele>
        <time>2016-10-09T15:11:12Z</time>
      </trkpt>
      <trkpt lat="43.60475" lon="7.04963">
        <ele>154.64</ele>
        <time>2016-10-09T15:11:38Z</time>
      </trkpt>
      <trkpt lat="43.60494" lon="7.04974">
        <ele>151.68</ele>
        <time>2016-10-09T15:16:10Z</time>
      </trkpt>
      <trkpt lat="43.60513" lon="7.04972">
        <ele>150.71</ele>
        <time>2016-10-09T15:16:14Z</time>
      </trkpt>
      <trkpt lat="43.6053" lon="7.04959">
        <ele>153.02</ele>
        <time>2016-10-09T15:16:18Z</time>
      </trkpt>
      <trkpt lat="43.60548" lon="7.04947">
        <ele>156.23</ele>
        <time>2016-10-09T15:16:22Z</time>
      </trkpt>
      <trkpt lat="43.60565" lon="7.04932">
        <ele>155.8</ele>
        <time>2016-10-09T15:16:26Z</time>
      </trkpt>
      <trkpt lat="43.6058" lon="7.04906">
        <ele>154.09</ele>
        <time>2016-10-09T15:16:30Z</time>
      </trkpt>
      <trkpt lat="43.60597" lon="7.04884">
        <ele>152.54</ele>
        <time>2016-10-09T15:16:33Z</time>
      </trkpt>
      <trkpt lat="43.60612" lon="7.04867">
        <ele>153.02</ele>
        <time>2016-10-09T15:16:35Z</time>
      </trkpt>
      <trkpt lat="43.6063" lon="7.04846">
        <ele>155.04</ele>
        <time>2016-10-09T15:16:39Z</time>
      </trkpt>
      <trkpt lat="43.60643" lon="7.04827">
        <ele>154.55</ele>
        <time>2016-10-09T15:16:44Z</time>
      </trkpt>
      <trkpt lat="43.60661" lon="7.04815">
        <ele>150.35</ele>
        <time>2016-10-09T15:16:53Z</time>
      </trkpt>
      <trkpt lat="43.60673" lon="7.04797">
        <ele>149.05</ele>
        <time>2016-10-09T15:17:01Z</time>
      </trkpt>
      <trkpt lat="43.60658" lon="7.04811">
        <ele>150.15</ele>
        <time>2016-10-09T15:17:39Z</time>
      </trkpt>
      <trkpt lat="43.60642" lon="7.04825">
        <ele>149.49</ele>
        <time>2016-10-09T15:17:43Z</time>
      </trkpt>
      <trkpt lat="43.60628" lon="7.04841">
        <ele>147.25</ele>
        <time>2016-10-09T15:17:48Z</time>
      </trkpt>
      <trkpt lat="43.60613" lon="7.04858">
        <ele>143.37</ele>
        <time>2016-10-09T15:17:52Z</time>
      </trkpt>
      <trkpt lat="43.60594" lon="7.04877">
        <ele>140.63</ele>
        <time>2016-10-09T15:17:56Z</time>
      </trkpt>
      <trkpt lat="43.60578" lon="7.049">
        <ele>139.7</ele>
        <time>2016-10-09T15:18:00Z</time>
      </trkpt>
      <trkpt lat="43.60567" lon="7.04922">
        <ele>140.71</ele>
        <time>2016-10-09T15:18:04Z</time>
      </trkpt>
      <trkpt lat="43.6055" lon="7.04944">
        <ele>142.76</ele>
        <time>2016-10-09T15:18:09Z</time>
      </trkpt>
      <trkpt lat="43.60535" lon="7.0496">
        <ele>144.29</ele>
        <time>2016-10-09T15:18:14Z</time>
      </trkpt>
      <trkpt lat="43.60517" lon="7.04969">
        <ele>148.7</ele>
        <time>2016-10-09T15:18:21Z</time>
      </trkpt>
      <trkpt lat="43.60534" lon="7.04962">
        <ele>142.69</ele>
        <time>2016-10-09T15:18:43Z</time>
      </trkpt>
      <trkpt lat="43.60551" lon="7.04952">
        <ele>139.72</ele>
        <time>2016-10-09T15:18:48Z</time>
      </trkpt>
      <trkpt lat="43.60565" lon="7.04933">
        <ele>142.15</ele>
        <time>2016-10-09T15:18:52Z</time>
      </trkpt>
      <trkpt lat="43.60577" lon="7.04909">
        <ele>143.17</ele>
        <time>2016-10-09T15:18:56Z</time>
      </trkpt>
      <trkpt lat="43.60592" lon="7.04889">
        <ele>141.68</ele>
        <time>2016-10-09T15:18:59Z</time>
      </trkpt>
      <trkpt lat="43.60606" lon="7.04869">
        <ele>146.74</ele>
        <time>2016-10-09T15:19:02Z</time>
      </trkpt>
      <trkpt lat="43.60623" lon="7.04851">
        <ele>146.65</ele>
        <time>2016-10-09T15:19:06Z</time>
      </trkpt>
      <trkpt lat="43.60642" lon="7.04832">
        <ele>147.39</ele>
        <time>2016-10-09T15:19:10Z</time>
      </trkpt>
      <trkpt lat="43.6066" lon="7.04816">
        <ele>147.7</ele>
        <time>2016-10-09T15:19:13Z</time>
      </trkpt>
      <trkpt lat="43.60677" lon="7.04793">
        <ele>149.12</ele>
        <time>2016-10-09T15:19:16Z</time>
      </trkpt>
      <trkpt lat="43.60694" lon="7.04776">
        <ele>148.67</ele>
        <time>2016-10-09T15:19:19Z</time>
      </trkpt>
      <trkpt lat="43.60711" lon="7.04759">
        <ele>148.11</ele>
        <time>2016-10-09T15:19:22Z</time>
      </trkpt>
      <trkpt lat="43.60727" lon="7.04744">
        <ele>150.55</ele>
        <time>2016-10-09T15:19:26Z</time>
      </trkpt>
      <trkpt lat="43.60742" lon="7.04725">
        <ele>150.03</ele>
        <time>2016-10-09T15:19:31Z</time>
      </trkpt>
      <trkpt lat="43.60747" lon="7.04697">
        <ele>149.35</ele>
        <time>2016-10-09T15:19:35Z</time>
      </trkpt>
      <trkpt lat="43.60751" lon="7.04666">
        <ele>149.82</ele>
        <time>2016-10-09T15:19:38Z</time>
      </trkpt>
      <trkpt lat="43.60754" lon="7.04641">
        <ele>149.59</ele>
        <time>2016-10-09T15:19:40Z</time>
      </trkpt>
      <trkpt lat="43.60758" lon="7.04613">
        <ele>149.48</ele>
        <time>2016-10-09T15:19:43Z</time>
      </trkpt>
      <trkpt lat="43.60763" lon="7.04588">
        <ele>149.59</ele>
        <time>2016-10-09T15:19:46Z</time>
      </trkpt>
      <trkpt lat="43.60784" lon="7.04578">
        <ele>148.2</ele>
        <time>2016-10-09T15:19:50Z</time>
      </trkpt>
      <trkpt lat="43.60802" lon="7.04573">
        <ele>149.99</ele>
        <time>2016-10-09T15:19:55Z</time>
      </trkpt>
      <trkpt lat="43.60822" lon="7.04563">
        <ele>149.8</ele>
        <time>2016-10-09T15:20:00Z</time>
      </trkpt>
      <trkpt lat="43.60832" lon="7.04584">
        <ele>156.04</ele>
        <time>2016-10-09T15:20:05Z</time>
      </trkpt>
      <trkpt lat="43.60831" lon="7.0461">
        <ele>154.67</ele>
        <time>2016-10-09T15:20:09Z</time>
      </trkpt>
      <trkpt lat="43.60832" lon="7.04635">
        <ele>152.14</ele>
        <time>2016-10-09T15:20:13Z</time>
      </trkpt>
      <trkpt lat="43.60832" lon="7.04665">
        <ele>150.61</ele>
        <time>2016-10-09T15:20:17Z</time>
      </trkpt>
      <trkpt lat="43.60843" lon="7.04688">
        <ele>152.86</ele>
        <time>2016-10-09T15:20:20Z</time>
      </trkpt>
      <trkpt lat="43.60861" lon="7.04708">
        <ele>150.03</ele>
        <time>2016-10-09T15:20:24Z</time>
      </trkpt>
      <trkpt lat="43.60871" lon="7.04729">
        <ele>149.34</ele>
        <time>2016-10-09T15:20:32Z</time>
      </trkpt>
      <trkpt lat="43.60888" lon="7.04738">
        <ele>160.68</ele>
        <time>2016-10-09T15:22:52Z</time>
      </trkpt>
      <trkpt lat="43.6091" lon="7.04738">
        <ele>152.14</ele>
        <time>2016-10-09T15:23:00Z</time>
      </trkpt>
      <trkpt lat="43.6093" lon="7.04734">
        <ele>152.49</ele>
        <time>2016-10-09T15:23:04Z</time>
      </trkpt>
      <trkpt lat="43.60946" lon="7.04721">
        <ele>151.81</ele>
        <time>2016-10-09T15:23:09Z</time>
      </trkpt>
      <trkpt lat="43.60959" lon="7.04701">
        <ele>152.15</ele>
        <time>2016-10-09T15:23:13Z</time>
      </trkpt>
      <trkpt lat="43.60974" lon="7.04678">
        <ele>152.61</ele>
        <time>2016-10-09T15:23:17Z</time>
      </trkpt>
      <trkpt lat="43.6099" lon="7.04661">
        <ele>154.2</ele>
        <time>2016-10-09T15:23:21Z</time>
      </trkpt>
      <trkpt lat="43.61006" lon="7.04645">
        <ele>156.43</ele>
        <time>2016-10-09T15:23:24Z</time>
      </trkpt>
      <trkpt lat="43.61023" lon="7.04635">
        <ele>156.33</ele>
        <time>2016-10-09T15:23:27Z</time>
      </trkpt>
      <trkpt lat="43.61046" lon="7.04626">
        <ele>156.07</ele>
        <time>2016-10-09T15:23:30Z</time>
      </trkpt>
      <trkpt lat="43.61064" lon="7.04613">
        <ele>155.29</ele>
        <time>2016-10-09T15:23:33Z</time>
      </trkpt>
      <trkpt lat="43.61085" lon="7.04606">
        <ele>155.81</ele>
        <time>2016-10-09T15:23:36Z</time>
      </trkpt>
      <trkpt lat="43.61086" lon="7.04635">
        <ele>150.26</ele>
        <time>2016-10-09T15:23:43Z</time>
      </trkpt>
      <trkpt lat="43.61086" lon="7.04663">
        <ele>147.83</ele>
        <time>2016-10-09T15:23:48Z</time>
      </trkpt>
      <trkpt lat="43.61088" lon="7.04688">
        <ele>148.4</ele>
        <time>2016-10-09T15:23:52Z</time>
      </trkpt>
      <trkpt lat="43.61086" lon="7.04718">
        <ele>147.65</ele>
        <time>2016-10-09T15:23:57Z</time>
      </trkpt>
      <trkpt lat="43.61088" lon="7.04743">
        <ele>145.36</ele>
        <time>2016-10-09T15:24:07Z</time>
      </trkpt>
      <trkpt lat="43.611" lon="7.04763">
        <ele>149.56</ele>
        <time>2016-10-09T15:24:59Z</time>
      </trkpt>
      <trkpt lat="43.61118" lon="7.04769">
        <ele>146.5</ele>
        <time>2016-10-09T15:25:21Z</time>
      </trkpt>
      <trkpt lat="43.61136" lon="7.04771">
        <ele>146.7</ele>
        <time>2016-10-09T15:25:25Z</time>
      </trkpt>
      <trkpt lat="43.61156" lon="7.04769">
        <ele>144.27</ele>
        <time>2016-10-09T15:25:29Z</time>
      </trkpt>
      <trkpt lat="43.61172" lon="7.04755">
        <ele>145.85</ele>
        <time>2016-10-09T15:25:36Z</time>
      </trkpt>
      <trkpt lat="43.61186" lon="7.04737">
        <ele>148.83</ele>
        <time>2016-10-09T15:25:49Z</time>
      </trkpt>
      <trkpt lat="43.61201" lon="7.04722">
        <ele>152.64</ele>
        <time>2016-10-09T15:26:13Z</time>
      </trkpt>
      <trkpt lat="43.61221" lon="7.04722">
        <ele>148.05</ele>
        <time>2016-10-09T15:26:49Z</time>
      </trkpt>
      <trkpt lat="43.61241" lon="7.04719">
        <ele>150.52</ele>
        <time>2016-10-09T15:26:54Z</time>
      </trkpt>
      <trkpt lat="43.61259" lon="7.04705">
        <ele>152.94</ele>
        <time>2016-10-09T15:26:59Z</time>
      </trkpt>
      <trkpt lat="43.61271" lon="7.04684">
        <ele>152.33</ele>
        <time>2016-10-09T15:27:06Z</time>
      </trkpt>
      <trkpt lat="43.61282" lon="7.04665">
        <ele>155.79</ele>
        <time>2016-10-09T15:27:13Z</time>
      </trkpt>
      <trkpt lat="43.61294" lon="7.04645">
        <ele>156.95</ele>
        <time>2016-10-09T15:27:20Z</time>
      </trkpt>
      <trkpt lat="43.61303" lon="7.04622">
        <ele>159.35</ele>
        <time>2016-10-09T15:27:28Z</time>
      </trkpt>
      <trkpt lat="43.61306" lon="7.0459">
        <ele>157.74</ele>
        <time>2016-10-09T15:27:37Z</time>
      </trkpt>
      <trkpt lat="43.61307" lon="7.04564">
        <ele>158.11</ele>
        <time>2016-10-09T15:27:43Z</time>
      </trkpt>
      <trkpt lat="43.6131" lon="7.04534">
        <ele>151.73</ele>
        <time>2016-10-09T15:27:52Z</time>
      </trkpt>
      <trkpt lat="43.61313" lon="7.04509">
        <ele>152.27</ele>
        <time>2016-10-09T15:27:56Z</time>
      </trkpt>
      <trkpt lat="43.61323" lon="7.04488">
        <ele>149.34</ele>
        <time>2016-10-09T15:28:01Z</time>
      </trkpt>
      <trkpt lat="43.61329" lon="7.04461">
        <ele>144.25</ele>
        <time>2016-10-09T15:28:09Z</time>
      </trkpt>
      <trkpt lat="43.61339" lon="7.04436">
        <ele>140.71</ele>
        <time>2016-10-09T15:28:15Z</time>
      </trkpt>
      <trkpt lat="43.61347" lon="7.04412">
        <ele>136.84</ele>
        <time>2016-10-09T15:28:23Z</time>
      </trkpt>
      <trkpt lat="43.61357" lon="7.0439">
        <ele>135.87</ele>
        <time>2016-10-09T15:28:31Z</time>
      </trkpt>
      <trkpt lat="43.61364" lon="7.04366">
        <ele>128.88</ele>
        <time>2016-10-09T15:28:40Z</time>
      </trkpt>
      <trkpt lat="43.61377" lon="7.04348">
        <ele>124.16</ele>
        <time>2016-10-09T15:28:46Z</time>
      </trkpt>
      <trkpt lat="43.61396" lon="7.04332">
        <ele>127.14</ele>
        <time>2016-10-09T15:28:52Z</time>
      </trkpt>
      <trkpt lat="43.61412" lon="7.04315">
        <ele>125.24</ele>
        <time>2016-10-09T15:28:57Z</time>
      </trkpt>
      <trkpt lat="43.61425" lon="7.04297">
        <ele>124.4</ele>
        <time>2016-10-09T15:29:07Z</time>
      </trkpt>
      <trkpt lat="43.61443" lon="7.04281">
        <ele>130.17</ele>
        <time>2016-10-09T15:29:30Z</time>
      </trkpt>
      <trkpt lat="43.61459" lon="7.04266">
        <ele>128.02</ele>
        <time>2016-10-09T15:29:35Z</time>
      </trkpt>
      <trkpt lat="43.61472" lon="7.04247">
        <ele>124.06</ele>
        <time>2016-10-09T15:29:41Z</time>
      </trkpt>
      <trkpt lat="43.61483" lon="7.04226">
        <ele>125.91</ele>
        <time>2016-10-09T15:29:44Z</time>
      </trkpt>
      <trkpt lat="43.61498" lon="7.04206">
        <ele>124.41</ele>
        <time>2016-10-09T15:29:48Z</time>
      </trkpt>
      <trkpt lat="43.6151" lon="7.04186">
        <ele>124</ele>
        <time>2016-10-09T15:29:52Z</time>
      </trkpt>
      <trkpt lat="43.61528" lon="7.04194">
        <ele>122.33</ele>
        <time>2016-10-09T15:30:08Z</time>
      </trkpt>
      <trkpt lat="43.61542" lon="7.0421">
        <ele>127.66</ele>
        <time>2016-10-09T15:30:29Z</time>
      </trkpt>
      <trkpt lat="43.61551" lon="7.04186">
        <ele>127.69</ele>
        <time>2016-10-09T15:31:56Z</time>
      </trkpt>
      <trkpt lat="43.61565" lon="7.04166">
        <ele>126.93</ele>
        <time>2016-10-09T15:32:05Z</time>
      </trkpt>
      <trkpt lat="43.61579" lon="7.04149">
        <ele>131.45</ele>
        <time>2016-10-09T15:32:10Z</time>
      </trkpt>
      <trkpt lat="43.61597" lon="7.04144">
        <ele>134.09</ele>
        <time>2016-10-09T15:32:16Z</time>
      </trkpt>
      <trkpt lat="43.61615" lon="7.0414">
        <ele>132.92</ele>
        <time>2016-10-09T15:32:36Z</time>
      </trkpt>
      <trkpt lat="43.6163" lon="7.04157">
        <ele>131.39</ele>
        <time>2016-10-09T15:32:44Z</time>
      </trkpt>
      <trkpt lat="43.61634" lon="7.04183">
        <ele>126.64</ele>
        <time>2016-10-09T15:32:51Z</time>
      </trkpt>
      <trkpt lat="43.61638" lon="7.04211">
        <ele>126.98</ele>
        <time>2016-10-09T15:32:57Z</time>
      </trkpt>
      <trkpt lat="43.61641" lon="7.04237">
        <ele>128.86</ele>
        <time>2016-10-09T15:33:03Z</time>
      </trkpt>
      <trkpt lat="43.61641" lon="7.04265">
        <ele>126.77</ele>
        <time>2016-10-09T15:33:11Z</time>
      </trkpt>
      <trkpt lat="43.6164" lon="7.04291">
        <ele>127.01</ele>
        <time>2016-10-09T15:33:17Z</time>
      </trkpt>
      <trkpt lat="43.61633" lon="7.04317">
        <ele>130.07</ele>
        <time>2016-10-09T15:34:08Z</time>
      </trkpt>
      <trkpt lat="43.61623" lon="7.04337">
        <ele>127.09</ele>
        <time>2016-10-09T15:34:15Z</time>
      </trkpt>
      <trkpt lat="43.61623" lon="7.04367">
        <ele>121.36</ele>
        <time>2016-10-09T15:34:21Z</time>
      </trkpt>
      <trkpt lat="43.61632" lon="7.0439">
        <ele>124.15</ele>
        <time>2016-10-09T15:34:26Z</time>
      </trkpt>
      <trkpt lat="43.61645" lon="7.04407">
        <ele>125.92</ele>
        <time>2016-10-09T15:34:29Z</time>
      </trkpt>
      <trkpt lat="43.61659" lon="7.04429">
        <ele>127.47</ele>
        <time>2016-10-09T15:34:33Z</time>
      </trkpt>
      <trkpt lat="43.61668" lon="7.04454">
        <ele>127.31</ele>
        <time>2016-10-09T15:34:39Z</time>
      </trkpt>
      <trkpt lat="43.61679" lon="7.04478">
        <ele>126.72</ele>
        <time>2016-10-09T15:34:45Z</time>
      </trkpt>
      <trkpt lat="43.61687" lon="7.04506">
        <ele>113.33</ele>
        <time>2016-10-09T15:34:52Z</time>
      </trkpt>
      <trkpt lat="43.61699" lon="7.04527">
        <ele>108.35</ele>
        <time>2016-10-09T15:34:58Z</time>
      </trkpt>
      <trkpt lat="43.61704" lon="7.04556">
        <ele>105.15</ele>
        <time>2016-10-09T15:35:03Z</time>
      </trkpt>
      <trkpt lat="43.61716" lon="7.04579">
        <ele>107.42</ele>
        <time>2016-10-09T15:35:06Z</time>
      </trkpt>
      <trkpt lat="43.61729" lon="7.046">
        <ele>110.82</ele>
        <time>2016-10-09T15:35:10Z</time>
      </trkpt>
      <trkpt lat="43.61743" lon="7.04623">
        <ele>117.88</ele>
        <time>2016-10-09T15:35:13Z</time>
      </trkpt>
      <trkpt lat="43.61758" lon="7.04641">
        <ele>121.72</ele>
        <time>2016-10-09T15:35:17Z</time>
      </trkpt>
      <trkpt lat="43.61769" lon="7.04669">
        <ele>124.53</ele>
        <time>2016-10-09T15:35:23Z</time>
      </trkpt>
      <trkpt lat="43.61778" lon="7.04697">
        <ele>122.06</ele>
        <time>2016-10-09T15:35:28Z</time>
      </trkpt>
      <trkpt lat="43.61788" lon="7.04723">
        <ele>119.52</ele>
        <time>2016-10-09T15:35:33Z</time>
      </trkpt>
      <trkpt lat="43.61799" lon="7.04747">
        <ele>117.12</ele>
        <time>2016-10-09T15:35:39Z</time>
      </trkpt>
      <trkpt lat="43.61806" lon="7.04773">
        <ele>113.28</ele>
        <time>2016-10-09T15:35:45Z</time>
      </trkpt>
      <trkpt lat="43.61813" lon="7.04797">
        <ele>112.09</ele>
        <time>2016-10-09T15:35:52Z</time>
      </trkpt>
      <trkpt lat="43.61811" lon="7.04824">
        <ele>108.05</ele>
        <time>2016-10-09T15:35:57Z</time>
      </trkpt>
      <trkpt lat="43.61815" lon="7.04849">
        <ele>104.41</ele>
        <time>2016-10-09T15:36:00Z</time>
      </trkpt>
      <trkpt lat="43.61825" lon="7.04877">
        <ele>103.83</ele>
        <time>2016-10-09T15:36:03Z</time>
      </trkpt>
      <trkpt lat="43.61842" lon="7.04905">
        <ele>106.38</ele>
        <time>2016-10-09T15:36:06Z</time>
      </trkpt>
      <trkpt lat="43.61859" lon="7.04927">
        <ele>113.08</ele>
        <time>2016-10-09T15:36:09Z</time>
      </trkpt>
      <trkpt lat="43.61874" lon="7.04942">
        <ele>119.54</ele>
        <time>2016-10-09T15:36:12Z</time>
      </trkpt>
      <trkpt lat="43.61892" lon="7.04948">
        <ele>121</ele>
        <time>2016-10-09T15:36:23Z</time>
      </trkpt>
      <trkpt lat="43.61913" lon="7.04953">
        <ele>115.91</ele>
        <time>2016-10-09T15:36:36Z</time>
      </trkpt>
      <trkpt lat="43.61931" lon="7.0495">
        <ele>118.03</ele>
        <time>2016-10-09T15:36:40Z</time>
      </trkpt>
      <trkpt lat="43.61951" lon="7.04954">
        <ele>117.33</ele>
        <time>2016-10-09T15:36:45Z</time>
      </trkpt>
      <trkpt lat="43.61969" lon="7.04956">
        <ele>116.76</ele>
        <time>2016-10-09T15:36:51Z</time>
      </trkpt>
      <trkpt lat="43.6199" lon="7.04967">
        <ele>114.48</ele>
        <time>2016-10-09T15:36:57Z</time>
      </trkpt>
      <trkpt lat="43.62011" lon="7.04976">
        <ele>116.34</ele>
        <time>2016-10-09T15:37:02Z</time>
      </trkpt>
      <trkpt lat="43.62027" lon="7.04995">
        <ele>116.19</ele>
        <time>2016-10-09T15:37:06Z</time>
      </trkpt>
      <trkpt lat="43.62041" lon="7.05012">
        <ele>116.49</ele>
        <time>2016-10-09T15:37:13Z</time>
      </trkpt>
      <trkpt lat="43.62049" lon="7.05034">
        <ele>116.74</ele>
        <time>2016-10-09T15:37:19Z</time>
      </trkpt>
      <trkpt lat="43.62044" lon="7.05062">
        <ele>110.93</ele>
        <time>2016-10-09T15:37:25Z</time>
      </trkpt>
      <trkpt lat="43.62042" lon="7.05093">
        <ele>111.9</ele>
        <time>2016-10-09T15:37:28Z</time>
      </trkpt>
      <trkpt lat="43.62039" lon="7.05118">
        <ele>113.52</ele>
        <time>2016-10-09T15:37:31Z</time>
      </trkpt>
      <trkpt lat="43.62034" lon="7.05146">
        <ele>113.45</ele>
        <time>2016-10-09T15:37:35Z</time>
      </trkpt>
      <trkpt lat="43.62027" lon="7.05175">
        <ele>113.08</ele>
        <time>2016-10-09T15:37:38Z</time>
      </trkpt>
      <trkpt lat="43.62023" lon="7.05203">
        <ele>114.17</ele>
        <time>2016-10-09T15:37:42Z</time>
      </trkpt>
      <trkpt lat="43.62022" lon="7.0523">
        <ele>110.36</ele>
        <time>2016-10-09T15:37:46Z</time>
      </trkpt>
      <trkpt lat="43.62024" lon="7.0526">
        <ele>109.2</ele>
        <time>2016-10-09T15:37:49Z</time>
      </trkpt>
      <trkpt lat="43.62029" lon="7.05294">
        <ele>110.43</ele>
        <time>2016-10-09T15:37:52Z</time>
      </trkpt>
      <trkpt lat="43.62035" lon="7.05323">
        <ele>111.08</ele>
        <time>2016-10-09T15:37:55Z</time>
      </trkpt>
      <trkpt lat="43.6204" lon="7.05351">
        <ele>112.54</ele>
        <time>2016-10-09T15:37:58Z</time>
      </trkpt>
      <trkpt lat="43.62045" lon="7.05381">
        <ele>115.01</ele>
        <time>2016-10-09T15:38:02Z</time>
      </trkpt>
      <trkpt lat="43.6205" lon="7.05411">
        <ele>116.78</ele>
        <time>2016-10-09T15:38:05Z</time>
      </trkpt>
      <trkpt lat="43.62054" lon="7.05442">
        <ele>116.21</ele>
        <time>2016-10-09T15:38:09Z</time>
      </trkpt>
      <trkpt lat="43.62051" lon="7.05472">
        <ele>113.8</ele>
        <time>2016-10-09T15:38:13Z</time>
      </trkpt>
      <trkpt lat="43.62048" lon="7.055">
        <ele>111.84</ele>
        <time>2016-10-09T15:38:21Z</time>
      </trkpt>
      <trkpt lat="43.62053" lon="7.05527">
        <ele>113.76</ele>
        <time>2016-10-09T15:38:24Z</time>
      </trkpt>
      <trkpt lat="43.62053" lon="7.05555">
        <ele>111.88</ele>
        <time>2016-10-09T15:38:31Z</time>
      </trkpt>
      <trkpt lat="43.62033" lon="7.05557">
        <ele>111.48</ele>
        <time>2016-10-09T15:38:37Z</time>
      </trkpt>
      <trkpt lat="43.62013" lon="7.05555">
        <ele>113.76</ele>
        <time>2016-10-09T15:38:41Z</time>
      </trkpt>
      <trkpt lat="43.61994" lon="7.05557">
        <ele>116.96</ele>
        <time>2016-10-09T15:38:45Z</time>
      </trkpt>
      <trkpt lat="43.61975" lon="7.05563">
        <ele>118.98</ele>
        <time>2016-10-09T15:38:49Z</time>
      </trkpt>
      <trkpt lat="43.61957" lon="7.05571">
        <ele>117.91</ele>
        <time>2016-10-09T15:38:53Z</time>
      </trkpt>
      <trkpt lat="43.61943" lon="7.05595">
        <ele>119.03</ele>
        <time>2016-10-09T15:38:57Z</time>
      </trkpt>
      <trkpt lat="43.61929" lon="7.05622">
        <ele>119.6</ele>
        <time>2016-10-09T15:39:01Z</time>
      </trkpt>
      <trkpt lat="43.61917" lon="7.05642">
        <ele>122.1</ele>
        <time>2016-10-09T15:39:04Z</time>
      </trkpt>
      <trkpt lat="43.61901" lon="7.0567">
        <ele>124.61</ele>
        <time>2016-10-09T15:39:08Z</time>
      </trkpt>
      <trkpt lat="43.61888" lon="7.05696">
        <ele>127.83</ele>
        <time>2016-10-09T15:39:12Z</time>
      </trkpt>
      <trkpt lat="43.61876" lon="7.05724">
        <ele>129.34</ele>
        <time>2016-10-09T15:39:16Z</time>
      </trkpt>
      <trkpt lat="43.6187" lon="7.05751">
        <ele>127.94</ele>
        <time>2016-10-09T15:39:20Z</time>
      </trkpt>
      <trkpt lat="43.61858" lon="7.05773">
        <ele>127.65</ele>
        <time>2016-10-09T15:39:23Z</time>
      </trkpt>
      <trkpt lat="43.61836" lon="7.05792">
        <ele>128.33</ele>
        <time>2016-10-09T15:39:27Z</time>
      </trkpt>
      <trkpt lat="43.61819" lon="7.0581">
        <ele>126.95</ele>
        <time>2016-10-09T15:39:30Z</time>
      </trkpt>
      <trkpt lat="43.61803" lon="7.05831">
        <ele>125.4</ele>
        <time>2016-10-09T15:39:33Z</time>
      </trkpt>
      <trkpt lat="43.61789" lon="7.05853">
        <ele>126.83</ele>
        <time>2016-10-09T15:39:36Z</time>
      </trkpt>
      <trkpt lat="43.61778" lon="7.05876">
        <ele>128.26</ele>
        <time>2016-10-09T15:39:39Z</time>
      </trkpt>
      <trkpt lat="43.61768" lon="7.05903">
        <ele>129.56</ele>
        <time>2016-10-09T15:39:42Z</time>
      </trkpt>
      <trkpt lat="43.61761" lon="7.0593">
        <ele>128.1</ele>
        <time>2016-10-09T15:39:45Z</time>
      </trkpt>
      <trkpt lat="43.61751" lon="7.05958">
        <ele>129.79</ele>
        <time>2016-10-09T15:39:48Z</time>
      </trkpt>
      <trkpt lat="43.61728" lon="7.05952">
        <ele>131.03</ele>
        <time>2016-10-09T15:39:52Z</time>
      </trkpt>
      <trkpt lat="43.6171" lon="7.05971">
        <ele>130.67</ele>
        <time>2016-10-09T15:39:56Z</time>
      </trkpt>
      <trkpt lat="43.61703" lon="7.06">
        <ele>130.24</ele>
        <time>2016-10-09T15:39:59Z</time>
      </trkpt>
      <trkpt lat="43.61698" lon="7.06036">
        <ele>128.81</ele>
        <time>2016-10-09T15:40:02Z</time>
      </trkpt>
      <trkpt lat="43.61693" lon="7.06063">
        <ele>128.58</ele>
        <time>2016-10-09T15:40:04Z</time>
      </trkpt>
      <trkpt lat="43.6169" lon="7.06092">
        <ele>129.48</ele>
        <time>2016-10-09T15:40:07Z</time>
      </trkpt>
      <trkpt lat="43.61687" lon="7.06123">
        <ele>129.59</ele>
        <time>2016-10-09T15:40:10Z</time>
      </trkpt>
      <trkpt lat="43.61681" lon="7.06154">
        <ele>128.7</ele>
        <time>2016-10-09T15:40:14Z</time>
      </trkpt>
      <trkpt lat="43.61677" lon="7.06184">
        <ele>129.12</ele>
        <time>2016-10-09T15:40:17Z</time>
      </trkpt>
      <trkpt lat="43.61675" lon="7.06211">
        <ele>127.67</ele>
        <time>2016-10-09T15:40:20Z</time>
      </trkpt>
      <trkpt lat="43.61672" lon="7.06237">
        <ele>126.71</ele>
        <time>2016-10-09T15:40:24Z</time>
      </trkpt>
      <trkpt lat="43.61668" lon="7.06262">
        <ele>125.77</ele>
        <time>2016-10-09T15:40:28Z</time>
      </trkpt>
      <trkpt lat="43.61664" lon="7.06291">
        <ele>126.15</ele>
        <time>2016-10-09T15:40:32Z</time>
      </trkpt>
      <trkpt lat="43.6166" lon="7.06317">
        <ele>125.3</ele>
        <time>2016-10-09T15:40:36Z</time>
      </trkpt>
      <trkpt lat="43.6165" lon="7.06344">
        <ele>126.06</ele>
        <time>2016-10-09T15:40:40Z</time>
      </trkpt>
      <trkpt lat="43.61644" lon="7.06373">
        <ele>123.66</ele>
        <time>2016-10-09T15:40:43Z</time>
      </trkpt>
      <trkpt lat="43.61637" lon="7.06403">
        <ele>122.33</ele>
        <time>2016-10-09T15:40:47Z</time>
      </trkpt>
      <trkpt lat="43.61639" lon="7.06434">
        <ele>123.19</ele>
        <time>2016-10-09T15:40:51Z</time>
      </trkpt>
      <trkpt lat="43.61634" lon="7.06459">
        <ele>125.05</ele>
        <time>2016-10-09T15:40:55Z</time>
      </trkpt>
      <trkpt lat="43.61628" lon="7.06487">
        <ele>123.86</ele>
        <time>2016-10-09T15:40:59Z</time>
      </trkpt>
      <trkpt lat="43.6162" lon="7.06511">
        <ele>121.53</ele>
        <time>2016-10-09T15:41:03Z</time>
      </trkpt>
      <trkpt lat="43.61617" lon="7.06538">
        <ele>121.76</ele>
        <time>2016-10-09T15:41:07Z</time>
      </trkpt>
      <trkpt lat="43.61609" lon="7.06562">
        <ele>119.38</ele>
        <time>2016-10-09T15:41:12Z</time>
      </trkpt>
      <trkpt lat="43.61612" lon="7.06592">
        <ele>120.03</ele>
        <time>2016-10-09T15:41:17Z</time>
      </trkpt>
      <trkpt lat="43.61631" lon="7.06599">
        <ele>119.67</ele>
        <time>2016-10-09T15:41:21Z</time>
      </trkpt>
      <trkpt lat="43.61653" lon="7.06606">
        <ele>120.33</ele>
        <time>2016-10-09T15:41:25Z</time>
      </trkpt>
      <trkpt lat="43.6166" lon="7.0663">
        <ele>121.32</ele>
        <time>2016-10-09T15:41:28Z</time>
      </trkpt>
      <trkpt lat="43.6167" lon="7.06652">
        <ele>121.19</ele>
        <time>2016-10-09T15:41:31Z</time>
      </trkpt>
      <trkpt lat="43.61679" lon="7.06631">
        <ele>120.49</ele>
        <time>2016-10-09T15:41:36Z</time>
      </trkpt>
      <trkpt lat="43.61682" lon="7.06601">
        <ele>128.22</ele>
        <time>2016-10-09T15:41:41Z</time>
      </trkpt>
      <trkpt lat="43.61682" lon="7.06574">
        <ele>130.74</ele>
        <time>2016-10-09T15:41:47Z</time>
      </trkpt>
    </trkseg>
  </trk>
</gpx>